﻿<?xml version="1.0" encoding="utf-8"?><gpx creator="Garmin Desktop App" version="1.1" xsi:schemaLocation="http://www.topografix.com/GPX/1/1 http://www.topografix.com/GPX/1/1/gpx.xsd http://www.garmin.com/xmlschemas/WaypointExtension/v1 http://www8.garmin.com/xmlschemas/WaypointExtensionv1.xsd http://www.garmin.com/xmlschemas/TrackPointExtension/v1 http://www.garmin.com/xmlschemas/TrackPointExtensionv1.xsd http://www.garmin.com/xmlschemas/GpxExtensions/v3 http://www8.garmin.com/xmlschemas/GpxExtensionsv3.xsd http://www.garmin.com/xmlschemas/ActivityExtension/v1 http://www8.garmin.com/xmlschemas/ActivityExtensionv1.xsd http://www.garmin.com/xmlschemas/AdventuresExtensions/v1 http://www8.garmin.com/xmlschemas/AdventuresExtensionv1.xsd http://www.garmin.com/xmlschemas/PressureExtension/v1 http://www.garmin.com/xmlschemas/PressureExtensionv1.xsd http://www.garmin.com/xmlschemas/TripExtensions/v1 http://www.garmin.com/xmlschemas/TripExtensionsv1.xsd http://www.garmin.com/xmlschemas/TripMetaDataExtensions/v1 http://www.garmin.com/xmlschemas/TripMetaDataExtensionsv1.xsd http://www.garmin.com/xmlschemas/ViaPointTransportationModeExtensions/v1 http://www.garmin.com/xmlschemas/ViaPointTransportationModeExtensionsv1.xsd http://www.garmin.com/xmlschemas/CreationTimeExtension/v1 http://www.garmin.com/xmlschemas/CreationTimeExtensionsv1.xsd http://www.garmin.com/xmlschemas/AccelerationExtension/v1 http://www.garmin.com/xmlschemas/AccelerationExtensionv1.xsd http://www.garmin.com/xmlschemas/PowerExtension/v1 http://www.garmin.com/xmlschemas/PowerExtensionv1.xsd http://www.garmin.com/xmlschemas/VideoExtension/v1 http://www.garmin.com/xmlschemas/VideoExtensionv1.xsd" xmlns="http://www.topografix.com/GPX/1/1" xmlns:xsi="http://www.w3.org/2001/XMLSchema-instance" xmlns:wptx1="http://www.garmin.com/xmlschemas/WaypointExtension/v1" xmlns:gpxtrx="http://www.garmin.com/xmlschemas/GpxExtensions/v3" xmlns:gpxtpx="http://www.garmin.com/xmlschemas/TrackPointExtension/v1" xmlns:gpxx="http://www.garmin.com/xmlschemas/GpxExtensions/v3" xmlns:trp="http://www.garmin.com/xmlschemas/TripExtensions/v1" xmlns:adv="http://www.garmin.com/xmlschemas/AdventuresExtensions/v1" xmlns:prs="http://www.garmin.com/xmlschemas/PressureExtension/v1" xmlns:tmd="http://www.garmin.com/xmlschemas/TripMetaDataExtensions/v1" xmlns:vptm="http://www.garmin.com/xmlschemas/ViaPointTransportationModeExtensions/v1" xmlns:ctx="http://www.garmin.com/xmlschemas/CreationTimeExtension/v1" xmlns:gpxacc="http://www.garmin.com/xmlschemas/AccelerationExtension/v1" xmlns:gpxpx="http://www.garmin.com/xmlschemas/PowerExtension/v1" xmlns:vidx1="http://www.garmin.com/xmlschemas/VideoExtension/v1">

  <metadata>
    <link href="http://www.garmin.com">
      <text>Garmin International</text>
    </link>
    <time>2021-07-06T12:04:51Z</time>
    <bounds maxlat="50.820265151560307" maxlon="4.715098729357123" minlat="50.790171604603529" minlon="4.662082102149725" />
  </metadata>

  <trk>
    <name>meerdaalhof 17 km</name>
    <extensions>
      <gpxx:TrackExtension>
        <gpxx:DisplayColor>Red</gpxx:DisplayColor>
      </gpxx:TrackExtension>
    </extensions>
    <trkseg>
      <trkpt lat="50.820199269801378" lon="4.668581010773778">
        <ele>60.369999999999997</ele>
        <time>2021-07-03T08:34:35Z</time>
      </trkpt>
      <trkpt lat="50.820253752171993" lon="4.668733980506659">
        <ele>60.380000000000003</ele>
        <time>2021-07-03T08:35:00Z</time>
      </trkpt>
      <trkpt lat="50.820265151560307" lon="4.668688718229532">
        <ele>60.450000000000003</ele>
        <time>2021-07-03T08:35:31Z</time>
      </trkpt>
      <trkpt lat="50.820207148790359" lon="4.668724592775106">
        <ele>60.479999999999997</ele>
        <time>2021-07-03T08:35:47Z</time>
      </trkpt>
      <trkpt lat="50.820202706381679" lon="4.668758874759078">
        <ele>61.659999999999997</ele>
        <time>2021-07-03T08:35:54Z</time>
      </trkpt>
      <trkpt lat="50.820134477689862" lon="4.66870816424489">
        <ele>61.700000000000003</ele>
        <time>2021-07-03T08:36:26Z</time>
      </trkpt>
      <trkpt lat="50.820120312273502" lon="4.668612526729703">
        <ele>61.75</ele>
        <time>2021-07-03T08:36:45Z</time>
      </trkpt>
      <trkpt lat="50.820095334202051" lon="4.66852786950767">
        <ele>61.829999999999998</ele>
        <time>2021-07-03T08:37:04Z</time>
      </trkpt>
      <trkpt lat="50.820087874308228" lon="4.668511357158423">
        <ele>61.939999999999998</ele>
        <time>2021-07-03T08:37:26Z</time>
      </trkpt>
      <trkpt lat="50.820097513496876" lon="4.668502891436219">
        <ele>62.030000000000001</ele>
        <time>2021-07-03T08:37:47Z</time>
      </trkpt>
      <trkpt lat="50.820093657821417" lon="4.668508088216186">
        <ele>62.109999999999999</ele>
        <time>2021-07-03T08:38:04Z</time>
      </trkpt>
      <trkpt lat="50.820117713883519" lon="4.668536502867937">
        <ele>62.259999999999998</ele>
        <time>2021-07-03T08:38:32Z</time>
      </trkpt>
      <trkpt lat="50.820111511275172" lon="4.668517056852579">
        <ele>62.380000000000003</ele>
        <time>2021-07-03T08:38:58Z</time>
      </trkpt>
      <trkpt lat="50.820091813802719" lon="4.668538346886635">
        <ele>62.520000000000003</ele>
        <time>2021-07-03T08:39:31Z</time>
      </trkpt>
      <trkpt lat="50.820064740255475" lon="4.668557122349739">
        <ele>62.549999999999997</ele>
        <time>2021-07-03T08:39:42Z</time>
      </trkpt>
      <trkpt lat="50.819979077205062" lon="4.668723754584789">
        <ele>62.659999999999997</ele>
        <time>2021-07-03T08:39:56Z</time>
      </trkpt>
      <trkpt lat="50.819951919838786" lon="4.668909413740039">
        <ele>63.479999999999997</ele>
        <time>2021-07-03T08:40:10Z</time>
      </trkpt>
      <trkpt lat="50.819863742217422" lon="4.668983006849885">
        <ele>63.490000000000002</ele>
        <time>2021-07-03T08:40:22Z</time>
      </trkpt>
      <trkpt lat="50.819867765530944" lon="4.66898325830698">
        <ele>63.549999999999997</ele>
        <time>2021-07-03T08:40:46Z</time>
      </trkpt>
      <trkpt lat="50.819814205169678" lon="4.669004883617163">
        <ele>63.600000000000001</ele>
        <time>2021-07-03T08:41:01Z</time>
      </trkpt>
      <trkpt lat="50.81962963566184" lon="4.669079147279263">
        <ele>64.469999999999999</ele>
        <time>2021-07-03T08:41:17Z</time>
      </trkpt>
      <trkpt lat="50.819448921829462" lon="4.66914645396173">
        <ele>65.319999999999993</ele>
        <time>2021-07-03T08:41:31Z</time>
      </trkpt>
      <trkpt lat="50.819211713969707" lon="4.669253155589104">
        <ele>67.019999999999996</ele>
        <time>2021-07-03T08:41:49Z</time>
      </trkpt>
      <trkpt lat="50.819034604355693" lon="4.669327167794108">
        <ele>68.010000000000005</ele>
        <time>2021-07-03T08:42:02Z</time>
      </trkpt>
      <trkpt lat="50.818851040676236" lon="4.669413417577744">
        <ele>69.969999999999999</ele>
        <time>2021-07-03T08:42:16Z</time>
      </trkpt>
      <trkpt lat="50.818614838644862" lon="4.669491536915302">
        <ele>70.790000000000006</ele>
        <time>2021-07-03T08:42:34Z</time>
      </trkpt>
      <trkpt lat="50.818527666851878" lon="4.669524310156703">
        <ele>72.540000000000006</ele>
        <time>2021-07-03T08:42:44Z</time>
      </trkpt>
      <trkpt lat="50.818347288295627" lon="4.669582396745682">
        <ele>73.310000000000002</ele>
        <time>2021-07-03T08:43:00Z</time>
      </trkpt>
      <trkpt lat="50.81823212094605" lon="4.669632855802774">
        <ele>73.269999999999996</ele>
        <time>2021-07-03T08:43:11Z</time>
      </trkpt>
      <trkpt lat="50.818189792335033" lon="4.669647021219134">
        <ele>73.230000000000004</ele>
        <time>2021-07-03T08:43:15Z</time>
      </trkpt>
      <trkpt lat="50.818156935274601" lon="4.669654984027147">
        <ele>73.209999999999994</ele>
        <time>2021-07-03T08:43:18Z</time>
      </trkpt>
      <trkpt lat="50.818025507032871" lon="4.669686583802104">
        <ele>70.829999999999998</ele>
        <time>2021-07-03T08:43:28Z</time>
      </trkpt>
      <trkpt lat="50.817844457924366" lon="4.669864112511277">
        <ele>69.939999999999998</ele>
        <time>2021-07-03T08:43:42Z</time>
      </trkpt>
      <trkpt lat="50.817812606692314" lon="4.669919516891241">
        <ele>69.920000000000002</ele>
        <time>2021-07-03T08:43:45Z</time>
      </trkpt>
      <trkpt lat="50.817759297788143" lon="4.669987410306931">
        <ele>69.950000000000003</ele>
        <time>2021-07-03T08:43:49Z</time>
      </trkpt>
      <trkpt lat="50.81755293533206" lon="4.67026979662478">
        <ele>68.200000000000003</ele>
        <time>2021-07-03T08:44:05Z</time>
      </trkpt>
      <trkpt lat="50.817402899265289" lon="4.670463334769011">
        <ele>67.390000000000001</ele>
        <time>2021-07-03T08:44:17Z</time>
      </trkpt>
      <trkpt lat="50.817268956452608" lon="4.670644551515579">
        <ele>67.439999999999998</ele>
        <time>2021-07-03T08:44:31Z</time>
      </trkpt>
      <trkpt lat="50.817163931205869" lon="4.670823588967323">
        <ele>66.530000000000001</ele>
        <time>2021-07-03T08:44:44Z</time>
      </trkpt>
      <trkpt lat="50.817142641171813" lon="4.670856865122914">
        <ele>66.519999999999996</ele>
        <time>2021-07-03T08:44:46Z</time>
      </trkpt>
      <trkpt lat="50.817019091919065" lon="4.670974295586348">
        <ele>66.5</ele>
        <time>2021-07-03T08:44:57Z</time>
      </trkpt>
      <trkpt lat="50.816833935678005" lon="4.671029280871153">
        <ele>66.400000000000006</ele>
        <time>2021-07-03T08:45:16Z</time>
      </trkpt>
      <trkpt lat="50.816666213795543" lon="4.671180741861463">
        <ele>65.450000000000003</ele>
        <time>2021-07-03T08:45:34Z</time>
      </trkpt>
      <trkpt lat="50.816514417529106" lon="4.671171270310879">
        <ele>65.329999999999998</ele>
        <time>2021-07-03T08:45:51Z</time>
      </trkpt>
      <trkpt lat="50.816260948777199" lon="4.67122994363308">
        <ele>64.400000000000006</ele>
        <time>2021-07-03T08:46:09Z</time>
      </trkpt>
      <trkpt lat="50.815992476418614" lon="4.67127294279635">
        <ele>64.239999999999995</ele>
        <time>2021-07-03T08:46:24Z</time>
      </trkpt>
      <trkpt lat="50.815787119790912" lon="4.671333711594343">
        <ele>64.049999999999997</ele>
        <time>2021-07-03T08:46:39Z</time>
      </trkpt>
      <trkpt lat="50.815573884174228" lon="4.671425158157945">
        <ele>63.07</ele>
        <time>2021-07-03T08:46:58Z</time>
      </trkpt>
      <trkpt lat="50.815444048494101" lon="4.671491626650095">
        <ele>62.890000000000001</ele>
        <time>2021-07-03T08:47:10Z</time>
      </trkpt>
      <trkpt lat="50.815382776781917" lon="4.671516688540578">
        <ele>62.840000000000003</ele>
        <time>2021-07-03T08:47:15Z</time>
      </trkpt>
      <trkpt lat="50.815102988854051" lon="4.671711148694158">
        <ele>62.600000000000001</ele>
        <time>2021-07-03T08:47:34Z</time>
      </trkpt>
      <trkpt lat="50.814956054091454" lon="4.671930084004998">
        <ele>62.5</ele>
        <time>2021-07-03T08:47:45Z</time>
      </trkpt>
      <trkpt lat="50.814743489027023" lon="4.672239208593965">
        <ele>62.340000000000003</ele>
        <time>2021-07-03T08:48:00Z</time>
      </trkpt>
      <trkpt lat="50.814670147374272" lon="4.672402404248714">
        <ele>62.32</ele>
        <time>2021-07-03T08:48:06Z</time>
      </trkpt>
      <trkpt lat="50.814535701647401" lon="4.672703398391604">
        <ele>62.100000000000001</ele>
        <time>2021-07-03T08:48:27Z</time>
      </trkpt>
      <trkpt lat="50.814495636150241" lon="4.672827618196607">
        <ele>61.950000000000003</ele>
        <time>2021-07-03T08:48:40Z</time>
      </trkpt>
      <trkpt lat="50.81447166390717" lon="4.672999111935496">
        <ele>61.859999999999999</ele>
        <time>2021-07-03T08:48:49Z</time>
      </trkpt>
      <trkpt lat="50.814369656145573" lon="4.673253837972879">
        <ele>61.670000000000002</ele>
        <time>2021-07-03T08:49:08Z</time>
      </trkpt>
      <trkpt lat="50.814292458817363" lon="4.673496913164854">
        <ele>61.5</ele>
        <time>2021-07-03T08:49:25Z</time>
      </trkpt>
      <trkpt lat="50.814292458817363" lon="4.673763290047646">
        <ele>61.350000000000001</ele>
        <time>2021-07-03T08:49:44Z</time>
      </trkpt>
      <trkpt lat="50.814174776896834" lon="4.674136703833938">
        <ele>61.229999999999997</ele>
        <time>2021-07-03T08:50:03Z</time>
      </trkpt>
      <trkpt lat="50.814109230414033" lon="4.674594691023231">
        <ele>61.100000000000001</ele>
        <time>2021-07-03T08:50:20Z</time>
      </trkpt>
      <trkpt lat="50.813974784687161" lon="4.674712205305696">
        <ele>60.990000000000002</ele>
        <time>2021-07-03T08:50:34Z</time>
      </trkpt>
      <trkpt lat="50.813782000914216" lon="4.674468962475658">
        <ele>60.880000000000003</ele>
        <time>2021-07-03T08:50:50Z</time>
      </trkpt>
      <trkpt lat="50.813761381432414" lon="4.674426885321736">
        <ele>60.850000000000001</ele>
        <time>2021-07-03T08:50:52Z</time>
      </trkpt>
      <trkpt lat="50.813616877421737" lon="4.673986751586199">
        <ele>60.590000000000003</ele>
        <time>2021-07-03T08:51:11Z</time>
      </trkpt>
      <trkpt lat="50.813601538538933" lon="4.673955319449306">
        <ele>60.579999999999998</ele>
        <time>2021-07-03T08:51:12Z</time>
      </trkpt>
      <trkpt lat="50.813561640679836" lon="4.673805451020598">
        <ele>60.5</ele>
        <time>2021-07-03T08:51:17Z</time>
      </trkpt>
      <trkpt lat="50.813461057841778" lon="4.673278816044331">
        <ele>60.32</ele>
        <time>2021-07-03T08:51:29Z</time>
      </trkpt>
      <trkpt lat="50.813451837748289" lon="4.673219136893749">
        <ele>60.299999999999997</ele>
        <time>2021-07-03T08:51:30Z</time>
      </trkpt>
      <trkpt lat="50.813360894098878" lon="4.672795766964555">
        <ele>60.109999999999999</ele>
        <time>2021-07-03T08:51:40Z</time>
      </trkpt>
      <trkpt lat="50.813355194404721" lon="4.672745307907462">
        <ele>60.07</ele>
        <time>2021-07-03T08:51:42Z</time>
      </trkpt>
      <trkpt lat="50.81335267983377" lon="4.672714378684759">
        <ele>59.289999999999999</ele>
        <time>2021-07-03T08:51:43Z</time>
      </trkpt>
      <trkpt lat="50.813344800844789" lon="4.672690322622657">
        <ele>59.280000000000001</ele>
        <time>2021-07-03T08:51:44Z</time>
      </trkpt>
      <trkpt lat="50.813335748389363" lon="4.672666601836681">
        <ele>59.25</ele>
        <time>2021-07-03T08:51:45Z</time>
      </trkpt>
      <trkpt lat="50.813322085887194" lon="4.672625530511141">
        <ele>59.229999999999997</ele>
        <time>2021-07-03T08:51:46Z</time>
      </trkpt>
      <trkpt lat="50.81322125159204" lon="4.672279022634029">
        <ele>59.049999999999997</ele>
        <time>2021-07-03T08:51:55Z</time>
      </trkpt>
      <trkpt lat="50.813214629888535" lon="4.67226049862802">
        <ele>59.020000000000003</ele>
        <time>2021-07-03T08:51:56Z</time>
      </trkpt>
      <trkpt lat="50.813207169994712" lon="4.672233341261745">
        <ele>58.219999999999999</ele>
        <time>2021-07-03T08:51:57Z</time>
      </trkpt>
      <trkpt lat="50.813198368996382" lon="4.67219403013587">
        <ele>58.200000000000003</ele>
        <time>2021-07-03T08:51:58Z</time>
      </trkpt>
      <trkpt lat="50.813196189701557" lon="4.672161675989628">
        <ele>58.18</ele>
        <time>2021-07-03T08:51:59Z</time>
      </trkpt>
      <trkpt lat="50.81309225410223" lon="4.671559687703848">
        <ele>57.130000000000003</ele>
        <time>2021-07-03T08:52:11Z</time>
      </trkpt>
      <trkpt lat="50.812969459220767" lon="4.670905480161309">
        <ele>56.939999999999998</ele>
        <time>2021-07-03T08:52:22Z</time>
      </trkpt>
      <trkpt lat="50.812852364033461" lon="4.67031673528254">
        <ele>56.75</ele>
        <time>2021-07-03T08:52:33Z</time>
      </trkpt>
      <trkpt lat="50.81283912062645" lon="4.670275999233127">
        <ele>56.719999999999999</ele>
        <time>2021-07-03T08:52:34Z</time>
      </trkpt>
      <trkpt lat="50.812823697924614" lon="4.670225204899907">
        <ele>56.710000000000001</ele>
        <time>2021-07-03T08:52:35Z</time>
      </trkpt>
      <trkpt lat="50.812809197232127" lon="4.670155886560679">
        <ele>56.689999999999998</ele>
        <time>2021-07-03T08:52:36Z</time>
      </trkpt>
      <trkpt lat="50.812798468396068" lon="4.670105762779713">
        <ele>56.670000000000002</ele>
        <time>2021-07-03T08:52:37Z</time>
      </trkpt>
      <trkpt lat="50.812681289389729" lon="4.669514000415802">
        <ele>56.490000000000002</ele>
        <time>2021-07-03T08:52:47Z</time>
      </trkpt>
      <trkpt lat="50.812607863917947" lon="4.669038914144039">
        <ele>56.329999999999998</ele>
        <time>2021-07-03T08:52:56Z</time>
      </trkpt>
      <trkpt lat="50.812472412362695" lon="4.668418318033218">
        <ele>56.200000000000003</ele>
        <time>2021-07-03T08:53:06Z</time>
      </trkpt>
      <trkpt lat="50.812437711283565" lon="4.668222097679973">
        <ele>56.140000000000001</ele>
        <time>2021-07-03T08:53:12Z</time>
      </trkpt>
      <trkpt lat="50.812441147863865" lon="4.668179601430893">
        <ele>56.140000000000001</ele>
        <time>2021-07-03T08:53:13Z</time>
      </trkpt>
      <trkpt lat="50.812433855608106" lon="4.668151186779141">
        <ele>56.140000000000001</ele>
        <time>2021-07-03T08:53:14Z</time>
      </trkpt>
      <trkpt lat="50.812389766797423" lon="4.66784130781889">
        <ele>56.039999999999999</ele>
        <time>2021-07-03T08:53:24Z</time>
      </trkpt>
      <trkpt lat="50.812386497855186" lon="4.667800236493349">
        <ele>56.030000000000001</ele>
        <time>2021-07-03T08:53:25Z</time>
      </trkpt>
      <trkpt lat="50.812262194231153" lon="4.667310733348131">
        <ele>55.850000000000001</ele>
        <time>2021-07-03T08:53:40Z</time>
      </trkpt>
      <trkpt lat="50.812193211168051" lon="4.66695106588304">
        <ele>55.689999999999998</ele>
        <time>2021-07-03T08:53:55Z</time>
      </trkpt>
      <trkpt lat="50.812143506482244" lon="4.66669156216085">
        <ele>55.560000000000002</ele>
        <time>2021-07-03T08:54:10Z</time>
      </trkpt>
      <trkpt lat="50.812052814289927" lon="4.666360225528479">
        <ele>55.420000000000002</ele>
        <time>2021-07-03T08:54:24Z</time>
      </trkpt>
      <trkpt lat="50.812042504549026" lon="4.666317477822304">
        <ele>55.409999999999997</ele>
        <time>2021-07-03T08:54:25Z</time>
      </trkpt>
      <trkpt lat="50.812034206464887" lon="4.666299121454358">
        <ele>55.399999999999999</ele>
        <time>2021-07-03T08:54:26Z</time>
      </trkpt>
      <trkpt lat="50.811959188431501" lon="4.665815988555551">
        <ele>55.210000000000001</ele>
        <time>2021-07-03T08:54:45Z</time>
      </trkpt>
      <trkpt lat="50.811856929212809" lon="4.665621696040034">
        <ele>55.049999999999997</ele>
        <time>2021-07-03T08:55:00Z</time>
      </trkpt>
      <trkpt lat="50.811842596158385" lon="4.665606105700135">
        <ele>55.030000000000001</ele>
        <time>2021-07-03T08:55:02Z</time>
      </trkpt>
      <trkpt lat="50.811642687767744" lon="4.665447687730193">
        <ele>54.780000000000001</ele>
        <time>2021-07-03T08:55:24Z</time>
      </trkpt>
      <trkpt lat="50.811394834890962" lon="4.66546168550849">
        <ele>56.960000000000001</ele>
        <time>2021-07-03T08:55:37Z</time>
      </trkpt>
      <trkpt lat="50.811124015599489" lon="4.665474509820342">
        <ele>57.799999999999997</ele>
        <time>2021-07-03T08:55:53Z</time>
      </trkpt>
      <trkpt lat="50.810823356732726" lon="4.665463194251061">
        <ele>57.630000000000003</ele>
        <time>2021-07-03T08:56:12Z</time>
      </trkpt>
      <trkpt lat="50.81073509529233" lon="4.665486831218004">
        <ele>57.579999999999998</ele>
        <time>2021-07-03T08:56:22Z</time>
      </trkpt>
      <trkpt lat="50.81068673171103" lon="4.665492782369256">
        <ele>57.549999999999997</ele>
        <time>2021-07-03T08:56:27Z</time>
      </trkpt>
      <trkpt lat="50.810669297352433" lon="4.66547685675323">
        <ele>57.539999999999999</ele>
        <time>2021-07-03T08:56:28Z</time>
      </trkpt>
      <trkpt lat="50.810589753091335" lon="4.665452465415001">
        <ele>57.469999999999999</ele>
        <time>2021-07-03T08:56:34Z</time>
      </trkpt>
      <trkpt lat="50.8105777669698" lon="4.6654455922544">
        <ele>57.479999999999997</ele>
        <time>2021-07-03T08:56:35Z</time>
      </trkpt>
      <trkpt lat="50.810466874390841" lon="4.665463194251061">
        <ele>57.409999999999997</ele>
        <time>2021-07-03T08:56:43Z</time>
      </trkpt>
      <trkpt lat="50.810409458354115" lon="4.665473084896803">
        <ele>57.359999999999999</ele>
        <time>2021-07-03T08:56:48Z</time>
      </trkpt>
      <trkpt lat="50.810346007347107" lon="4.665485322475433">
        <ele>57.299999999999997</ele>
        <time>2021-07-03T08:56:56Z</time>
      </trkpt>
      <trkpt lat="50.810231762006879" lon="4.665521029382944">
        <ele>57.270000000000003</ele>
        <time>2021-07-03T08:57:01Z</time>
      </trkpt>
      <trkpt lat="50.810192031785846" lon="4.665537541732192">
        <ele>57.259999999999998</ele>
        <time>2021-07-03T08:57:02Z</time>
      </trkpt>
      <trkpt lat="50.809845272451639" lon="4.665667125955224">
        <ele>57.200000000000003</ele>
        <time>2021-07-03T08:57:11Z</time>
      </trkpt>
      <trkpt lat="50.809710323810577" lon="4.66568254865706">
        <ele>58.020000000000003</ele>
        <time>2021-07-03T08:57:15Z</time>
      </trkpt>
      <trkpt lat="50.809685010462999" lon="4.66567961499095">
        <ele>58</ele>
        <time>2021-07-03T08:57:16Z</time>
      </trkpt>
      <trkpt lat="50.809302544221282" lon="4.665670227259398">
        <ele>57.880000000000003</ele>
        <time>2021-07-03T08:57:29Z</time>
      </trkpt>
      <trkpt lat="50.808840868994594" lon="4.665750106796622">
        <ele>57.799999999999997</ele>
        <time>2021-07-03T08:57:39Z</time>
      </trkpt>
      <trkpt lat="50.808254890143871" lon="4.665902238339186">
        <ele>57.740000000000002</ele>
        <time>2021-07-03T08:57:50Z</time>
      </trkpt>
      <trkpt lat="50.807880302891135" lon="4.666035762056708">
        <ele>57.719999999999999</ele>
        <time>2021-07-03T08:57:56Z</time>
      </trkpt>
      <trkpt lat="50.807820204645395" lon="4.666061578318477">
        <ele>57.700000000000003</ele>
        <time>2021-07-03T08:57:57Z</time>
      </trkpt>
      <trkpt lat="50.807730685919523" lon="4.666098039597273">
        <ele>57.710000000000001</ele>
        <time>2021-07-03T08:57:58Z</time>
      </trkpt>
      <trkpt lat="50.807667570188642" lon="4.666127543896437">
        <ele>57.700000000000003</ele>
        <time>2021-07-03T08:57:59Z</time>
      </trkpt>
      <trkpt lat="50.807611662894487" lon="4.666141793131828">
        <ele>57.710000000000001</ele>
        <time>2021-07-03T08:58:00Z</time>
      </trkpt>
      <trkpt lat="50.807574950158596" lon="4.666166435927153">
        <ele>58.740000000000002</ele>
        <time>2021-07-03T08:58:01Z</time>
      </trkpt>
      <trkpt lat="50.807193489745259" lon="4.666299540549517">
        <ele>59.5</ele>
        <time>2021-07-03T08:58:09Z</time>
      </trkpt>
      <trkpt lat="50.806956281885505" lon="4.666373385116458">
        <ele>59.5</ele>
        <time>2021-07-03T08:58:14Z</time>
      </trkpt>
      <trkpt lat="50.806900793686509" lon="4.666382102295756">
        <ele>59.509999999999998</ele>
        <time>2021-07-03T08:58:15Z</time>
      </trkpt>
      <trkpt lat="50.806862320750952" lon="4.666400877758861">
        <ele>59.530000000000001</ele>
        <time>2021-07-03T08:58:16Z</time>
      </trkpt>
      <trkpt lat="50.806829296052456" lon="4.666411941871047">
        <ele>60.350000000000001</ele>
        <time>2021-07-03T08:58:17Z</time>
      </trkpt>
      <trkpt lat="50.806793421506882" lon="4.666431220248342">
        <ele>60.350000000000001</ele>
        <time>2021-07-03T08:58:18Z</time>
      </trkpt>
      <trkpt lat="50.806760983541608" lon="4.666444296017289">
        <ele>60.359999999999999</ele>
        <time>2021-07-03T08:58:19Z</time>
      </trkpt>
      <trkpt lat="50.806734329089522" lon="4.666453851386905">
        <ele>60.329999999999998</ele>
        <time>2021-07-03T08:58:20Z</time>
      </trkpt>
      <trkpt lat="50.806691832840443" lon="4.66645167209208">
        <ele>60.329999999999998</ele>
        <time>2021-07-03T08:58:22Z</time>
      </trkpt>
      <trkpt lat="50.806591417640448" lon="4.666466927155852">
        <ele>60.340000000000003</ele>
        <time>2021-07-03T08:58:28Z</time>
      </trkpt>
      <trkpt lat="50.806324873119593" lon="4.666413450613618">
        <ele>60.340000000000003</ele>
        <time>2021-07-03T08:58:40Z</time>
      </trkpt>
      <trkpt lat="50.805929498746991" lon="4.666334660723805">
        <ele>61.090000000000003</ele>
        <time>2021-07-03T08:58:58Z</time>
      </trkpt>
      <trkpt lat="50.805698996409774" lon="4.666389226913452">
        <ele>61.119999999999997</ele>
        <time>2021-07-03T08:59:19Z</time>
      </trkpt>
      <trkpt lat="50.805451897904277" lon="4.666316891089082">
        <ele>61.119999999999997</ele>
        <time>2021-07-03T08:59:42Z</time>
      </trkpt>
      <trkpt lat="50.805168673396111" lon="4.666358213871718">
        <ele>61.149999999999999</ele>
        <time>2021-07-03T09:00:02Z</time>
      </trkpt>
      <trkpt lat="50.805144784972072" lon="4.666373217478395">
        <ele>61.140000000000001</ele>
        <time>2021-07-03T09:00:03Z</time>
      </trkpt>
      <trkpt lat="50.804881090298295" lon="4.666366260498762">
        <ele>61.149999999999999</ele>
        <time>2021-07-03T09:00:18Z</time>
      </trkpt>
      <trkpt lat="50.804602727293968" lon="4.666403811424971">
        <ele>61.149999999999999</ele>
        <time>2021-07-03T09:00:36Z</time>
      </trkpt>
      <trkpt lat="50.804369039833546" lon="4.666491318494082">
        <ele>61.149999999999999</ele>
        <time>2021-07-03T09:00:54Z</time>
      </trkpt>
      <trkpt lat="50.804256470873952" lon="4.6664834395051">
        <ele>61.149999999999999</ele>
        <time>2021-07-03T09:01:02Z</time>
      </trkpt>
      <trkpt lat="50.803996799513698" lon="4.66652643866837">
        <ele>61.140000000000001</ele>
        <time>2021-07-03T09:01:20Z</time>
      </trkpt>
      <trkpt lat="50.803741989657283" lon="4.666573042050004">
        <ele>61.130000000000003</ele>
        <time>2021-07-03T09:01:38Z</time>
      </trkpt>
      <trkpt lat="50.803555408492684" lon="4.66659676283598">
        <ele>61.140000000000001</ele>
        <time>2021-07-03T09:01:55Z</time>
      </trkpt>
      <trkpt lat="50.803436385467649" lon="4.666565330699086">
        <ele>61.149999999999999</ele>
        <time>2021-07-03T09:02:02Z</time>
      </trkpt>
      <trkpt lat="50.8034129999578" lon="4.666587542742491">
        <ele>61.149999999999999</ele>
        <time>2021-07-03T09:02:03Z</time>
      </trkpt>
      <trkpt lat="50.803192891180515" lon="4.666653424501419">
        <ele>58.280000000000001</ele>
        <time>2021-07-03T09:02:17Z</time>
      </trkpt>
      <trkpt lat="50.803182581439614" lon="4.666659543290734">
        <ele>55.909999999999997</ele>
        <time>2021-07-03T09:02:18Z</time>
      </trkpt>
      <trkpt lat="50.803172523155808" lon="4.666661135852337">
        <ele>59.329999999999998</ele>
        <time>2021-07-03T09:02:19Z</time>
      </trkpt>
      <trkpt lat="50.802914947271347" lon="4.666632385924459">
        <ele>59.340000000000003</ele>
        <time>2021-07-03T09:02:35Z</time>
      </trkpt>
      <trkpt lat="50.802646977826953" lon="4.666732382029295">
        <ele>59.299999999999997</ele>
        <time>2021-07-03T09:02:52Z</time>
      </trkpt>
      <trkpt lat="50.802458133548498" lon="4.666759790852666">
        <ele>59.25</ele>
        <time>2021-07-03T09:03:09Z</time>
      </trkpt>
      <trkpt lat="50.802341541275382" lon="4.666755432263017">
        <ele>59.229999999999997</ele>
        <time>2021-07-03T09:03:18Z</time>
      </trkpt>
      <trkpt lat="50.802073236554861" lon="4.666837826371193">
        <ele>59.200000000000003</ele>
        <time>2021-07-03T09:03:36Z</time>
      </trkpt>
      <trkpt lat="50.802061082795262" lon="4.666851488873363">
        <ele>59.200000000000003</ele>
        <time>2021-07-03T09:03:37Z</time>
      </trkpt>
      <trkpt lat="50.802047671750188" lon="4.666855596005917">
        <ele>59.189999999999998</ele>
        <time>2021-07-03T09:03:38Z</time>
      </trkpt>
      <trkpt lat="50.802011713385582" lon="4.666872946545482">
        <ele>59.189999999999998</ele>
        <time>2021-07-03T09:03:41Z</time>
      </trkpt>
      <trkpt lat="50.801949435845017" lon="4.666889542713761">
        <ele>59.170000000000002</ele>
        <time>2021-07-03T09:03:47Z</time>
      </trkpt>
      <trkpt lat="50.801887745037675" lon="4.666899684816599">
        <ele>59.170000000000002</ele>
        <time>2021-07-03T09:03:51Z</time>
      </trkpt>
      <trkpt lat="50.801855307072401" lon="4.666877388954163">
        <ele>59.159999999999997</ele>
        <time>2021-07-03T09:04:10Z</time>
      </trkpt>
      <trkpt lat="50.801916997879744" lon="4.666891722008586">
        <ele>59.240000000000002</ele>
        <time>2021-07-03T09:04:37Z</time>
      </trkpt>
      <trkpt lat="50.801922613754869" lon="4.66706489212811">
        <ele>59.310000000000002</ele>
        <time>2021-07-03T09:04:54Z</time>
      </trkpt>
      <trkpt lat="50.80192219465971" lon="4.667422296479344">
        <ele>59.369999999999997</ele>
        <time>2021-07-03T09:05:12Z</time>
      </trkpt>
      <trkpt lat="50.801912723109126" lon="4.667718345299363">
        <ele>59.380000000000003</ele>
        <time>2021-07-03T09:05:24Z</time>
      </trkpt>
      <trkpt lat="50.801919093355536" lon="4.668113384395838">
        <ele>59.340000000000003</ele>
        <time>2021-07-03T09:05:42Z</time>
      </trkpt>
      <trkpt lat="50.801935018971562" lon="4.668251685798168">
        <ele>57.030000000000001</ele>
        <time>2021-07-03T09:05:48Z</time>
      </trkpt>
      <trkpt lat="50.801890762522817" lon="4.668707828968763">
        <ele>56.049999999999997</ele>
        <time>2021-07-03T09:06:07Z</time>
      </trkpt>
      <trkpt lat="50.801884643733501" lon="4.66889918781817">
        <ele>55.159999999999997</ele>
        <time>2021-07-03T09:06:18Z</time>
      </trkpt>
      <trkpt lat="50.801863521337509" lon="4.669053917750716">
        <ele>54.280000000000001</ele>
        <time>2021-07-03T09:06:26Z</time>
      </trkpt>
      <trkpt lat="50.801880871877074" lon="4.669222645461559">
        <ele>53.310000000000002</ele>
        <time>2021-07-03T09:06:34Z</time>
      </trkpt>
      <trkpt lat="50.801884224638343" lon="4.669307386502624">
        <ele>52.450000000000003</ele>
        <time>2021-07-03T09:06:38Z</time>
      </trkpt>
      <trkpt lat="50.801936695352197" lon="4.669449040666223">
        <ele>51.390000000000001</ele>
        <time>2021-07-03T09:06:49Z</time>
      </trkpt>
      <trkpt lat="50.801948430016637" lon="4.669532272964716">
        <ele>50.369999999999997</ele>
        <time>2021-07-03T09:06:58Z</time>
      </trkpt>
      <trkpt lat="50.801957817748189" lon="4.669558089226484">
        <ele>49.479999999999997</ele>
        <time>2021-07-03T09:07:01Z</time>
      </trkpt>
      <trkpt lat="50.801925379782915" lon="4.670019596815109">
        <ele>47.590000000000003</ele>
        <time>2021-07-03T09:07:19Z</time>
      </trkpt>
      <trkpt lat="50.801939964294434" lon="4.670138200744987">
        <ele>46.649999999999999</ele>
        <time>2021-07-03T09:07:24Z</time>
      </trkpt>
      <trkpt lat="50.801916662603617" lon="4.670208776369691">
        <ele>46.600000000000001</ele>
        <time>2021-07-03T09:07:27Z</time>
      </trkpt>
      <trkpt lat="50.801921859383583" lon="4.670225372537971">
        <ele>45.729999999999997</ele>
        <time>2021-07-03T09:07:28Z</time>
      </trkpt>
      <trkpt lat="50.801853546872735" lon="4.67064262367785">
        <ele>43.890000000000001</ele>
        <time>2021-07-03T09:07:48Z</time>
      </trkpt>
      <trkpt lat="50.801806272938848" lon="4.670684868469834">
        <ele>42.93</ele>
        <time>2021-07-03T09:07:53Z</time>
      </trkpt>
      <trkpt lat="50.801643831655383" lon="4.670856362208724">
        <ele>42.189999999999998</ele>
        <time>2021-07-03T09:08:07Z</time>
      </trkpt>
      <trkpt lat="50.801625810563564" lon="4.670915873721242">
        <ele>42.18</ele>
        <time>2021-07-03T09:08:12Z</time>
      </trkpt>
      <trkpt lat="50.801482144743204" lon="4.671171773225069">
        <ele>40.520000000000003</ele>
        <time>2021-07-03T09:08:30Z</time>
      </trkpt>
      <trkpt lat="50.801220629364252" lon="4.67137704603374">
        <ele>39.590000000000003</ele>
        <time>2021-07-03T09:08:48Z</time>
      </trkpt>
      <trkpt lat="50.800958359614015" lon="4.671569410711527">
        <ele>39.600000000000001</ele>
        <time>2021-07-03T09:09:05Z</time>
      </trkpt>
      <trkpt lat="50.800803881138563" lon="4.67146304436028">
        <ele>38.409999999999997</ele>
        <time>2021-07-03T09:09:17Z</time>
      </trkpt>
      <trkpt lat="50.800732970237732" lon="4.671361623331904">
        <ele>38.329999999999998</ele>
        <time>2021-07-03T09:09:30Z</time>
      </trkpt>
      <trkpt lat="50.800632052123547" lon="4.671209743246436">
        <ele>38.329999999999998</ele>
        <time>2021-07-03T09:09:47Z</time>
      </trkpt>
      <trkpt lat="50.800505569204688" lon="4.670805735513568">
        <ele>38.200000000000003</ele>
        <time>2021-07-03T09:10:07Z</time>
      </trkpt>
      <trkpt lat="50.800484530627728" lon="4.670784194022417">
        <ele>38.200000000000003</ele>
        <time>2021-07-03T09:10:08Z</time>
      </trkpt>
      <trkpt lat="50.80037422478199" lon="4.670341964811087">
        <ele>37.240000000000002</ele>
        <time>2021-07-03T09:10:26Z</time>
      </trkpt>
      <trkpt lat="50.80033415928483" lon="4.670252529904246">
        <ele>37.229999999999997</ele>
        <time>2021-07-03T09:10:31Z</time>
      </trkpt>
      <trkpt lat="50.800289232283831" lon="4.670159993693233">
        <ele>37.140000000000001</ele>
        <time>2021-07-03T09:10:36Z</time>
      </trkpt>
      <trkpt lat="50.80019686371088" lon="4.670079108327627">
        <ele>37.07</ele>
        <time>2021-07-03T09:10:41Z</time>
      </trkpt>
      <trkpt lat="50.80013039521873" lon="4.67000056989491">
        <ele>37.020000000000003</ele>
        <time>2021-07-03T09:10:44Z</time>
      </trkpt>
      <trkpt lat="50.800108266994357" lon="4.669984476640821">
        <ele>37.020000000000003</ele>
        <time>2021-07-03T09:10:45Z</time>
      </trkpt>
      <trkpt lat="50.800084294751287" lon="4.66996100731194">
        <ele>37</ele>
        <time>2021-07-03T09:10:46Z</time>
      </trkpt>
      <trkpt lat="50.799866868183017" lon="4.669774929061532">
        <ele>36.07</ele>
        <time>2021-07-03T09:10:56Z</time>
      </trkpt>
      <trkpt lat="50.799671234562993" lon="4.669535122811794">
        <ele>35.149999999999999</ele>
        <time>2021-07-03T09:11:06Z</time>
      </trkpt>
      <trkpt lat="50.799555480480194" lon="4.669407466426492">
        <ele>35.18</ele>
        <time>2021-07-03T09:11:11Z</time>
      </trkpt>
      <trkpt lat="50.799542237073183" lon="4.669370921328664">
        <ele>35.119999999999997</ele>
        <time>2021-07-03T09:11:12Z</time>
      </trkpt>
      <trkpt lat="50.799531927332282" lon="4.669356420636177">
        <ele>35.109999999999999</ele>
        <time>2021-07-03T09:11:13Z</time>
      </trkpt>
      <trkpt lat="50.79952253960073" lon="4.669333873316646">
        <ele>35.109999999999999</ele>
        <time>2021-07-03T09:11:14Z</time>
      </trkpt>
      <trkpt lat="50.799512397497892" lon="4.669302022084594">
        <ele>35.109999999999999</ele>
        <time>2021-07-03T09:11:15Z</time>
      </trkpt>
      <trkpt lat="50.799392955377698" lon="4.669159445911646">
        <ele>35.030000000000001</ele>
        <time>2021-07-03T09:11:22Z</time>
      </trkpt>
      <trkpt lat="50.799265298992395" lon="4.668966745957732">
        <ele>34.960000000000001</ele>
        <time>2021-07-03T09:11:27Z</time>
      </trkpt>
      <trkpt lat="50.799236968159676" lon="4.668936403468251">
        <ele>34.960000000000001</ele>
        <time>2021-07-03T09:11:28Z</time>
      </trkpt>
      <trkpt lat="50.799206374213099" lon="4.668898014351726">
        <ele>34.960000000000001</ele>
        <time>2021-07-03T09:11:29Z</time>
      </trkpt>
      <trkpt lat="50.798981739208102" lon="4.668744206428528">
        <ele>34.810000000000002</ele>
        <time>2021-07-03T09:11:37Z</time>
      </trkpt>
      <trkpt lat="50.798898590728641" lon="4.66864756308496">
        <ele>34.789999999999999</ele>
        <time>2021-07-03T09:11:41Z</time>
      </trkpt>
      <trkpt lat="50.79883748665452" lon="4.668601043522358">
        <ele>34.719999999999999</ele>
        <time>2021-07-03T09:11:44Z</time>
      </trkpt>
      <trkpt lat="50.798713685944676" lon="4.668569192290306">
        <ele>33.859999999999999</ele>
        <time>2021-07-03T09:11:48Z</time>
      </trkpt>
      <trkpt lat="50.798585778102279" lon="4.668539771810174">
        <ele>33.899999999999999</ele>
        <time>2021-07-03T09:11:52Z</time>
      </trkpt>
      <trkpt lat="50.798557279631495" lon="4.66853030025959">
        <ele>33.789999999999999</ele>
        <time>2021-07-03T09:11:53Z</time>
      </trkpt>
      <trkpt lat="50.798532469198108" lon="4.668522924184799">
        <ele>33.799999999999997</ele>
        <time>2021-07-03T09:11:54Z</time>
      </trkpt>
      <trkpt lat="50.79850279726088" lon="4.668514542281628">
        <ele>33.789999999999999</ele>
        <time>2021-07-03T09:11:55Z</time>
      </trkpt>
      <trkpt lat="50.798480585217476" lon="4.668502304702997">
        <ele>33.780000000000001</ele>
        <time>2021-07-03T09:11:56Z</time>
      </trkpt>
      <trkpt lat="50.798458624631166" lon="4.668494425714016">
        <ele>33.829999999999998</ele>
        <time>2021-07-03T09:11:57Z</time>
      </trkpt>
      <trkpt lat="50.798347732052207" lon="4.668519655242562">
        <ele>33.770000000000003</ele>
        <time>2021-07-03T09:12:01Z</time>
      </trkpt>
      <trkpt lat="50.798319485038519" lon="4.668512111529708">
        <ele>33.719999999999999</ele>
        <time>2021-07-03T09:12:02Z</time>
      </trkpt>
      <trkpt lat="50.798258800059557" lon="4.66851806268096">
        <ele>33.729999999999997</ele>
        <time>2021-07-03T09:12:03Z</time>
      </trkpt>
      <trkpt lat="50.798213286325336" lon="4.668517727404833">
        <ele>33.68</ele>
        <time>2021-07-03T09:12:04Z</time>
      </trkpt>
      <trkpt lat="50.798154529184103" lon="4.668518900871277">
        <ele>33.670000000000002</ele>
        <time>2021-07-03T09:12:05Z</time>
      </trkpt>
      <trkpt lat="50.79808353446424" lon="4.668516889214516">
        <ele>32.869999999999997</ele>
        <time>2021-07-03T09:12:06Z</time>
      </trkpt>
      <trkpt lat="50.798028716817498" lon="4.668490570038557">
        <ele>32.880000000000003</ele>
        <time>2021-07-03T09:12:07Z</time>
      </trkpt>
      <trkpt lat="50.797980269417167" lon="4.668467100709677">
        <ele>32.859999999999999</ele>
        <time>2021-07-03T09:12:08Z</time>
      </trkpt>
      <trkpt lat="50.797950429841876" lon="4.668443128466606">
        <ele>32.840000000000003</ele>
        <time>2021-07-03T09:12:09Z</time>
      </trkpt>
      <trkpt lat="50.797924362123013" lon="4.668428208678961">
        <ele>32.82</ele>
        <time>2021-07-03T09:12:10Z</time>
      </trkpt>
      <trkpt lat="50.797891085967422" lon="4.668426867574453">
        <ele>32.829999999999998</ele>
        <time>2021-07-03T09:12:11Z</time>
      </trkpt>
      <trkpt lat="50.797861078754067" lon="4.668399123474956">
        <ele>32.780000000000001</ele>
        <time>2021-07-03T09:12:12Z</time>
      </trkpt>
      <trkpt lat="50.797826210036874" lon="4.668370960280299">
        <ele>32.759999999999998</ele>
        <time>2021-07-03T09:12:13Z</time>
      </trkpt>
      <trkpt lat="50.797808775678277" lon="4.668370122089982">
        <ele>32.770000000000003</ele>
        <time>2021-07-03T09:12:14Z</time>
      </trkpt>
      <trkpt lat="50.797787820920348" lon="4.668365595862269">
        <ele>32.759999999999998</ele>
        <time>2021-07-03T09:12:15Z</time>
      </trkpt>
      <trkpt lat="50.797775248065591" lon="4.668310359120369">
        <ele>32.759999999999998</ele>
        <time>2021-07-03T09:12:16Z</time>
      </trkpt>
      <trkpt lat="50.797638623043895" lon="4.667914062738419">
        <ele>32.43</ele>
        <time>2021-07-03T09:12:28Z</time>
      </trkpt>
      <trkpt lat="50.797452963888645" lon="4.66761214658618">
        <ele>32.030000000000001</ele>
        <time>2021-07-03T09:12:43Z</time>
      </trkpt>
      <trkpt lat="50.797441061586142" lon="4.667612900957465">
        <ele>32.009999999999998</ele>
        <time>2021-07-03T09:12:44Z</time>
      </trkpt>
      <trkpt lat="50.797430584207177" lon="4.667612733319402">
        <ele>31.23</ele>
        <time>2021-07-03T09:12:45Z</time>
      </trkpt>
      <trkpt lat="50.79739797860384" lon="4.667587419971824">
        <ele>31.190000000000001</ele>
        <time>2021-07-03T09:12:47Z</time>
      </trkpt>
      <trkpt lat="50.797367133200169" lon="4.6675471868366">
        <ele>31.170000000000002</ele>
        <time>2021-07-03T09:12:49Z</time>
      </trkpt>
      <trkpt lat="50.797324301674962" lon="4.667486837133765">
        <ele>31.07</ele>
        <time>2021-07-03T09:12:52Z</time>
      </trkpt>
      <trkpt lat="50.797295048832893" lon="4.667430007830262">
        <ele>31.039999999999999</ele>
        <time>2021-07-03T09:12:55Z</time>
      </trkpt>
      <trkpt lat="50.797189185395837" lon="4.667315846309066">
        <ele>30.890000000000001</ele>
        <time>2021-07-03T09:13:02Z</time>
      </trkpt>
      <trkpt lat="50.797046357765794" lon="4.66718508861959">
        <ele>30.760000000000002</ele>
        <time>2021-07-03T09:13:11Z</time>
      </trkpt>
      <trkpt lat="50.796877043321729" lon="4.666962129995227">
        <ele>30.59</ele>
        <time>2021-07-03T09:13:23Z</time>
      </trkpt>
      <trkpt lat="50.796842342242599" lon="4.666929692029953">
        <ele>30.510000000000002</ele>
        <time>2021-07-03T09:13:26Z</time>
      </trkpt>
      <trkpt lat="50.7967300247401" lon="4.666776387020946">
        <ele>30.359999999999999</ele>
        <time>2021-07-03T09:13:37Z</time>
      </trkpt>
      <trkpt lat="50.796619299799204" lon="4.666489223018289">
        <ele>30.239999999999998</ele>
        <time>2021-07-03T09:13:47Z</time>
      </trkpt>
      <trkpt lat="50.796559536829591" lon="4.666266515851021">
        <ele>29.370000000000001</ele>
        <time>2021-07-03T09:13:56Z</time>
      </trkpt>
      <trkpt lat="50.796536570414901" lon="4.666140452027321">
        <ele>29.289999999999999</ele>
        <time>2021-07-03T09:14:01Z</time>
      </trkpt>
      <trkpt lat="50.796536570414901" lon="4.666121928021312">
        <ele>29.289999999999999</ele>
        <time>2021-07-03T09:14:02Z</time>
      </trkpt>
      <trkpt lat="50.79654092900455" lon="4.66581984423101">
        <ele>28.440000000000001</ele>
        <time>2021-07-03T09:14:15Z</time>
      </trkpt>
      <trkpt lat="50.796446884050965" lon="4.665635945275426">
        <ele>28.449999999999999</ele>
        <time>2021-07-03T09:14:30Z</time>
      </trkpt>
      <trkpt lat="50.796363987028599" lon="4.665583055466414">
        <ele>28.449999999999999</ele>
        <time>2021-07-03T09:14:42Z</time>
      </trkpt>
      <trkpt lat="50.79622627235949" lon="4.665519939735532">
        <ele>28.43</ele>
        <time>2021-07-03T09:14:49Z</time>
      </trkpt>
      <trkpt lat="50.796088222414255" lon="4.665374932810664">
        <ele>28.41</ele>
        <time>2021-07-03T09:15:03Z</time>
      </trkpt>
      <trkpt lat="50.795926786959171" lon="4.665229506790638">
        <ele>27.489999999999998</ele>
        <time>2021-07-03T09:15:16Z</time>
      </trkpt>
      <trkpt lat="50.79569804482162" lon="4.664952903985977">
        <ele>26.649999999999999</ele>
        <time>2021-07-03T09:15:37Z</time>
      </trkpt>
      <trkpt lat="50.795500064268708" lon="4.664570856839418">
        <ele>25.879999999999999</ele>
        <time>2021-07-03T09:15:55Z</time>
      </trkpt>
      <trkpt lat="50.795315830036998" lon="4.664247147738934">
        <ele>25.829999999999998</ele>
        <time>2021-07-03T09:16:13Z</time>
      </trkpt>
      <trkpt lat="50.795137295499444" lon="4.66395428404212">
        <ele>28.07</ele>
        <time>2021-07-03T09:16:33Z</time>
      </trkpt>
      <trkpt lat="50.795127656310797" lon="4.663942884653807">
        <ele>28.109999999999999</ele>
        <time>2021-07-03T09:16:34Z</time>
      </trkpt>
      <trkpt lat="50.795014752075076" lon="4.663735264912248">
        <ele>28.02</ele>
        <time>2021-07-03T09:16:50Z</time>
      </trkpt>
      <trkpt lat="50.794821297749877" lon="4.663378363475204">
        <ele>27.93</ele>
        <time>2021-07-03T09:17:11Z</time>
      </trkpt>
      <trkpt lat="50.794806713238358" lon="4.663348272442818">
        <ele>27.93</ele>
        <time>2021-07-03T09:17:12Z</time>
      </trkpt>
      <trkpt lat="50.794798163697124" lon="4.66332103125751">
        <ele>27.93</ele>
        <time>2021-07-03T09:17:13Z</time>
      </trkpt>
      <trkpt lat="50.794604290276766" lon="4.662883160635829">
        <ele>27.890000000000001</ele>
        <time>2021-07-03T09:17:33Z</time>
      </trkpt>
      <trkpt lat="50.794484093785286" lon="4.662559535354376">
        <ele>27.91</ele>
        <time>2021-07-03T09:17:52Z</time>
      </trkpt>
      <trkpt lat="50.794432712718844" lon="4.662359459325671">
        <ele>27.920000000000002</ele>
        <time>2021-07-03T09:18:05Z</time>
      </trkpt>
      <trkpt lat="50.79430396668613" lon="4.662082102149725">
        <ele>27.850000000000001</ele>
        <time>2021-07-03T09:18:21Z</time>
      </trkpt>
      <trkpt lat="50.794247472658753" lon="4.662093417719007">
        <ele>27.719999999999999</ele>
        <time>2021-07-03T09:18:32Z</time>
      </trkpt>
      <trkpt lat="50.794202294200659" lon="4.662154605612159">
        <ele>25.460000000000001</ele>
        <time>2021-07-03T09:18:42Z</time>
      </trkpt>
      <trkpt lat="50.794109422713518" lon="4.662282597273588">
        <ele>24.609999999999999</ele>
        <time>2021-07-03T09:18:54Z</time>
      </trkpt>
      <trkpt lat="50.793933570384979" lon="4.662476051598787">
        <ele>23.719999999999999</ele>
        <time>2021-07-03T09:19:11Z</time>
      </trkpt>
      <trkpt lat="50.793741540983319" lon="4.662601109594107">
        <ele>21.16</ele>
        <time>2021-07-03T09:19:28Z</time>
      </trkpt>
      <trkpt lat="50.793567365035415" lon="4.662767155095935">
        <ele>21.149999999999999</ele>
        <time>2021-07-03T09:19:38Z</time>
      </trkpt>
      <trkpt lat="50.793525455519557" lon="4.662824990227819">
        <ele>23.010000000000002</ele>
        <time>2021-07-03T09:19:41Z</time>
      </trkpt>
      <trkpt lat="50.793515313416719" lon="4.662849297747016">
        <ele>23.079999999999998</ele>
        <time>2021-07-03T09:19:42Z</time>
      </trkpt>
      <trkpt lat="50.793386567384005" lon="4.663086421787739">
        <ele>24.059999999999999</ele>
        <time>2021-07-03T09:19:52Z</time>
      </trkpt>
      <trkpt lat="50.793211804702878" lon="4.663285575807095">
        <ele>25.120000000000001</ele>
        <time>2021-07-03T09:20:07Z</time>
      </trkpt>
      <trkpt lat="50.793139720335603" lon="4.663422787562013">
        <ele>26.609999999999999</ele>
        <time>2021-07-03T09:20:12Z</time>
      </trkpt>
      <trkpt lat="50.793050369247794" lon="4.66358388774097">
        <ele>27.649999999999999</ele>
        <time>2021-07-03T09:20:22Z</time>
      </trkpt>
      <trkpt lat="50.792911648750305" lon="4.663788573816419">
        <ele>29.469999999999999</ele>
        <time>2021-07-03T09:20:34Z</time>
      </trkpt>
      <trkpt lat="50.792818944901228" lon="4.663975825533271">
        <ele>30.34</ele>
        <time>2021-07-03T09:20:47Z</time>
      </trkpt>
      <trkpt lat="50.792789440602064" lon="4.664038941264153">
        <ele>30.34</ele>
        <time>2021-07-03T09:20:49Z</time>
      </trkpt>
      <trkpt lat="50.792748369276524" lon="4.664070876315236">
        <ele>31.120000000000001</ele>
        <time>2021-07-03T09:20:55Z</time>
      </trkpt>
      <trkpt lat="50.792667400091887" lon="4.66423524543643">
        <ele>33.729999999999997</ele>
        <time>2021-07-03T09:21:13Z</time>
      </trkpt>
      <trkpt lat="50.792564135044813" lon="4.664411852136254">
        <ele>34.509999999999998</ele>
        <time>2021-07-03T09:21:22Z</time>
      </trkpt>
      <trkpt lat="50.792459109798074" lon="4.664701363071799">
        <ele>35.189999999999998</ele>
        <time>2021-07-03T09:21:33Z</time>
      </trkpt>
      <trkpt lat="50.792414015159011" lon="4.66488853096962">
        <ele>35.119999999999997</ele>
        <time>2021-07-03T09:21:41Z</time>
      </trkpt>
      <trkpt lat="50.792423654347658" lon="4.665183741599321">
        <ele>36.590000000000003</ele>
        <time>2021-07-03T09:21:52Z</time>
      </trkpt>
      <trkpt lat="50.792438071221113" lon="4.665282983332872">
        <ele>36.57</ele>
        <time>2021-07-03T09:21:57Z</time>
      </trkpt>
      <trkpt lat="50.792433125898242" lon="4.665307374671102">
        <ele>36.579999999999998</ele>
        <time>2021-07-03T09:21:58Z</time>
      </trkpt>
      <trkpt lat="50.792438825592399" lon="4.665512479841709">
        <ele>36.539999999999999</ele>
        <time>2021-07-03T09:22:07Z</time>
      </trkpt>
      <trkpt lat="50.792379816994071" lon="4.665772905573249">
        <ele>37.299999999999997</ele>
        <time>2021-07-03T09:22:20Z</time>
      </trkpt>
      <trkpt lat="50.792319383472204" lon="4.666021345183253">
        <ele>37.229999999999997</ele>
        <time>2021-07-03T09:22:33Z</time>
      </trkpt>
      <trkpt lat="50.792299266904593" lon="4.666234999895096">
        <ele>34.590000000000003</ele>
        <time>2021-07-03T09:22:41Z</time>
      </trkpt>
      <trkpt lat="50.792227433994412" lon="4.666449408978224">
        <ele>34.600000000000001</ele>
        <time>2021-07-03T09:22:50Z</time>
      </trkpt>
      <trkpt lat="50.792202455922961" lon="4.666505651548505">
        <ele>34.600000000000001</ele>
        <time>2021-07-03T09:22:53Z</time>
      </trkpt>
      <trkpt lat="50.792192481458187" lon="4.666523253545165">
        <ele>34.609999999999999</ele>
        <time>2021-07-03T09:22:54Z</time>
      </trkpt>
      <trkpt lat="50.792117966338992" lon="4.666759790852666">
        <ele>34.539999999999999</ele>
        <time>2021-07-03T09:23:09Z</time>
      </trkpt>
      <trkpt lat="50.792036661878228" lon="4.667250048369169">
        <ele>33.689999999999998</ele>
        <time>2021-07-03T09:23:31Z</time>
      </trkpt>
      <trkpt lat="50.792026268318295" lon="4.667285671457648">
        <ele>33.740000000000002</ele>
        <time>2021-07-03T09:23:33Z</time>
      </trkpt>
      <trkpt lat="50.792005900293589" lon="4.667322551831603">
        <ele>33.700000000000003</ele>
        <time>2021-07-03T09:23:35Z</time>
      </trkpt>
      <trkpt lat="50.791926272213459" lon="4.667519107460976">
        <ele>32.880000000000003</ele>
        <time>2021-07-03T09:23:46Z</time>
      </trkpt>
      <trkpt lat="50.791781265288591" lon="4.66786234639585">
        <ele>32.890000000000001</ele>
        <time>2021-07-03T09:24:03Z</time>
      </trkpt>
      <trkpt lat="50.791747989133" lon="4.668011208996177">
        <ele>30.879999999999999</ele>
        <time>2021-07-03T09:24:11Z</time>
      </trkpt>
      <trkpt lat="50.791715802624822" lon="4.668222768232226">
        <ele>30.84</ele>
        <time>2021-07-03T09:24:19Z</time>
      </trkpt>
      <trkpt lat="50.791705660521984" lon="4.668267192319036">
        <ele>30.82</ele>
        <time>2021-07-03T09:24:20Z</time>
      </trkpt>
      <trkpt lat="50.791693422943354" lon="4.668295355513692">
        <ele>30.82</ele>
        <time>2021-07-03T09:24:21Z</time>
      </trkpt>
      <trkpt lat="50.791627541184425" lon="4.668819475919008">
        <ele>30.010000000000002</ele>
        <time>2021-07-03T09:24:39Z</time>
      </trkpt>
      <trkpt lat="50.791529892012477" lon="4.669059533625841">
        <ele>29.27</ele>
        <time>2021-07-03T09:24:50Z</time>
      </trkpt>
      <trkpt lat="50.791484545916319" lon="4.669163217768073">
        <ele>29.260000000000002</ele>
        <time>2021-07-03T09:24:55Z</time>
      </trkpt>
      <trkpt lat="50.791402067989111" lon="4.669449292123318">
        <ele>27.390000000000001</ele>
        <time>2021-07-03T09:25:10Z</time>
      </trkpt>
      <trkpt lat="50.79137465916574" lon="4.669601339846849">
        <ele>25.77</ele>
        <time>2021-07-03T09:25:20Z</time>
      </trkpt>
      <trkpt lat="50.791273154318333" lon="4.669903926551342">
        <ele>25.82</ele>
        <time>2021-07-03T09:25:29Z</time>
      </trkpt>
      <trkpt lat="50.791265275329351" lon="4.669963102787733">
        <ele>24.940000000000001</ele>
        <time>2021-07-03T09:25:30Z</time>
      </trkpt>
      <trkpt lat="50.791252786293626" lon="4.670010460540652">
        <ele>24.940000000000001</ele>
        <time>2021-07-03T09:25:31Z</time>
      </trkpt>
      <trkpt lat="50.791076850146055" lon="4.670612281188369">
        <ele>24.940000000000001</ele>
        <time>2021-07-03T09:25:42Z</time>
      </trkpt>
      <trkpt lat="50.790906697511673" lon="4.671200104057789">
        <ele>24.949999999999999</ele>
        <time>2021-07-03T09:25:54Z</time>
      </trkpt>
      <trkpt lat="50.790811898186803" lon="4.671547282487154">
        <ele>24.960000000000001</ele>
        <time>2021-07-03T09:26:04Z</time>
      </trkpt>
      <trkpt lat="50.790800414979458" lon="4.671584079042077">
        <ele>24.960000000000001</ele>
        <time>2021-07-03T09:26:05Z</time>
      </trkpt>
      <trkpt lat="50.790790524333715" lon="4.67161844484508">
        <ele>24.960000000000001</ele>
        <time>2021-07-03T09:26:06Z</time>
      </trkpt>
      <trkpt lat="50.790780214592814" lon="4.671659013256431">
        <ele>24.960000000000001</ele>
        <time>2021-07-03T09:26:07Z</time>
      </trkpt>
      <trkpt lat="50.790772000327706" lon="4.671691115945578">
        <ele>24.960000000000001</ele>
        <time>2021-07-03T09:26:08Z</time>
      </trkpt>
      <trkpt lat="50.790762109681964" lon="4.671733025461435">
        <ele>24.960000000000001</ele>
        <time>2021-07-03T09:26:09Z</time>
      </trkpt>
      <trkpt lat="50.790755655616522" lon="4.671763703227043">
        <ele>24.969999999999999</ele>
        <time>2021-07-03T09:26:10Z</time>
      </trkpt>
      <trkpt lat="50.790733778849244" lon="4.671805864199996">
        <ele>24.969999999999999</ele>
        <time>2021-07-03T09:26:11Z</time>
      </trkpt>
      <trkpt lat="50.790713829919696" lon="4.671856909990311">
        <ele>24.98</ele>
        <time>2021-07-03T09:26:12Z</time>
      </trkpt>
      <trkpt lat="50.790688684210181" lon="4.671915750950575">
        <ele>24.98</ele>
        <time>2021-07-03T09:26:13Z</time>
      </trkpt>
      <trkpt lat="50.790675189346075" lon="4.671960007399321">
        <ele>24.98</ele>
        <time>2021-07-03T09:26:14Z</time>
      </trkpt>
      <trkpt lat="50.79042767174542" lon="4.672602899372578">
        <ele>24.989999999999998</ele>
        <time>2021-07-03T09:26:28Z</time>
      </trkpt>
      <trkpt lat="50.790180405601859" lon="4.673101119697094">
        <ele>24.989999999999998</ele>
        <time>2021-07-03T09:26:39Z</time>
      </trkpt>
      <trkpt lat="50.790172275155783" lon="4.673169264569879">
        <ele>24.98</ele>
        <time>2021-07-03T09:26:40Z</time>
      </trkpt>
      <trkpt lat="50.790171604603529" lon="4.673223830759525">
        <ele>25</ele>
        <time>2021-07-03T09:26:41Z</time>
      </trkpt>
      <trkpt lat="50.790171772241592" lon="4.673257526010275">
        <ele>24.98</ele>
        <time>2021-07-03T09:26:42Z</time>
      </trkpt>
      <trkpt lat="50.790177136659622" lon="4.673273786902428">
        <ele>24.960000000000001</ele>
        <time>2021-07-03T09:26:43Z</time>
      </trkpt>
      <trkpt lat="50.790180321782827" lon="4.67329834587872">
        <ele>24.969999999999999</ele>
        <time>2021-07-03T09:26:44Z</time>
      </trkpt>
      <trkpt lat="50.790179148316383" lon="4.673331873491406">
        <ele>24.949999999999999</ele>
        <time>2021-07-03T09:26:45Z</time>
      </trkpt>
      <trkpt lat="50.790177639573812" lon="4.673366993665695">
        <ele>24.949999999999999</ele>
        <time>2021-07-03T09:26:46Z</time>
      </trkpt>
      <trkpt lat="50.79017847776413" lon="4.673394653946161">
        <ele>24.960000000000001</ele>
        <time>2021-07-03T09:26:47Z</time>
      </trkpt>
      <trkpt lat="50.790182249620557" lon="4.673419548198581">
        <ele>24.949999999999999</ele>
        <time>2021-07-03T09:26:48Z</time>
      </trkpt>
      <trkpt lat="50.790183003991842" lon="4.673450645059347">
        <ele>24.940000000000001</ele>
        <time>2021-07-03T09:26:49Z</time>
      </trkpt>
      <trkpt lat="50.790185434743762" lon="4.673485681414604">
        <ele>24.93</ele>
        <time>2021-07-03T09:26:50Z</time>
      </trkpt>
      <trkpt lat="50.790193732827902" lon="4.673508815467358">
        <ele>24.93</ele>
        <time>2021-07-03T09:26:51Z</time>
      </trkpt>
      <trkpt lat="50.79020001925528" lon="4.673520969226956">
        <ele>24.920000000000002</ele>
        <time>2021-07-03T09:26:52Z</time>
      </trkpt>
      <trkpt lat="50.790213095024228" lon="4.673535050824285">
        <ele>24.920000000000002</ele>
        <time>2021-07-03T09:26:53Z</time>
      </trkpt>
      <trkpt lat="50.790225919336081" lon="4.673548797145486">
        <ele>24.91</ele>
        <time>2021-07-03T09:26:54Z</time>
      </trkpt>
      <trkpt lat="50.790310157462955" lon="4.673923384398222">
        <ele>27.079999999999998</ele>
        <time>2021-07-03T09:27:09Z</time>
      </trkpt>
      <trkpt lat="50.79030018299818" lon="4.673938304185867">
        <ele>27.059999999999999</ele>
        <time>2021-07-03T09:27:10Z</time>
      </trkpt>
      <trkpt lat="50.790376709774137" lon="4.674169979989529">
        <ele>27.850000000000001</ele>
        <time>2021-07-03T09:27:23Z</time>
      </trkpt>
      <trkpt lat="50.790457930415869" lon="4.674389502033591">
        <ele>27.789999999999999</ele>
        <time>2021-07-03T09:27:37Z</time>
      </trkpt>
      <trkpt lat="50.790461869910359" lon="4.674416827037931">
        <ele>27.780000000000001</ele>
        <time>2021-07-03T09:27:38Z</time>
      </trkpt>
      <trkpt lat="50.790474861860275" lon="4.674428310245276">
        <ele>27.780000000000001</ele>
        <time>2021-07-03T09:27:39Z</time>
      </trkpt>
      <trkpt lat="50.790530098602176" lon="4.674562336876988">
        <ele>27.75</ele>
        <time>2021-07-03T09:27:50Z</time>
      </trkpt>
      <trkpt lat="50.790589107200503" lon="4.674616903066635">
        <ele>27.699999999999999</ele>
        <time>2021-07-03T09:27:56Z</time>
      </trkpt>
      <trkpt lat="50.790687929838896" lon="4.674786133691669">
        <ele>28.449999999999999</ele>
        <time>2021-07-03T09:28:04Z</time>
      </trkpt>
      <trkpt lat="50.790861435234547" lon="4.674878166988492">
        <ele>29.079999999999998</ele>
        <time>2021-07-03T09:28:16Z</time>
      </trkpt>
      <trkpt lat="50.790932346135378" lon="4.674984281882644">
        <ele>30.75</ele>
        <time>2021-07-03T09:28:25Z</time>
      </trkpt>
      <trkpt lat="50.791041646152735" lon="4.675041446462274">
        <ele>30.690000000000001</ele>
        <time>2021-07-03T09:28:30Z</time>
      </trkpt>
      <trkpt lat="50.791058242321014" lon="4.675057791173458">
        <ele>30.699999999999999</ele>
        <time>2021-07-03T09:28:31Z</time>
      </trkpt>
      <trkpt lat="50.791080705821514" lon="4.675067514181137">
        <ele>30.699999999999999</ele>
        <time>2021-07-03T09:28:32Z</time>
      </trkpt>
      <trkpt lat="50.791172990575433" lon="4.675157703459263">
        <ele>32.350000000000001</ele>
        <time>2021-07-03T09:28:36Z</time>
      </trkpt>
      <trkpt lat="50.791255300864577" lon="4.675244456157088">
        <ele>33.43</ele>
        <time>2021-07-03T09:28:40Z</time>
      </trkpt>
      <trkpt lat="50.791266784071922" lon="4.675262225791812">
        <ele>33.43</ele>
        <time>2021-07-03T09:28:41Z</time>
      </trkpt>
      <trkpt lat="50.791281284764409" lon="4.675290724262595">
        <ele>33.399999999999999</ele>
        <time>2021-07-03T09:28:42Z</time>
      </trkpt>
      <trkpt lat="50.791391674429178" lon="4.67551619745791">
        <ele>34.340000000000003</ele>
        <time>2021-07-03T09:28:48Z</time>
      </trkpt>
      <trkpt lat="50.791452778503299" lon="4.675939148291946">
        <ele>36.079999999999998</ele>
        <time>2021-07-03T09:28:53Z</time>
      </trkpt>
      <trkpt lat="50.791546320542693" lon="4.676550356671214">
        <ele>38.659999999999997</ele>
        <time>2021-07-03T09:29:02Z</time>
      </trkpt>
      <trkpt lat="50.791576243937016" lon="4.676585644483566">
        <ele>38.640000000000001</ele>
        <time>2021-07-03T09:29:03Z</time>
      </trkpt>
      <trkpt lat="50.791596360504627" lon="4.676628978922963">
        <ele>39.649999999999999</ele>
        <time>2021-07-03T09:29:04Z</time>
      </trkpt>
      <trkpt lat="50.791647657752037" lon="4.676961824297905">
        <ele>41.359999999999999</ele>
        <time>2021-07-03T09:29:11Z</time>
      </trkpt>
      <trkpt lat="50.791636677458882" lon="4.677078584209085">
        <ele>41.340000000000003</ele>
        <time>2021-07-03T09:29:12Z</time>
      </trkpt>
      <trkpt lat="50.791631229221821" lon="4.677594406530261">
        <ele>43.759999999999998</ele>
        <time>2021-07-03T09:29:17Z</time>
      </trkpt>
      <trkpt lat="50.791677245870233" lon="4.678108803927898">
        <ele>47.409999999999997</ele>
        <time>2021-07-03T09:29:24Z</time>
      </trkpt>
      <trkpt lat="50.791751341894269" lon="4.678417174145579">
        <ele>50.649999999999999</ele>
        <time>2021-07-03T09:29:31Z</time>
      </trkpt>
      <trkpt lat="50.791827449575067" lon="4.678716911002994">
        <ele>53.159999999999997</ele>
        <time>2021-07-03T09:29:37Z</time>
      </trkpt>
      <trkpt lat="50.791855277493596" lon="4.67875387519598">
        <ele>53.380000000000003</ele>
        <time>2021-07-03T09:29:38Z</time>
      </trkpt>
      <trkpt lat="50.791877573356032" lon="4.678800227120519">
        <ele>54.18</ele>
        <time>2021-07-03T09:29:39Z</time>
      </trkpt>
      <trkpt lat="50.791919315233827" lon="4.678867198526859">
        <ele>54.090000000000003</ele>
        <time>2021-07-03T09:29:40Z</time>
      </trkpt>
      <trkpt lat="50.791934486478567" lon="4.678936935961247">
        <ele>55.109999999999999</ele>
        <time>2021-07-03T09:29:41Z</time>
      </trkpt>
      <trkpt lat="50.791964074596763" lon="4.678987143561244">
        <ele>55.119999999999997</ele>
        <time>2021-07-03T09:29:42Z</time>
      </trkpt>
      <trkpt lat="50.792310833930969" lon="4.679549066349864">
        <ele>58.979999999999997</ele>
        <time>2021-07-03T09:29:51Z</time>
      </trkpt>
      <trkpt lat="50.792643260210752" lon="4.680342162027955">
        <ele>62.030000000000001</ele>
        <time>2021-07-03T09:30:02Z</time>
      </trkpt>
      <trkpt lat="50.792689109221101" lon="4.680467220023274">
        <ele>62.689999999999998</ele>
        <time>2021-07-03T09:30:04Z</time>
      </trkpt>
      <trkpt lat="50.7926856726408" lon="4.680541148409247">
        <ele>62.640000000000001</ele>
        <time>2021-07-03T09:30:05Z</time>
      </trkpt>
      <trkpt lat="50.792678967118263" lon="4.680640725418925">
        <ele>62.579999999999998</ele>
        <time>2021-07-03T09:30:06Z</time>
      </trkpt>
      <trkpt lat="50.792700005695224" lon="4.68116132542491">
        <ele>63.619999999999997</ele>
        <time>2021-07-03T09:30:15Z</time>
      </trkpt>
      <trkpt lat="50.792761947959661" lon="4.681520741432905">
        <ele>63.210000000000001</ele>
        <time>2021-07-03T09:30:24Z</time>
      </trkpt>
      <trkpt lat="50.792907290160656" lon="4.68191091902554">
        <ele>63.600000000000001</ele>
        <time>2021-07-03T09:30:33Z</time>
      </trkpt>
      <trkpt lat="50.793101415038109" lon="4.682097416371107">
        <ele>64.799999999999997</ele>
        <time>2021-07-03T09:30:49Z</time>
      </trkpt>
      <trkpt lat="50.793315405026078" lon="4.682278716936708">
        <ele>69.340000000000003</ele>
        <time>2021-07-03T09:31:00Z</time>
      </trkpt>
      <trkpt lat="50.79333208501339" lon="4.682298749685288">
        <ele>67.010000000000005</ele>
        <time>2021-07-03T09:31:01Z</time>
      </trkpt>
      <trkpt lat="50.793355973437428" lon="4.682319201529026">
        <ele>66.959999999999994</ele>
        <time>2021-07-03T09:31:03Z</time>
      </trkpt>
      <trkpt lat="50.793443061411381" lon="4.68233110383153">
        <ele>66.879999999999995</ele>
        <time>2021-07-03T09:31:06Z</time>
      </trkpt>
      <trkpt lat="50.793681191280484" lon="4.682457251474261">
        <ele>66.540000000000006</ele>
        <time>2021-07-03T09:31:24Z</time>
      </trkpt>
      <trkpt lat="50.793852768838406" lon="4.682539980858564">
        <ele>66.349999999999994</ele>
        <time>2021-07-03T09:31:37Z</time>
      </trkpt>
      <trkpt lat="50.794016970321536" lon="4.682502597570419">
        <ele>66.260000000000005</ele>
        <time>2021-07-03T09:31:49Z</time>
      </trkpt>
      <trkpt lat="50.794229786843061" lon="4.682513494044542">
        <ele>66.180000000000007</ele>
        <time>2021-07-03T09:32:05Z</time>
      </trkpt>
      <trkpt lat="50.79431570135057" lon="4.682489773258567">
        <ele>68.560000000000002</ele>
        <time>2021-07-03T09:32:09Z</time>
      </trkpt>
      <trkpt lat="50.794469760730863" lon="4.682500837370753">
        <ele>68.540000000000006</ele>
        <time>2021-07-03T09:32:20Z</time>
      </trkpt>
      <trkpt lat="50.794530445709825" lon="4.682501424103975">
        <ele>68.549999999999997</ele>
        <time>2021-07-03T09:32:25Z</time>
      </trkpt>
      <trkpt lat="50.794627089053392" lon="4.68250117264688">
        <ele>68.599999999999994</ele>
        <time>2021-07-03T09:32:37Z</time>
      </trkpt>
      <trkpt lat="50.794656844809651" lon="4.682511817663908">
        <ele>68.620000000000005</ele>
        <time>2021-07-03T09:32:42Z</time>
      </trkpt>
      <trkpt lat="50.79474669881165" lon="4.682504190132022">
        <ele>68.659999999999997</ele>
        <time>2021-07-03T09:32:51Z</time>
      </trkpt>
      <trkpt lat="50.794940739870071" lon="4.682531096041203">
        <ele>68.780000000000001</ele>
        <time>2021-07-03T09:33:09Z</time>
      </trkpt>
      <trkpt lat="50.794959682971239" lon="4.682535203173757">
        <ele>68.790000000000006</ele>
        <time>2021-07-03T09:33:11Z</time>
      </trkpt>
      <trkpt lat="50.795001676306129" lon="4.68254366889596">
        <ele>68.810000000000002</ele>
        <time>2021-07-03T09:33:14Z</time>
      </trkpt>
      <trkpt lat="50.795157495886087" lon="4.682565797120333">
        <ele>68.870000000000005</ele>
        <time>2021-07-03T09:33:24Z</time>
      </trkpt>
      <trkpt lat="50.795221114531159" lon="4.682549955323339">
        <ele>66.640000000000001</ele>
        <time>2021-07-03T09:33:29Z</time>
      </trkpt>
      <trkpt lat="50.79525045119226" lon="4.682539980858564">
        <ele>66.659999999999997</ele>
        <time>2021-07-03T09:33:31Z</time>
      </trkpt>
      <trkpt lat="50.795424124225974" lon="4.682557079941034">
        <ele>66.790000000000006</ele>
        <time>2021-07-03T09:33:49Z</time>
      </trkpt>
      <trkpt lat="50.79558128491044" lon="4.682531766593456">
        <ele>66.900000000000006</ele>
        <time>2021-07-03T09:34:05Z</time>
      </trkpt>
      <trkpt lat="50.79562964849174" lon="4.682524977251887">
        <ele>66.180000000000007</ele>
        <time>2021-07-03T09:34:11Z</time>
      </trkpt>
      <trkpt lat="50.795680359005928" lon="4.682506285607815">
        <ele>66.219999999999999</ele>
        <time>2021-07-03T09:34:17Z</time>
      </trkpt>
      <trkpt lat="50.795762166380882" lon="4.682589769363403">
        <ele>66.370000000000005</ele>
        <time>2021-07-03T09:34:36Z</time>
      </trkpt>
      <trkpt lat="50.79581581056118" lon="4.682636456564069">
        <ele>66.420000000000002</ele>
        <time>2021-07-03T09:34:42Z</time>
      </trkpt>
      <trkpt lat="50.795914549380541" lon="4.682864863425493">
        <ele>66.540000000000006</ele>
        <time>2021-07-03T09:34:58Z</time>
      </trkpt>
      <trkpt lat="50.795943550765514" lon="4.682937199249864">
        <ele>66.569999999999993</ele>
        <time>2021-07-03T09:35:01Z</time>
      </trkpt>
      <trkpt lat="50.796021753922105" lon="4.683264680206776">
        <ele>66.650000000000006</ele>
        <time>2021-07-03T09:35:16Z</time>
      </trkpt>
      <trkpt lat="50.796221997588873" lon="4.683483447879553">
        <ele>66.75</ele>
        <time>2021-07-03T09:35:28Z</time>
      </trkpt>
      <trkpt lat="50.796228870749474" lon="4.683501971885562">
        <ele>66.760000000000005</ele>
        <time>2021-07-03T09:35:29Z</time>
      </trkpt>
      <trkpt lat="50.796292992308736" lon="4.683604817837477">
        <ele>69.069999999999993</ele>
        <time>2021-07-03T09:35:34Z</time>
      </trkpt>
      <trkpt lat="50.796347893774509" lon="4.68377304263413">
        <ele>69.140000000000001</ele>
        <time>2021-07-03T09:35:43Z</time>
      </trkpt>
      <trkpt lat="50.796375051140785" lon="4.683850491419435">
        <ele>69.939999999999998</ele>
        <time>2021-07-03T09:35:48Z</time>
      </trkpt>
      <trkpt lat="50.796413691714406" lon="4.683976219967008">
        <ele>69.969999999999999</ele>
        <time>2021-07-03T09:35:55Z</time>
      </trkpt>
      <trkpt lat="50.796431042253971" lon="4.68404964543879">
        <ele>70</ele>
        <time>2021-07-03T09:35:59Z</time>
      </trkpt>
      <trkpt lat="50.796464653685689" lon="4.684285512194037">
        <ele>71.760000000000005</ele>
        <time>2021-07-03T09:36:15Z</time>
      </trkpt>
      <trkpt lat="50.796488542109728" lon="4.684351645410061">
        <ele>73.640000000000001</ele>
        <time>2021-07-03T09:36:21Z</time>
      </trkpt>
      <trkpt lat="50.796505808830261" lon="4.684841986745596">
        <ele>73.780000000000001</ele>
        <time>2021-07-03T09:36:40Z</time>
      </trkpt>
      <trkpt lat="50.79651310108602" lon="4.684891859069467">
        <ele>73.790000000000006</ele>
        <time>2021-07-03T09:36:42Z</time>
      </trkpt>
      <trkpt lat="50.796552328392863" lon="4.68507818877697">
        <ele>73.840000000000003</ele>
        <time>2021-07-03T09:36:51Z</time>
      </trkpt>
      <trkpt lat="50.796562638133764" lon="4.685101825743914">
        <ele>74.680000000000007</ele>
        <time>2021-07-03T09:36:53Z</time>
      </trkpt>
      <trkpt lat="50.796616030856967" lon="4.685340793803334">
        <ele>74.75</ele>
        <time>2021-07-03T09:37:05Z</time>
      </trkpt>
      <trkpt lat="50.796645954251289" lon="4.685758966952562">
        <ele>74.870000000000005</ele>
        <time>2021-07-03T09:37:20Z</time>
      </trkpt>
      <trkpt lat="50.796667328104377" lon="4.686146965250373">
        <ele>75</ele>
        <time>2021-07-03T09:37:37Z</time>
      </trkpt>
      <trkpt lat="50.79667286016047" lon="4.686445277184248">
        <ele>75.129999999999995</ele>
        <time>2021-07-03T09:37:52Z</time>
      </trkpt>
      <trkpt lat="50.796679817140102" lon="4.686630433425307">
        <ele>75.209999999999994</ele>
        <time>2021-07-03T09:38:08Z</time>
      </trkpt>
      <trkpt lat="50.796677637845278" lon="4.686926063150168">
        <ele>75.310000000000002</ele>
        <time>2021-07-03T09:38:18Z</time>
      </trkpt>
      <trkpt lat="50.796682331711054" lon="4.686956657096744">
        <ele>75.310000000000002</ele>
        <time>2021-07-03T09:38:19Z</time>
      </trkpt>
      <trkpt lat="50.796716613695025" lon="4.687213143333793">
        <ele>75.370000000000005</ele>
        <time>2021-07-03T09:38:28Z</time>
      </trkpt>
      <trkpt lat="50.796714685857296" lon="4.687347672879696">
        <ele>72.989999999999995</ele>
        <time>2021-07-03T09:38:33Z</time>
      </trkpt>
      <trkpt lat="50.7967524882406" lon="4.687433503568173">
        <ele>73.019999999999996</ele>
        <time>2021-07-03T09:38:40Z</time>
      </trkpt>
      <trkpt lat="50.796792889013886" lon="4.687662748619914">
        <ele>72.200000000000003</ele>
        <time>2021-07-03T09:38:53Z</time>
      </trkpt>
      <trkpt lat="50.796761540696025" lon="4.687967179343104">
        <ele>70.680000000000007</ele>
        <time>2021-07-03T09:39:08Z</time>
      </trkpt>
      <trkpt lat="50.796823231503367" lon="4.688318381085992">
        <ele>69.870000000000005</ele>
        <time>2021-07-03T09:39:21Z</time>
      </trkpt>
      <trkpt lat="50.796811580657959" lon="4.688549721613526">
        <ele>68.189999999999998</ele>
        <time>2021-07-03T09:39:30Z</time>
      </trkpt>
      <trkpt lat="50.796806300058961" lon="4.688708474859595">
        <ele>68.219999999999999</ele>
        <time>2021-07-03T09:39:36Z</time>
      </trkpt>
      <trkpt lat="50.796814514324069" lon="4.688762035220861">
        <ele>68.239999999999995</ele>
        <time>2021-07-03T09:39:41Z</time>
      </trkpt>
      <trkpt lat="50.796823985874653" lon="4.68880738131702">
        <ele>68.25</ele>
        <time>2021-07-03T09:39:43Z</time>
      </trkpt>
      <trkpt lat="50.796921635046601" lon="4.689150704070926">
        <ele>68.340000000000003</ele>
        <time>2021-07-03T09:39:59Z</time>
      </trkpt>
      <trkpt lat="50.796912079676986" lon="4.689208203926683">
        <ele>68.340000000000003</ele>
        <time>2021-07-03T09:40:00Z</time>
      </trkpt>
      <trkpt lat="50.796900931745768" lon="4.689277019351721">
        <ele>68.340000000000003</ele>
        <time>2021-07-03T09:40:01Z</time>
      </trkpt>
      <trkpt lat="50.796915432438254" lon="4.689884204417467">
        <ele>67.560000000000002</ele>
        <time>2021-07-03T09:40:12Z</time>
      </trkpt>
      <trkpt lat="50.796983493492007" lon="4.690324841067195">
        <ele>67.569999999999993</ele>
        <time>2021-07-03T09:40:22Z</time>
      </trkpt>
      <trkpt lat="50.797047866508365" lon="4.690747791901231">
        <ele>66.799999999999997</ele>
        <time>2021-07-03T09:40:31Z</time>
      </trkpt>
      <trkpt lat="50.797057002782822" lon="4.690787773579359">
        <ele>66.799999999999997</ele>
        <time>2021-07-03T09:40:32Z</time>
      </trkpt>
      <trkpt lat="50.797056164592505" lon="4.690835550427437">
        <ele>66.799999999999997</ele>
        <time>2021-07-03T09:40:33Z</time>
      </trkpt>
      <trkpt lat="50.797063373029232" lon="4.690938144922257">
        <ele>66.790000000000006</ele>
        <time>2021-07-03T09:40:36Z</time>
      </trkpt>
      <trkpt lat="50.797047866508365" lon="4.691131934523583">
        <ele>65.829999999999998</ele>
        <time>2021-07-03T09:40:41Z</time>
      </trkpt>
      <trkpt lat="50.797043591737747" lon="4.691197481006384">
        <ele>65.819999999999993</ele>
        <time>2021-07-03T09:40:42Z</time>
      </trkpt>
      <trkpt lat="50.797037305310369" lon="4.691241988912225">
        <ele>65.819999999999993</ele>
        <time>2021-07-03T09:40:43Z</time>
      </trkpt>
      <trkpt lat="50.797035126015544" lon="4.691310385242105">
        <ele>65.819999999999993</ele>
        <time>2021-07-03T09:40:44Z</time>
      </trkpt>
      <trkpt lat="50.797034036368132" lon="4.691369812935591">
        <ele>65.810000000000002</ele>
        <time>2021-07-03T09:40:45Z</time>
      </trkpt>
      <trkpt lat="50.797120034694672" lon="4.691842384636402">
        <ele>65.790000000000006</ele>
        <time>2021-07-03T09:40:55Z</time>
      </trkpt>
      <trkpt lat="50.797132607549429" lon="4.691881611943245">
        <ele>65.790000000000006</ele>
        <time>2021-07-03T09:40:56Z</time>
      </trkpt>
      <trkpt lat="50.79719421453774" lon="4.692258797585964">
        <ele>65.760000000000005</ele>
        <time>2021-07-03T09:41:07Z</time>
      </trkpt>
      <trkpt lat="50.797200249508023" lon="4.692290229722858">
        <ele>65.760000000000005</ele>
        <time>2021-07-03T09:41:08Z</time>
      </trkpt>
      <trkpt lat="50.797202093526721" lon="4.692326104268432">
        <ele>65.760000000000005</ele>
        <time>2021-07-03T09:41:09Z</time>
      </trkpt>
      <trkpt lat="50.797203853726387" lon="4.692378239706159">
        <ele>65.75</ele>
        <time>2021-07-03T09:41:11Z</time>
      </trkpt>
      <trkpt lat="50.797162782400846" lon="4.692423082888126">
        <ele>65.730000000000004</ele>
        <time>2021-07-03T09:41:19Z</time>
      </trkpt>
      <trkpt lat="50.797152388840914" lon="4.692421490326524">
        <ele>65.730000000000004</ele>
        <time>2021-07-03T09:41:20Z</time>
      </trkpt>
      <trkpt lat="50.797140654176474" lon="4.692424088716507">
        <ele>65.719999999999999</ele>
        <time>2021-07-03T09:41:21Z</time>
      </trkpt>
      <trkpt lat="50.797125985845923" lon="4.692430794239044">
        <ele>65.719999999999999</ele>
        <time>2021-07-03T09:41:22Z</time>
      </trkpt>
      <trkpt lat="50.797116598114371" lon="4.692434314638376">
        <ele>65.719999999999999</ele>
        <time>2021-07-03T09:41:23Z</time>
      </trkpt>
      <trkpt lat="50.797105114907026" lon="4.692436158657074">
        <ele>65.719999999999999</ele>
        <time>2021-07-03T09:41:24Z</time>
      </trkpt>
      <trkpt lat="50.796991791576147" lon="4.692453760653734">
        <ele>65.700000000000003</ele>
        <time>2021-07-03T09:41:34Z</time>
      </trkpt>
      <trkpt lat="50.796923981979489" lon="4.692527940496802">
        <ele>65.680000000000007</ele>
        <time>2021-07-03T09:41:39Z</time>
      </trkpt>
      <trkpt lat="50.796912582591176" lon="4.692533388733864">
        <ele>65.680000000000007</ele>
        <time>2021-07-03T09:41:40Z</time>
      </trkpt>
      <trkpt lat="50.796812335029244" lon="4.692530790343881">
        <ele>65.650000000000006</ele>
        <time>2021-07-03T09:41:52Z</time>
      </trkpt>
      <trkpt lat="50.796794649213552" lon="4.69252391718328">
        <ele>65.650000000000006</ele>
        <time>2021-07-03T09:41:53Z</time>
      </trkpt>
      <trkpt lat="50.796771766617894" lon="4.69253757968545">
        <ele>65.640000000000001</ele>
        <time>2021-07-03T09:41:54Z</time>
      </trkpt>
      <trkpt lat="50.796763803809881" lon="4.692549146711826">
        <ele>65.640000000000001</ele>
        <time>2021-07-03T09:41:55Z</time>
      </trkpt>
      <trkpt lat="50.796746704727411" lon="4.692556774243712">
        <ele>65.640000000000001</ele>
        <time>2021-07-03T09:41:56Z</time>
      </trkpt>
      <trkpt lat="50.796738239005208" lon="4.692578064277768">
        <ele>65.629999999999995</ele>
        <time>2021-07-03T09:41:57Z</time>
      </trkpt>
      <trkpt lat="50.796545874327421" lon="4.692661631852388">
        <ele>65.579999999999998</ele>
        <time>2021-07-03T09:42:10Z</time>
      </trkpt>
      <trkpt lat="50.796436658129096" lon="4.692723490297794">
        <ele>67.879999999999995</ele>
        <time>2021-07-03T09:42:18Z</time>
      </trkpt>
      <trkpt lat="50.796375470235944" lon="4.692768165841699">
        <ele>67.849999999999994</ele>
        <time>2021-07-03T09:42:24Z</time>
      </trkpt>
      <trkpt lat="50.796206993982196" lon="4.692925242707133">
        <ele>69.659999999999997</ele>
        <time>2021-07-03T09:42:37Z</time>
      </trkpt>
      <trkpt lat="50.796186290681362" lon="4.6929563395679">
        <ele>69.650000000000006</ele>
        <time>2021-07-03T09:42:38Z</time>
      </trkpt>
      <trkpt lat="50.795891163870692" lon="4.693104615435004">
        <ele>70.379999999999995</ele>
        <time>2021-07-03T09:42:57Z</time>
      </trkpt>
      <trkpt lat="50.795690920203924" lon="4.693207880482078">
        <ele>70.329999999999998</ele>
        <time>2021-07-03T09:43:12Z</time>
      </trkpt>
      <trkpt lat="50.795565191656351" lon="4.693247945979238">
        <ele>71.099999999999994</ele>
        <time>2021-07-03T09:43:23Z</time>
      </trkpt>
      <trkpt lat="50.795490508899093" lon="4.693222716450691">
        <ele>71.040000000000006</ele>
        <time>2021-07-03T09:43:39Z</time>
      </trkpt>
      <trkpt lat="50.795374754816294" lon="4.693236043676734">
        <ele>70.950000000000003</ele>
        <time>2021-07-03T09:44:00Z</time>
      </trkpt>
      <trkpt lat="50.795227568596601" lon="4.693324221298099">
        <ele>70.920000000000002</ele>
        <time>2021-07-03T09:44:11Z</time>
      </trkpt>
      <trkpt lat="50.79507065936923" lon="4.693522034212947">
        <ele>70.920000000000002</ele>
        <time>2021-07-03T09:44:22Z</time>
      </trkpt>
      <trkpt lat="50.795054817572236" lon="4.693543827161193">
        <ele>70.920000000000002</ele>
        <time>2021-07-03T09:44:23Z</time>
      </trkpt>
      <trkpt lat="50.795040568336844" lon="4.693560674786568">
        <ele>70.920000000000002</ele>
        <time>2021-07-03T09:44:24Z</time>
      </trkpt>
      <trkpt lat="50.794934118166566" lon="4.693729821592569">
        <ele>70.930000000000007</ele>
        <time>2021-07-03T09:44:35Z</time>
      </trkpt>
      <trkpt lat="50.79485222697258" lon="4.693815652281046">
        <ele>70.959999999999994</ele>
        <time>2021-07-03T09:44:45Z</time>
      </trkpt>
      <trkpt lat="50.794736472889781" lon="4.693981278687716">
        <ele>67.269999999999996</ele>
        <time>2021-07-03T09:44:56Z</time>
      </trkpt>
      <trkpt lat="50.794725995510817" lon="4.693996449932456">
        <ele>70.730000000000004</ele>
        <time>2021-07-03T09:44:57Z</time>
      </trkpt>
      <trkpt lat="50.794663382694125" lon="4.694049339741468">
        <ele>70.75</ele>
        <time>2021-07-03T09:45:02Z</time>
      </trkpt>
      <trkpt lat="50.794514939188957" lon="4.694253522902727">
        <ele>70.790000000000006</ele>
        <time>2021-07-03T09:45:12Z</time>
      </trkpt>
      <trkpt lat="50.794503875076771" lon="4.694279925897718">
        <ele>70.790000000000006</ele>
        <time>2021-07-03T09:45:13Z</time>
      </trkpt>
      <trkpt lat="50.794418966397643" lon="4.694598438218236">
        <ele>70.829999999999998</ele>
        <time>2021-07-03T09:45:23Z</time>
      </trkpt>
      <trkpt lat="50.794403376057744" lon="4.694645376875997">
        <ele>68.469999999999999</ele>
        <time>2021-07-03T09:45:25Z</time>
      </trkpt>
      <trkpt lat="50.794356437399983" lon="4.694799352437258">
        <ele>68.519999999999996</ele>
        <time>2021-07-03T09:45:33Z</time>
      </trkpt>
      <trkpt lat="50.794349815696478" lon="4.694814439862967">
        <ele>68.519999999999996</ele>
        <time>2021-07-03T09:45:34Z</time>
      </trkpt>
      <trkpt lat="50.794236911460757" lon="4.694963302463293">
        <ele>67.769999999999996</ele>
        <time>2021-07-03T09:45:45Z</time>
      </trkpt>
      <trkpt lat="50.79412710852921" lon="4.695121049880981">
        <ele>67.840000000000003</ele>
        <time>2021-07-03T09:45:56Z</time>
      </trkpt>
      <trkpt lat="50.794116547331214" lon="4.695129683241248">
        <ele>67.840000000000003</ele>
        <time>2021-07-03T09:45:57Z</time>
      </trkpt>
      <trkpt lat="50.793935749679804" lon="4.695282904431224">
        <ele>67.069999999999993</ele>
        <time>2021-07-03T09:46:09Z</time>
      </trkpt>
      <trkpt lat="50.793812787160277" lon="4.69544886611402">
        <ele>67.150000000000006</ele>
        <time>2021-07-03T09:46:20Z</time>
      </trkpt>
      <trkpt lat="50.793685130774975" lon="4.695562608540058">
        <ele>66.230000000000004</ele>
        <time>2021-07-03T09:46:29Z</time>
      </trkpt>
      <trkpt lat="50.793510032817721" lon="4.695767881348729">
        <ele>65.340000000000003</ele>
        <time>2021-07-03T09:46:42Z</time>
      </trkpt>
      <trkpt lat="50.793496705591679" lon="4.695782549679279">
        <ele>65.340000000000003</ele>
        <time>2021-07-03T09:46:43Z</time>
      </trkpt>
      <trkpt lat="50.793484635651112" lon="4.695796798914671">
        <ele>65.349999999999994</ele>
        <time>2021-07-03T09:46:44Z</time>
      </trkpt>
      <trkpt lat="50.793459909036756" lon="4.695809707045555">
        <ele>65.359999999999999</ele>
        <time>2021-07-03T09:46:46Z</time>
      </trkpt>
      <trkpt lat="50.793448090553284" lon="4.69581532292068">
        <ele>65.370000000000005</ele>
        <time>2021-07-03T09:46:47Z</time>
      </trkpt>
      <trkpt lat="50.793403247371316" lon="4.695877181366086">
        <ele>65.390000000000001</ele>
        <time>2021-07-03T09:46:50Z</time>
      </trkpt>
      <trkpt lat="50.793382208794355" lon="4.695902410894632">
        <ele>65.390000000000001</ele>
        <time>2021-07-03T09:46:51Z</time>
      </trkpt>
      <trkpt lat="50.793282715603709" lon="4.696011207997799">
        <ele>64.640000000000001</ele>
        <time>2021-07-03T09:46:58Z</time>
      </trkpt>
      <trkpt lat="50.793244745582342" lon="4.696038281545043">
        <ele>64.659999999999997</ele>
        <time>2021-07-03T09:47:01Z</time>
      </trkpt>
      <trkpt lat="50.793207362294197" lon="4.696099804714322">
        <ele>64.680000000000007</ele>
        <time>2021-07-03T09:47:05Z</time>
      </trkpt>
      <trkpt lat="50.793121950700879" lon="4.696113970130682">
        <ele>64.719999999999999</ele>
        <time>2021-07-03T09:47:11Z</time>
      </trkpt>
      <trkpt lat="50.793044501915574" lon="4.696134673431516">
        <ele>63.969999999999999</ele>
        <time>2021-07-03T09:47:17Z</time>
      </trkpt>
      <trkpt lat="50.792998401448131" lon="4.696164848282933">
        <ele>63.990000000000002</ele>
        <time>2021-07-03T09:47:20Z</time>
      </trkpt>
      <trkpt lat="50.792929166927934" lon="4.696232657879591">
        <ele>64.019999999999996</ele>
        <time>2021-07-03T09:47:27Z</time>
      </trkpt>
      <trkpt lat="50.792628088966012" lon="4.696443462744355">
        <ele>64.060000000000002</ele>
        <time>2021-07-03T09:47:50Z</time>
      </trkpt>
      <trkpt lat="50.792445698752999" lon="4.696617303416133">
        <ele>64.049999999999997</ele>
        <time>2021-07-03T09:48:02Z</time>
      </trkpt>
      <trkpt lat="50.792435891926289" lon="4.696662565693259">
        <ele>64.049999999999997</ele>
        <time>2021-07-03T09:48:04Z</time>
      </trkpt>
      <trkpt lat="50.792429940775037" lon="4.696710091084242">
        <ele>64.049999999999997</ele>
        <time>2021-07-03T09:48:06Z</time>
      </trkpt>
      <trkpt lat="50.792301027104259" lon="4.69712876714766">
        <ele>63.119999999999997</ele>
        <time>2021-07-03T09:48:24Z</time>
      </trkpt>
      <trkpt lat="50.792265404015779" lon="4.697259021922946">
        <ele>62.229999999999997</ele>
        <time>2021-07-03T09:48:28Z</time>
      </trkpt>
      <trkpt lat="50.792028363794088" lon="4.697782974690199">
        <ele>58.579999999999998</ele>
        <time>2021-07-03T09:48:45Z</time>
      </trkpt>
      <trkpt lat="50.791947059333324" lon="4.698485294356942">
        <ele>55.960000000000001</ele>
        <time>2021-07-03T09:48:58Z</time>
      </trkpt>
      <trkpt lat="50.791927026584744" lon="4.698534999042749">
        <ele>55.759999999999998</ele>
        <time>2021-07-03T09:48:59Z</time>
      </trkpt>
      <trkpt lat="50.791886877268553" lon="4.698738679289818">
        <ele>55.939999999999998</ele>
        <time>2021-07-03T09:49:03Z</time>
      </trkpt>
      <trkpt lat="50.791881177574396" lon="4.69882920384407">
        <ele>55.75</ele>
        <time>2021-07-03T09:49:04Z</time>
      </trkpt>
      <trkpt lat="50.791870281100273" lon="4.69888586550951">
        <ele>55.93</ele>
        <time>2021-07-03T09:49:05Z</time>
      </trkpt>
      <trkpt lat="50.791854942217469" lon="4.698975468054414">
        <ele>55.759999999999998</ele>
        <time>2021-07-03T09:49:06Z</time>
      </trkpt>
      <trkpt lat="50.791843794286251" lon="4.699021652340889">
        <ele>54.780000000000001</ele>
        <time>2021-07-03T09:49:07Z</time>
      </trkpt>
      <trkpt lat="50.791835244745016" lon="4.699061634019017">
        <ele>53.979999999999997</ele>
        <time>2021-07-03T09:49:08Z</time>
      </trkpt>
      <trkpt lat="50.791823174804449" lon="4.699097676202655">
        <ele>53.969999999999999</ele>
        <time>2021-07-03T09:49:09Z</time>
      </trkpt>
      <trkpt lat="50.791677162051201" lon="4.699977021664381">
        <ele>52.340000000000003</ele>
        <time>2021-07-03T09:49:23Z</time>
      </trkpt>
      <trkpt lat="50.791530311107635" lon="4.700471721589565">
        <ele>50.479999999999997</ele>
        <time>2021-07-03T09:49:34Z</time>
      </trkpt>
      <trkpt lat="50.79142251983285" lon="4.70083792693913">
        <ele>48.689999999999998</ele>
        <time>2021-07-03T09:49:47Z</time>
      </trkpt>
      <trkpt lat="50.791379436850548" lon="4.700910849496722">
        <ele>47.899999999999999</ele>
        <time>2021-07-03T09:49:50Z</time>
      </trkpt>
      <trkpt lat="50.791366277262568" lon="4.700943036004901">
        <ele>47.899999999999999</ele>
        <time>2021-07-03T09:49:51Z</time>
      </trkpt>
      <trkpt lat="50.791314812377095" lon="4.701075134798884">
        <ele>46.969999999999999</ele>
        <time>2021-07-03T09:49:57Z</time>
      </trkpt>
      <trkpt lat="50.791284553706646" lon="4.701111596077681">
        <ele>46.310000000000002</ele>
        <time>2021-07-03T09:50:00Z</time>
      </trkpt>
      <trkpt lat="50.791273657232523" lon="4.70111939124763">
        <ele>46.189999999999998</ele>
        <time>2021-07-03T09:50:01Z</time>
      </trkpt>
      <trkpt lat="50.791187658905983" lon="4.701176304370165">
        <ele>45.350000000000001</ele>
        <time>2021-07-03T09:50:09Z</time>
      </trkpt>
      <trkpt lat="50.791171565651894" lon="4.701227769255638">
        <ele>45.350000000000001</ele>
        <time>2021-07-03T09:50:10Z</time>
      </trkpt>
      <trkpt lat="50.791148096323013" lon="4.701223075389862">
        <ele>45.359999999999999</ele>
        <time>2021-07-03T09:50:12Z</time>
      </trkpt>
      <trkpt lat="50.791114987805486" lon="4.701228104531765">
        <ele>45.350000000000001</ele>
        <time>2021-07-03T09:50:15Z</time>
      </trkpt>
      <trkpt lat="50.790877696126699" lon="4.701334219425917">
        <ele>43.539999999999999</ele>
        <time>2021-07-03T09:50:29Z</time>
      </trkpt>
      <trkpt lat="50.790861267596483" lon="4.70134561881423">
        <ele>42.689999999999998</ele>
        <time>2021-07-03T09:50:30Z</time>
      </trkpt>
      <trkpt lat="50.7908293325454" lon="4.701357437297702">
        <ele>42.810000000000002</ele>
        <time>2021-07-03T09:50:32Z</time>
      </trkpt>
      <trkpt lat="50.790715254843235" lon="4.701512837782502">
        <ele>39.950000000000003</ele>
        <time>2021-07-03T09:50:47Z</time>
      </trkpt>
      <trkpt lat="50.790695808827877" lon="4.701567571610212">
        <ele>39.350000000000001</ele>
        <time>2021-07-03T09:50:50Z</time>
      </trkpt>
      <trkpt lat="50.790618611499667" lon="4.702018350362778">
        <ele>36.82</ele>
        <time>2021-07-03T09:51:06Z</time>
      </trkpt>
      <trkpt lat="50.790618611499667" lon="4.702018350362778">
        <ele>36.829999999999998</ele>
        <time>2021-07-03T09:51:07Z</time>
      </trkpt>
      <trkpt lat="50.790630346164107" lon="4.702069144695997">
        <ele>36.969999999999999</ele>
        <time>2021-07-03T09:51:09Z</time>
      </trkpt>
      <trkpt lat="50.790682984516025" lon="4.702358655631542">
        <ele>37.020000000000003</ele>
        <time>2021-07-03T09:51:21Z</time>
      </trkpt>
      <trkpt lat="50.790685331448913" lon="4.70239226706326">
        <ele>37.039999999999999</ele>
        <time>2021-07-03T09:51:23Z</time>
      </trkpt>
      <trkpt lat="50.790582234039903" lon="4.702500980347395">
        <ele>36.390000000000001</ele>
        <time>2021-07-03T09:51:41Z</time>
      </trkpt>
      <trkpt lat="50.790560189634562" lon="4.702558312565088">
        <ele>36.43</ele>
        <time>2021-07-03T09:51:43Z</time>
      </trkpt>
      <trkpt lat="50.790484668686986" lon="4.702765764668584">
        <ele>36.5</ele>
        <time>2021-07-03T09:51:52Z</time>
      </trkpt>
      <trkpt lat="50.790462708100677" lon="4.702811948955059">
        <ele>36.530000000000001</ele>
        <time>2021-07-03T09:51:56Z</time>
      </trkpt>
      <trkpt lat="50.790463965386152" lon="4.702829215675592">
        <ele>36.539999999999999</ele>
        <time>2021-07-03T09:51:58Z</time>
      </trkpt>
      <trkpt lat="50.790607715025544" lon="4.703224170953035">
        <ele>38.969999999999999</ele>
        <time>2021-07-03T09:52:16Z</time>
      </trkpt>
      <trkpt lat="50.790617186576128" lon="4.703257447108626">
        <ele>39.119999999999997</ele>
        <time>2021-07-03T09:52:17Z</time>
      </trkpt>
      <trkpt lat="50.790633782744408" lon="4.703308241441846">
        <ele>39.130000000000003</ele>
        <time>2021-07-03T09:52:19Z</time>
      </trkpt>
      <trkpt lat="50.790640991181135" lon="4.703323328867555">
        <ele>39.170000000000002</ele>
        <time>2021-07-03T09:52:21Z</time>
      </trkpt>
      <trkpt lat="50.79072430729866" lon="4.703553998842835">
        <ele>39.890000000000001</ele>
        <time>2021-07-03T09:52:29Z</time>
      </trkpt>
      <trkpt lat="50.790759846568108" lon="4.703616946935654">
        <ele>39.880000000000003</ele>
        <time>2021-07-03T09:52:32Z</time>
      </trkpt>
      <trkpt lat="50.79083813354373" lon="4.703700849786401">
        <ele>40.689999999999998</ele>
        <time>2021-07-03T09:52:40Z</time>
      </trkpt>
      <trkpt lat="50.790843078866601" lon="4.703713255003095">
        <ele>40.700000000000003</ele>
        <time>2021-07-03T09:52:41Z</time>
      </trkpt>
      <trkpt lat="50.7908586692065" lon="4.703726498410106">
        <ele>40.710000000000001</ele>
        <time>2021-07-03T09:52:44Z</time>
      </trkpt>
      <trkpt lat="50.790871493518353" lon="4.703769162297249">
        <ele>40.700000000000003</ele>
        <time>2021-07-03T09:52:46Z</time>
      </trkpt>
      <trkpt lat="50.79093242995441" lon="4.703926658257842">
        <ele>41.590000000000003</ele>
        <time>2021-07-03T09:52:53Z</time>
      </trkpt>
      <trkpt lat="50.791010549291968" lon="4.704206446185708">
        <ele>41.619999999999997</ele>
        <time>2021-07-03T09:53:09Z</time>
      </trkpt>
      <trkpt lat="50.791106186807156" lon="4.704443821683526">
        <ele>41.68</ele>
        <time>2021-07-03T09:53:19Z</time>
      </trkpt>
      <trkpt lat="50.791152706369758" lon="4.704507943242788">
        <ele>41.729999999999997</ele>
        <time>2021-07-03T09:53:24Z</time>
      </trkpt>
      <trkpt lat="50.791247086599469" lon="4.70467952080071">
        <ele>41.850000000000001</ele>
        <time>2021-07-03T09:53:35Z</time>
      </trkpt>
      <trkpt lat="50.791348926723003" lon="4.705000631511211">
        <ele>42.619999999999997</ele>
        <time>2021-07-03T09:53:47Z</time>
      </trkpt>
      <trkpt lat="50.791438864544034" lon="4.705201210454106">
        <ele>43.57</ele>
        <time>2021-07-03T09:53:57Z</time>
      </trkpt>
      <trkpt lat="50.791691159829497" lon="4.705571355298162">
        <ele>44.899999999999999</ele>
        <time>2021-07-03T09:54:18Z</time>
      </trkpt>
      <trkpt lat="50.791776571422815" lon="4.705689707770944">
        <ele>44.909999999999997</ele>
        <time>2021-07-03T09:54:26Z</time>
      </trkpt>
      <trkpt lat="50.791866006329656" lon="4.70580680295825">
        <ele>44.939999999999998</ele>
        <time>2021-07-03T09:54:34Z</time>
      </trkpt>
      <trkpt lat="50.791892912238836" lon="4.705833960324526">
        <ele>44.960000000000001</ele>
        <time>2021-07-03T09:54:36Z</time>
      </trkpt>
      <trkpt lat="50.791992405429482" lon="4.706026744097471">
        <ele>44.979999999999997</ele>
        <time>2021-07-03T09:54:47Z</time>
      </trkpt>
      <trkpt lat="50.79203188419342" lon="4.706081561744213">
        <ele>45</ele>
        <time>2021-07-03T09:54:51Z</time>
      </trkpt>
      <trkpt lat="50.792088713496923" lon="4.706150963902473">
        <ele>45.020000000000003</ele>
        <time>2021-07-03T09:54:56Z</time>
      </trkpt>
      <trkpt lat="50.792165659368038" lon="4.706259090453386">
        <ele>45.009999999999998</ele>
        <time>2021-07-03T09:55:05Z</time>
      </trkpt>
      <trkpt lat="50.79220874235034" lon="4.70635355450213">
        <ele>45.090000000000003</ele>
        <time>2021-07-03T09:55:12Z</time>
      </trkpt>
      <trkpt lat="50.79224294051528" lon="4.70642295666039">
        <ele>45.039999999999999</ele>
        <time>2021-07-03T09:55:16Z</time>
      </trkpt>
      <trkpt lat="50.792319886386395" lon="4.706509541720152">
        <ele>45.07</ele>
        <time>2021-07-03T09:55:21Z</time>
      </trkpt>
      <trkpt lat="50.792359365150332" lon="4.706537453457713">
        <ele>42.799999999999997</ele>
        <time>2021-07-03T09:55:23Z</time>
      </trkpt>
      <trkpt lat="50.792389875277877" lon="4.706569723784924">
        <ele>42.799999999999997</ele>
        <time>2021-07-03T09:55:25Z</time>
      </trkpt>
      <trkpt lat="50.792416781187057" lon="4.7067850548774">
        <ele>42.020000000000003</ele>
        <time>2021-07-03T09:55:40Z</time>
      </trkpt>
      <trkpt lat="50.792433461174369" lon="4.706886224448681">
        <ele>42.090000000000003</ele>
        <time>2021-07-03T09:55:43Z</time>
      </trkpt>
      <trkpt lat="50.792452404275537" lon="4.706929223611951">
        <ele>42.109999999999999</ele>
        <time>2021-07-03T09:55:45Z</time>
      </trkpt>
      <trkpt lat="50.792617108672857" lon="4.707061490043998">
        <ele>42.189999999999998</ele>
        <time>2021-07-03T09:55:55Z</time>
      </trkpt>
      <trkpt lat="50.792694557458162" lon="4.70715394243598">
        <ele>41.280000000000001</ele>
        <time>2021-07-03T09:56:00Z</time>
      </trkpt>
      <trkpt lat="50.792847611010075" lon="4.707844946533442">
        <ele>38.82</ele>
        <time>2021-07-03T09:56:11Z</time>
      </trkpt>
      <trkpt lat="50.792861776426435" lon="4.707885514944792">
        <ele>38.829999999999998</ele>
        <time>2021-07-03T09:56:12Z</time>
      </trkpt>
      <trkpt lat="50.792870661243796" lon="4.707935135811567">
        <ele>38.850000000000001</ele>
        <time>2021-07-03T09:56:13Z</time>
      </trkpt>
      <trkpt lat="50.792961856350303" lon="4.708166560158134">
        <ele>38.969999999999999</ele>
        <time>2021-07-03T09:56:20Z</time>
      </trkpt>
      <trkpt lat="50.792994126677513" lon="4.708249624818564">
        <ele>39.060000000000002</ele>
        <time>2021-07-03T09:56:22Z</time>
      </trkpt>
      <trkpt lat="50.793025307357311" lon="4.708348447456956">
        <ele>39.020000000000003</ele>
        <time>2021-07-03T09:56:23Z</time>
      </trkpt>
      <trkpt lat="50.79306093044579" lon="4.70843025483191">
        <ele>39.030000000000001</ele>
        <time>2021-07-03T09:56:24Z</time>
      </trkpt>
      <trkpt lat="50.793084902688861" lon="4.708459591493011">
        <ele>39.039999999999999</ele>
        <time>2021-07-03T09:56:25Z</time>
      </trkpt>
      <trkpt lat="50.793133098632097" lon="4.708523713052273">
        <ele>39.109999999999999</ele>
        <time>2021-07-03T09:56:27Z</time>
      </trkpt>
      <trkpt lat="50.793149610981345" lon="4.708550870418549">
        <ele>39.109999999999999</ele>
        <time>2021-07-03T09:56:28Z</time>
      </trkpt>
      <trkpt lat="50.793169476091862" lon="4.708582973107696">
        <ele>39.149999999999999</ele>
        <time>2021-07-03T09:56:29Z</time>
      </trkpt>
      <trkpt lat="50.793211553245783" lon="4.708686489611864">
        <ele>39.149999999999999</ele>
        <time>2021-07-03T09:56:31Z</time>
      </trkpt>
      <trkpt lat="50.793230663985014" lon="4.708725549280644">
        <ele>39.170000000000002</ele>
        <time>2021-07-03T09:56:32Z</time>
      </trkpt>
      <trkpt lat="50.793327139690518" lon="4.708929816260934">
        <ele>39.25</ele>
        <time>2021-07-03T09:56:37Z</time>
      </trkpt>
      <trkpt lat="50.793340466916561" lon="4.708964014425874">
        <ele>39.25</ele>
        <time>2021-07-03T09:56:38Z</time>
      </trkpt>
      <trkpt lat="50.793360667303205" lon="4.70899511128664">
        <ele>39.270000000000003</ele>
        <time>2021-07-03T09:56:39Z</time>
      </trkpt>
      <trkpt lat="50.793385058641434" lon="4.709019586443901">
        <ele>39.280000000000001</ele>
        <time>2021-07-03T09:56:40Z</time>
      </trkpt>
      <trkpt lat="50.793403582647443" lon="4.709048671647906">
        <ele>39.280000000000001</ele>
        <time>2021-07-03T09:56:41Z</time>
      </trkpt>
      <trkpt lat="50.793421268463135" lon="4.709067614749074">
        <ele>39.289999999999999</ele>
        <time>2021-07-03T09:56:42Z</time>
      </trkpt>
      <trkpt lat="50.793451191857457" lon="4.709103656932712">
        <ele>39.310000000000002</ele>
        <time>2021-07-03T09:56:43Z</time>
      </trkpt>
      <trkpt lat="50.793635761365294" lon="4.709375649690628">
        <ele>39.409999999999997</ele>
        <time>2021-07-03T09:56:51Z</time>
      </trkpt>
      <trkpt lat="50.79380365088582" lon="4.709455110132694">
        <ele>39.5</ele>
        <time>2021-07-03T09:56:57Z</time>
      </trkpt>
      <trkpt lat="50.793948657810688" lon="4.709596931934357">
        <ele>39.600000000000001</ele>
        <time>2021-07-03T09:57:02Z</time>
      </trkpt>
      <trkpt lat="50.793976401910186" lon="4.709608163684607">
        <ele>39.600000000000001</ele>
        <time>2021-07-03T09:57:03Z</time>
      </trkpt>
      <trkpt lat="50.794005319476128" lon="4.709617467597127">
        <ele>39.619999999999997</ele>
        <time>2021-07-03T09:57:04Z</time>
      </trkpt>
      <trkpt lat="50.79405527561903" lon="4.709631465375423">
        <ele>39.630000000000003</ele>
        <time>2021-07-03T09:57:05Z</time>
      </trkpt>
      <trkpt lat="50.794088300317526" lon="4.709678823128343">
        <ele>39.659999999999997</ele>
        <time>2021-07-03T09:57:06Z</time>
      </trkpt>
      <trkpt lat="50.794116714969277" lon="4.709686199203134">
        <ele>39.68</ele>
        <time>2021-07-03T09:57:07Z</time>
      </trkpt>
      <trkpt lat="50.794142363592982" lon="4.709685696288943">
        <ele>39.689999999999998</ele>
        <time>2021-07-03T09:57:08Z</time>
      </trkpt>
      <trkpt lat="50.794175304472446" lon="4.709683349356055">
        <ele>39.700000000000003</ele>
        <time>2021-07-03T09:57:09Z</time>
      </trkpt>
      <trkpt lat="50.79428200609982" lon="4.709713943302631">
        <ele>39.82</ele>
        <time>2021-07-03T09:57:18Z</time>
      </trkpt>
      <trkpt lat="50.794306732714176" lon="4.709673123434186">
        <ele>42.420000000000002</ele>
        <time>2021-07-03T09:57:23Z</time>
      </trkpt>
      <trkpt lat="50.794335231184959" lon="4.709655269980431">
        <ele>42.479999999999997</ele>
        <time>2021-07-03T09:57:27Z</time>
      </trkpt>
      <trkpt lat="50.794561207294464" lon="4.709523255005479">
        <ele>42.670000000000002</ele>
        <time>2021-07-03T09:57:40Z</time>
      </trkpt>
      <trkpt lat="50.794785842299461" lon="4.709291746839881">
        <ele>42.859999999999999</ele>
        <time>2021-07-03T09:57:55Z</time>
      </trkpt>
      <trkpt lat="50.794816436246037" lon="4.709238018840551">
        <ele>42.909999999999997</ele>
        <time>2021-07-03T09:57:58Z</time>
      </trkpt>
      <trkpt lat="50.79498709179461" lon="4.708956722170115">
        <ele>43.090000000000003</ele>
        <time>2021-07-03T09:58:10Z</time>
      </trkpt>
      <trkpt lat="50.794983906671405" lon="4.708937779068947">
        <ele>43.109999999999999</ele>
        <time>2021-07-03T09:58:11Z</time>
      </trkpt>
      <trkpt lat="50.794999916106462" lon="4.708897797390819">
        <ele>43.140000000000001</ele>
        <time>2021-07-03T09:58:13Z</time>
      </trkpt>
      <trkpt lat="50.795087423175573" lon="4.7087346855551">
        <ele>43.259999999999998</ele>
        <time>2021-07-03T09:58:22Z</time>
      </trkpt>
      <trkpt lat="50.795167302712798" lon="4.708658074960113">
        <ele>43.43</ele>
        <time>2021-07-03T09:58:36Z</time>
      </trkpt>
      <trkpt lat="50.795317841693759" lon="4.708581799641252">
        <ele>43.579999999999998</ele>
        <time>2021-07-03T09:58:46Z</time>
      </trkpt>
      <trkpt lat="50.795321026816964" lon="4.708572998642921">
        <ele>43.600000000000001</ele>
        <time>2021-07-03T09:58:48Z</time>
      </trkpt>
      <trkpt lat="50.795485898852348" lon="4.708458418026567">
        <ele>43.75</ele>
        <time>2021-07-03T09:58:59Z</time>
      </trkpt>
      <trkpt lat="50.795533927157521" lon="4.708219785243273">
        <ele>43.859999999999999</ele>
        <time>2021-07-03T09:59:11Z</time>
      </trkpt>
      <trkpt lat="50.795562928542495" lon="4.708155747503042">
        <ele>43.890000000000001</ele>
        <time>2021-07-03T09:59:14Z</time>
      </trkpt>
      <trkpt lat="50.795664852485061" lon="4.708021972328425">
        <ele>43.969999999999999</ele>
        <time>2021-07-03T09:59:22Z</time>
      </trkpt>
      <trkpt lat="50.795805584639311" lon="4.707964556291699">
        <ele>44.009999999999998</ele>
        <time>2021-07-03T09:59:26Z</time>
      </trkpt>
      <trkpt lat="50.795830814167857" lon="4.707933627068996">
        <ele>44.049999999999997</ele>
        <time>2021-07-03T09:59:31Z</time>
      </trkpt>
      <trkpt lat="50.795916561037302" lon="4.707850059494376">
        <ele>44.090000000000003</ele>
        <time>2021-07-03T09:59:36Z</time>
      </trkpt>
      <trkpt lat="50.795931564643979" lon="4.707803288474679">
        <ele>44.93</ele>
        <time>2021-07-03T09:59:40Z</time>
      </trkpt>
      <trkpt lat="50.795941036194563" lon="4.707769006490707">
        <ele>44.920000000000002</ele>
        <time>2021-07-03T09:59:42Z</time>
      </trkpt>
      <trkpt lat="50.795972468331456" lon="4.707663645967841">
        <ele>44.960000000000001</ele>
        <time>2021-07-03T09:59:47Z</time>
      </trkpt>
      <trkpt lat="50.795975150540471" lon="4.707625173032284">
        <ele>44.969999999999999</ele>
        <time>2021-07-03T09:59:49Z</time>
      </trkpt>
      <trkpt lat="50.79603667370975" lon="4.707403052598238">
        <ele>44.990000000000002</ele>
        <time>2021-07-03T09:59:59Z</time>
      </trkpt>
      <trkpt lat="50.796073889359832" lon="4.707344966009259">
        <ele>45</ele>
        <time>2021-07-03T10:00:02Z</time>
      </trkpt>
      <trkpt lat="50.796096017584205" lon="4.707280928269029">
        <ele>45.060000000000002</ele>
        <time>2021-07-03T10:00:07Z</time>
      </trkpt>
      <trkpt lat="50.796181429177523" lon="4.707072051241994">
        <ele>47.079999999999998</ele>
        <time>2021-07-03T10:00:18Z</time>
      </trkpt>
      <trkpt lat="50.796198109164834" lon="4.707050928846002">
        <ele>47.079999999999998</ele>
        <time>2021-07-03T10:00:19Z</time>
      </trkpt>
      <trkpt lat="50.79632299952209" lon="4.7068593185395">
        <ele>47.020000000000003</ele>
        <time>2021-07-03T10:00:30Z</time>
      </trkpt>
      <trkpt lat="50.796454846858978" lon="4.706717832013965">
        <ele>47.030000000000001</ele>
        <time>2021-07-03T10:00:40Z</time>
      </trkpt>
      <trkpt lat="50.796447638422251" lon="4.706703498959541">
        <ele>47.020000000000003</ele>
        <time>2021-07-03T10:00:42Z</time>
      </trkpt>
      <trkpt lat="50.796496840193868" lon="4.7066296543926">
        <ele>47.049999999999997</ele>
        <time>2021-07-03T10:00:47Z</time>
      </trkpt>
      <trkpt lat="50.796503126621246" lon="4.706555642187595">
        <ele>47.060000000000002</ele>
        <time>2021-07-03T10:00:52Z</time>
      </trkpt>
      <trkpt lat="50.79653455875814" lon="4.706527730450034">
        <ele>47.060000000000002</ele>
        <time>2021-07-03T10:00:54Z</time>
      </trkpt>
      <trkpt lat="50.796584263443947" lon="4.706477858126164">
        <ele>47.079999999999998</ele>
        <time>2021-07-03T10:00:57Z</time>
      </trkpt>
      <trkpt lat="50.796740669757128" lon="4.706304101273418">
        <ele>47.109999999999999</ele>
        <time>2021-07-03T10:01:07Z</time>
      </trkpt>
      <trkpt lat="50.796776376664639" lon="4.706262275576592">
        <ele>47.119999999999997</ele>
        <time>2021-07-03T10:01:11Z</time>
      </trkpt>
      <trkpt lat="50.796821974217892" lon="4.706219276413322">
        <ele>47.130000000000003</ele>
        <time>2021-07-03T10:01:13Z</time>
      </trkpt>
      <trkpt lat="50.796955749392509" lon="4.706081980839372">
        <ele>47.140000000000001</ele>
        <time>2021-07-03T10:01:22Z</time>
      </trkpt>
      <trkpt lat="50.79706622287631" lon="4.705957006663084">
        <ele>47.109999999999999</ele>
        <time>2021-07-03T10:01:30Z</time>
      </trkpt>
      <trkpt lat="50.797107378020883" lon="4.705809066072106">
        <ele>47.109999999999999</ele>
        <time>2021-07-03T10:01:42Z</time>
      </trkpt>
      <trkpt lat="50.79713118262589" lon="4.705702867358923">
        <ele>47.119999999999997</ele>
        <time>2021-07-03T10:01:51Z</time>
      </trkpt>
      <trkpt lat="50.797384399920702" lon="4.705459792166948">
        <ele>48.780000000000001</ele>
        <time>2021-07-03T10:02:07Z</time>
      </trkpt>
      <trkpt lat="50.797686735168099" lon="4.705156283453107">
        <ele>49.57</ele>
        <time>2021-07-03T10:02:28Z</time>
      </trkpt>
      <trkpt lat="50.797741636633873" lon="4.705094257369638">
        <ele>49.530000000000001</ele>
        <time>2021-07-03T10:02:34Z</time>
      </trkpt>
      <trkpt lat="50.798009689897299" lon="4.704859144985676">
        <ele>49.469999999999999</ele>
        <time>2021-07-03T10:02:50Z</time>
      </trkpt>
      <trkpt lat="50.798223428428173" lon="4.704839866608381">
        <ele>49.450000000000003</ele>
        <time>2021-07-03T10:03:04Z</time>
      </trkpt>
      <trkpt lat="50.798366256058216" lon="4.704833496361971">
        <ele>49.43</ele>
        <time>2021-07-03T10:03:15Z</time>
      </trkpt>
      <trkpt lat="50.798447309061885" lon="4.704758981242776">
        <ele>49.409999999999997</ele>
        <time>2021-07-03T10:03:27Z</time>
      </trkpt>
      <trkpt lat="50.798547975718975" lon="4.704759903252125">
        <ele>50.289999999999999</ele>
        <time>2021-07-03T10:03:35Z</time>
      </trkpt>
      <trkpt lat="50.798963215202093" lon="4.704661583527923">
        <ele>50.25</ele>
        <time>2021-07-03T10:03:51Z</time>
      </trkpt>
      <trkpt lat="50.799042424187064" lon="4.704663595184684">
        <ele>50.240000000000002</ele>
        <time>2021-07-03T10:03:54Z</time>
      </trkpt>
      <trkpt lat="50.799089279025793" lon="4.704651441425085">
        <ele>50.229999999999997</ele>
        <time>2021-07-03T10:03:56Z</time>
      </trkpt>
      <trkpt lat="50.799114676192403" lon="4.704650938510895">
        <ele>50.240000000000002</ele>
        <time>2021-07-03T10:03:57Z</time>
      </trkpt>
      <trkpt lat="50.7991355471313" lon="4.704646077007055">
        <ele>50.240000000000002</ele>
        <time>2021-07-03T10:03:58Z</time>
      </trkpt>
      <trkpt lat="50.799183156341314" lon="4.7046506870538">
        <ele>50.229999999999997</ele>
        <time>2021-07-03T10:04:00Z</time>
      </trkpt>
      <trkpt lat="50.799213415011764" lon="4.704648423939943">
        <ele>50.240000000000002</ele>
        <time>2021-07-03T10:04:01Z</time>
      </trkpt>
      <trkpt lat="50.799390943720937" lon="4.704622020944953">
        <ele>51.030000000000001</ele>
        <time>2021-07-03T10:04:09Z</time>
      </trkpt>
      <trkpt lat="50.799419693648815" lon="4.704624116420746">
        <ele>51.060000000000002</ele>
        <time>2021-07-03T10:04:10Z</time>
      </trkpt>
      <trkpt lat="50.799537459388375" lon="4.704606179147959">
        <ele>54.119999999999997</ele>
        <time>2021-07-03T10:04:17Z</time>
      </trkpt>
      <trkpt lat="50.799570148810744" lon="4.704616572707892">
        <ele>54.07</ele>
        <time>2021-07-03T10:04:18Z</time>
      </trkpt>
      <trkpt lat="50.799607615917921" lon="4.704611543565989">
        <ele>54.859999999999999</ele>
        <time>2021-07-03T10:04:21Z</time>
      </trkpt>
      <trkpt lat="50.799712724983692" lon="4.704657224938273">
        <ele>54.880000000000003</ele>
        <time>2021-07-03T10:04:26Z</time>
      </trkpt>
      <trkpt lat="50.79976636916399" lon="4.704681197181344">
        <ele>54.93</ele>
        <time>2021-07-03T10:04:28Z</time>
      </trkpt>
      <trkpt lat="50.799779361113906" lon="4.704696703702211">
        <ele>54.939999999999998</ele>
        <time>2021-07-03T10:04:29Z</time>
      </trkpt>
      <trkpt lat="50.799802159890532" lon="4.704707264900208">
        <ele>54.93</ele>
        <time>2021-07-03T10:04:30Z</time>
      </trkpt>
      <trkpt lat="50.799810290336609" lon="4.704721597954631">
        <ele>54.920000000000002</ele>
        <time>2021-07-03T10:04:31Z</time>
      </trkpt>
      <trkpt lat="50.799813978374004" lon="4.704738864675164">
        <ele>54.920000000000002</ele>
        <time>2021-07-03T10:04:32Z</time>
      </trkpt>
      <trkpt lat="50.799898719415069" lon="4.704870544373989">
        <ele>55.859999999999999</ele>
        <time>2021-07-03T10:04:47Z</time>
      </trkpt>
      <trkpt lat="50.799948340281844" lon="4.705063831061125">
        <ele>55.880000000000003</ele>
        <time>2021-07-03T10:04:52Z</time>
      </trkpt>
      <trkpt lat="50.799968121573329" lon="4.705113200470805">
        <ele>56.810000000000002</ele>
        <time>2021-07-03T10:04:55Z</time>
      </trkpt>
      <trkpt lat="50.799989327788353" lon="4.705153936520219">
        <ele>56.82</ele>
        <time>2021-07-03T10:04:57Z</time>
      </trkpt>
      <trkpt lat="50.799995781853795" lon="4.705166425555944">
        <ele>56.82</ele>
        <time>2021-07-03T10:04:58Z</time>
      </trkpt>
      <trkpt lat="50.800039283931255" lon="4.705331632867456">
        <ele>57.689999999999998</ele>
        <time>2021-07-03T10:05:04Z</time>
      </trkpt>
      <trkpt lat="50.800191918388009" lon="4.705719044432044">
        <ele>59.5</ele>
        <time>2021-07-03T10:05:19Z</time>
      </trkpt>
      <trkpt lat="50.80025159753859" lon="4.705893136560917">
        <ele>60.25</ele>
        <time>2021-07-03T10:05:26Z</time>
      </trkpt>
      <trkpt lat="50.800324184820056" lon="4.706198070198298">
        <ele>62.159999999999997</ele>
        <time>2021-07-03T10:05:42Z</time>
      </trkpt>
      <trkpt lat="50.800369614735246" lon="4.70651188865304">
        <ele>63.840000000000003</ele>
        <time>2021-07-03T10:05:59Z</time>
      </trkpt>
      <trkpt lat="50.800373805686831" lon="4.706538794562221">
        <ele>63.840000000000003</ele>
        <time>2021-07-03T10:06:00Z</time>
      </trkpt>
      <trkpt lat="50.800382858142257" lon="4.706559414044023">
        <ele>63.840000000000003</ele>
        <time>2021-07-03T10:06:01Z</time>
      </trkpt>
      <trkpt lat="50.800387132912874" lon="4.706615237519145">
        <ele>63.850000000000001</ele>
        <time>2021-07-03T10:06:04Z</time>
      </trkpt>
      <trkpt lat="50.800397526472807" lon="4.70666971988976">
        <ele>63.859999999999999</ele>
        <time>2021-07-03T10:06:07Z</time>
      </trkpt>
      <trkpt lat="50.80040062777698" lon="4.706843979656696">
        <ele>64.680000000000007</ele>
        <time>2021-07-03T10:06:26Z</time>
      </trkpt>
      <trkpt lat="50.80035075545311" lon="4.706912040710449">
        <ele>64.719999999999999</ele>
        <time>2021-07-03T10:06:33Z</time>
      </trkpt>
      <trkpt lat="50.800305660814047" lon="4.707041289657354">
        <ele>64.780000000000001</ele>
        <time>2021-07-03T10:06:43Z</time>
      </trkpt>
      <trkpt lat="50.800247825682163" lon="4.707053527235985">
        <ele>64.840000000000003</ele>
        <time>2021-07-03T10:06:49Z</time>
      </trkpt>
      <trkpt lat="50.80005906522274" lon="4.70704497769475">
        <ele>65.930000000000007</ele>
        <time>2021-07-03T10:07:03Z</time>
      </trkpt>
      <trkpt lat="50.800025621429086" lon="4.707062998786569">
        <ele>65.950000000000003</ele>
        <time>2021-07-03T10:07:06Z</time>
      </trkpt>
      <trkpt lat="50.79994616098702" lon="4.707252597436309">
        <ele>66.019999999999996</ele>
        <time>2021-07-03T10:07:19Z</time>
      </trkpt>
      <trkpt lat="50.799948424100876" lon="4.707370866090059">
        <ele>66.079999999999998</ele>
        <time>2021-07-03T10:07:31Z</time>
      </trkpt>
      <trkpt lat="50.79995303414762" lon="4.707394922152162">
        <ele>66.090000000000003</ele>
        <time>2021-07-03T10:07:33Z</time>
      </trkpt>
      <trkpt lat="50.799998799338937" lon="4.7079904563725">
        <ele>66.140000000000001</ele>
        <time>2021-07-03T10:07:51Z</time>
      </trkpt>
      <trkpt lat="50.80004976131022" lon="4.70816538669169">
        <ele>66.219999999999999</ele>
        <time>2021-07-03T10:08:07Z</time>
      </trkpt>
      <trkpt lat="50.800060322508216" lon="4.708213414996862">
        <ele>64</ele>
        <time>2021-07-03T10:08:11Z</time>
      </trkpt>
      <trkpt lat="50.799934174865484" lon="4.708411060273647">
        <ele>64.060000000000002</ele>
        <time>2021-07-03T10:08:25Z</time>
      </trkpt>
      <trkpt lat="50.799885056912899" lon="4.708417514339089">
        <ele>63.359999999999999</ele>
        <time>2021-07-03T10:08:29Z</time>
      </trkpt>
      <trkpt lat="50.799841554835439" lon="4.708454059436917">
        <ele>63.350000000000001</ele>
        <time>2021-07-03T10:08:33Z</time>
      </trkpt>
      <trkpt lat="50.799658745527267" lon="4.708625469356775">
        <ele>63.43</ele>
        <time>2021-07-03T10:08:46Z</time>
      </trkpt>
      <trkpt lat="50.799559419974685" lon="4.708622032776475">
        <ele>62.700000000000003</ele>
        <time>2021-07-03T10:08:51Z</time>
      </trkpt>
      <trkpt lat="50.799450622871518" lon="4.708646424114704">
        <ele>62.719999999999999</ele>
        <time>2021-07-03T10:08:58Z</time>
      </trkpt>
      <trkpt lat="50.799422459676862" lon="4.708674754947424">
        <ele>62.729999999999997</ele>
        <time>2021-07-03T10:09:00Z</time>
      </trkpt>
      <trkpt lat="50.799335790798068" lon="4.708840465173125">
        <ele>62.75</ele>
        <time>2021-07-03T10:09:08Z</time>
      </trkpt>
      <trkpt lat="50.799332857131958" lon="4.709039283916354">
        <ele>62.770000000000003</ele>
        <time>2021-07-03T10:09:11Z</time>
      </trkpt>
      <trkpt lat="50.799337550997734" lon="4.709112290292978">
        <ele>62.770000000000003</ele>
        <time>2021-07-03T10:09:12Z</time>
      </trkpt>
      <trkpt lat="50.799339981749654" lon="4.709151769056916">
        <ele>62.780000000000001</ele>
        <time>2021-07-03T10:09:13Z</time>
      </trkpt>
      <trkpt lat="50.799342496320605" lon="4.709185045212507">
        <ele>62.780000000000001</ele>
        <time>2021-07-03T10:09:14Z</time>
      </trkpt>
      <trkpt lat="50.799340987578034" lon="4.70921890810132">
        <ele>62.780000000000001</ele>
        <time>2021-07-03T10:09:15Z</time>
      </trkpt>
      <trkpt lat="50.799345513805747" lon="4.709250424057245">
        <ele>62.789999999999999</ele>
        <time>2021-07-03T10:09:16Z</time>
      </trkpt>
      <trkpt lat="50.799352554604411" lon="4.709285125136375">
        <ele>62.799999999999997</ele>
        <time>2021-07-03T10:09:17Z</time>
      </trkpt>
      <trkpt lat="50.799361858516932" lon="4.709351006895304">
        <ele>61.939999999999998</ele>
        <time>2021-07-03T10:09:20Z</time>
      </trkpt>
      <trkpt lat="50.799366887658834" lon="4.709373218938708">
        <ele>61.950000000000003</ele>
        <time>2021-07-03T10:09:21Z</time>
      </trkpt>
      <trkpt lat="50.799371497705579" lon="4.709395095705986">
        <ele>61.950000000000003</ele>
        <time>2021-07-03T10:09:22Z</time>
      </trkpt>
      <trkpt lat="50.799390189349651" lon="4.709434071555734">
        <ele>61.979999999999997</ele>
        <time>2021-07-03T10:09:24Z</time>
      </trkpt>
      <trkpt lat="50.799394799396396" lon="4.709455529227853">
        <ele>61.979999999999997</ele>
        <time>2021-07-03T10:09:25Z</time>
      </trkpt>
      <trkpt lat="50.799405192956328" lon="4.709476064890623">
        <ele>61.979999999999997</ele>
        <time>2021-07-03T10:09:26Z</time>
      </trkpt>
      <trkpt lat="50.799460932612419" lon="4.709554519504309">
        <ele>62.020000000000003</ele>
        <time>2021-07-03T10:09:32Z</time>
      </trkpt>
      <trkpt lat="50.799548607319593" lon="4.709606822580099">
        <ele>61.259999999999998</ele>
        <time>2021-07-03T10:09:41Z</time>
      </trkpt>
      <trkpt lat="50.799562688916922" lon="4.709619143977761">
        <ele>61.259999999999998</ele>
        <time>2021-07-03T10:09:42Z</time>
      </trkpt>
      <trkpt lat="50.799656230956316" lon="4.709673542529345">
        <ele>61.359999999999999</ele>
        <time>2021-07-03T10:09:53Z</time>
      </trkpt>
      <trkpt lat="50.799697889015079" lon="4.709707908332348">
        <ele>61.420000000000002</ele>
        <time>2021-07-03T10:09:58Z</time>
      </trkpt>
      <trkpt lat="50.799727393314242" lon="4.709727270528674">
        <ele>61.450000000000003</ele>
        <time>2021-07-03T10:10:02Z</time>
      </trkpt>
      <trkpt lat="50.799804171547294" lon="4.709775298833847">
        <ele>61.549999999999997</ele>
        <time>2021-07-03T10:10:12Z</time>
      </trkpt>
      <trkpt lat="50.800011456012726" lon="4.709628699347377">
        <ele>61.689999999999998</ele>
        <time>2021-07-03T10:10:29Z</time>
      </trkpt>
      <trkpt lat="50.800122180953622" lon="4.709605565294623">
        <ele>61.719999999999999</ele>
        <time>2021-07-03T10:10:33Z</time>
      </trkpt>
      <trkpt lat="50.800176998600364" lon="4.709608918055892">
        <ele>61.719999999999999</ele>
        <time>2021-07-03T10:10:34Z</time>
      </trkpt>
      <trkpt lat="50.800210945308208" lon="4.709609840065241">
        <ele>61.729999999999997</ele>
        <time>2021-07-03T10:10:35Z</time>
      </trkpt>
      <trkpt lat="50.800259727984667" lon="4.709613947197795">
        <ele>61.740000000000002</ele>
        <time>2021-07-03T10:10:36Z</time>
      </trkpt>
      <trkpt lat="50.800364250317216" lon="4.709597853943706">
        <ele>61.759999999999998</ele>
        <time>2021-07-03T10:10:38Z</time>
      </trkpt>
      <trkpt lat="50.800414122641087" lon="4.709584778174758">
        <ele>61.75</ele>
        <time>2021-07-03T10:10:39Z</time>
      </trkpt>
      <trkpt lat="50.800438346341252" lon="4.709591902792454">
        <ele>61.759999999999998</ele>
        <time>2021-07-03T10:10:40Z</time>
      </trkpt>
      <trkpt lat="50.800481932237744" lon="4.709600368514657">
        <ele>61.770000000000003</ele>
        <time>2021-07-03T10:10:41Z</time>
      </trkpt>
      <trkpt lat="50.80050372518599" lon="4.709613025188446">
        <ele>61.770000000000003</ele>
        <time>2021-07-03T10:10:42Z</time>
      </trkpt>
      <trkpt lat="50.800640853121877" lon="4.709602631628513">
        <ele>61.850000000000001</ele>
        <time>2021-07-03T10:10:49Z</time>
      </trkpt>
      <trkpt lat="50.800829194486141" lon="4.709679409861565">
        <ele>61.960000000000001</ele>
        <time>2021-07-03T10:11:01Z</time>
      </trkpt>
      <trkpt lat="50.800934471189976" lon="4.709792146459222">
        <ele>61.289999999999999</ele>
        <time>2021-07-03T10:11:13Z</time>
      </trkpt>
      <trkpt lat="50.800989540293813" lon="4.709861045703292">
        <ele>60.200000000000003</ele>
        <time>2021-07-03T10:11:18Z</time>
      </trkpt>
      <trkpt lat="50.801141923293471" lon="4.709945116192102">
        <ele>60.240000000000002</ele>
        <time>2021-07-03T10:11:27Z</time>
      </trkpt>
      <trkpt lat="50.801365049555898" lon="4.710534615442157">
        <ele>60.329999999999998</ele>
        <time>2021-07-03T10:11:40Z</time>
      </trkpt>
      <trkpt lat="50.801398241892457" lon="4.710658919066191">
        <ele>59.530000000000001</ele>
        <time>2021-07-03T10:11:47Z</time>
      </trkpt>
      <trkpt lat="50.801463536918163" lon="4.710826221853495">
        <ele>59.729999999999997</ele>
        <time>2021-07-03T10:12:00Z</time>
      </trkpt>
      <trkpt lat="50.801413413137197" lon="4.710976341739297">
        <ele>59.060000000000002</ele>
        <time>2021-07-03T10:12:11Z</time>
      </trkpt>
      <trkpt lat="50.801431769505143" lon="4.711130652576685">
        <ele>58.469999999999999</ele>
        <time>2021-07-03T10:12:22Z</time>
      </trkpt>
      <trkpt lat="50.801445348188281" lon="4.711268870159984">
        <ele>58.619999999999997</ele>
        <time>2021-07-03T10:12:29Z</time>
      </trkpt>
      <trkpt lat="50.801451299339533" lon="4.711344810202718">
        <ele>57.920000000000002</ele>
        <time>2021-07-03T10:12:37Z</time>
      </trkpt>
      <trkpt lat="50.801550541073084" lon="4.711718391627073">
        <ele>57.43</ele>
        <time>2021-07-03T10:12:55Z</time>
      </trkpt>
      <trkpt lat="50.801652800291777" lon="4.712181575596333">
        <ele>57.030000000000001</ele>
        <time>2021-07-03T10:13:19Z</time>
      </trkpt>
      <trkpt lat="50.801672413945198" lon="4.712419621646404">
        <ele>56.369999999999997</ele>
        <time>2021-07-03T10:13:27Z</time>
      </trkpt>
      <trkpt lat="50.801675179973245" lon="4.712459184229374">
        <ele>56.420000000000002</ele>
        <time>2021-07-03T10:13:29Z</time>
      </trkpt>
      <trkpt lat="50.801722202450037" lon="4.712738888338208">
        <ele>56.579999999999998</ele>
        <time>2021-07-03T10:13:40Z</time>
      </trkpt>
      <trkpt lat="50.801775678992271" lon="4.71294516697526">
        <ele>56</ele>
        <time>2021-07-03T10:13:53Z</time>
      </trkpt>
      <trkpt lat="50.801801076158881" lon="4.713228726759553">
        <ele>56.25</ele>
        <time>2021-07-03T10:14:11Z</time>
      </trkpt>
      <trkpt lat="50.801867628470063" lon="4.713287986814976">
        <ele>55.560000000000002</ele>
        <time>2021-07-03T10:14:18Z</time>
      </trkpt>
      <trkpt lat="50.801956644281745" lon="4.713660478591919">
        <ele>55.770000000000003</ele>
        <time>2021-07-03T10:14:32Z</time>
      </trkpt>
      <trkpt lat="50.8019676245749" lon="4.713748404756188">
        <ele>55.810000000000002</ele>
        <time>2021-07-03T10:14:35Z</time>
      </trkpt>
      <trkpt lat="50.80201456323266" lon="4.713924508541822">
        <ele>55.899999999999999</ele>
        <time>2021-07-03T10:14:43Z</time>
      </trkpt>
      <trkpt lat="50.802021017298102" lon="4.713941859081388">
        <ele>55.909999999999997</ele>
        <time>2021-07-03T10:14:44Z</time>
      </trkpt>
      <trkpt lat="50.802095867693424" lon="4.714289708063006">
        <ele>56.049999999999997</ele>
        <time>2021-07-03T10:14:56Z</time>
      </trkpt>
      <trkpt lat="50.802129060029984" lon="4.714426165446639">
        <ele>56.100000000000001</ele>
        <time>2021-07-03T10:15:01Z</time>
      </trkpt>
      <trkpt lat="50.802228134125471" lon="4.714622972533107">
        <ele>56.200000000000003</ele>
        <time>2021-07-03T10:15:11Z</time>
      </trkpt>
      <trkpt lat="50.802287897095084" lon="4.714885493740439">
        <ele>56.340000000000003</ele>
        <time>2021-07-03T10:15:24Z</time>
      </trkpt>
      <trkpt lat="50.802372973412275" lon="4.715065872296691">
        <ele>55.670000000000002</ele>
        <time>2021-07-03T10:15:34Z</time>
      </trkpt>
      <trkpt lat="50.802405159920454" lon="4.715076684951782">
        <ele>55.719999999999999</ele>
        <time>2021-07-03T10:15:39Z</time>
      </trkpt>
      <trkpt lat="50.80246115103364" lon="4.715098729357123">
        <ele>58.060000000000002</ele>
        <time>2021-07-03T10:15:46Z</time>
      </trkpt>
      <trkpt lat="50.802471879869699" lon="4.715095544233918">
        <ele>58.07</ele>
        <time>2021-07-03T10:15:47Z</time>
      </trkpt>
      <trkpt lat="50.802483195438981" lon="4.715092526748776">
        <ele>58.079999999999998</ele>
        <time>2021-07-03T10:15:48Z</time>
      </trkpt>
      <trkpt lat="50.802491661161184" lon="4.715098477900028">
        <ele>59.740000000000002</ele>
        <time>2021-07-03T10:15:55Z</time>
      </trkpt>
      <trkpt lat="50.802504904568195" lon="4.715091101825237">
        <ele>59.789999999999999</ele>
        <time>2021-07-03T10:15:56Z</time>
      </trkpt>
      <trkpt lat="50.802752086892724" lon="4.714970234781504">
        <ele>63.189999999999998</ele>
        <time>2021-07-03T10:16:13Z</time>
      </trkpt>
      <trkpt lat="50.802847305312753" lon="4.714932348579168">
        <ele>64.060000000000002</ele>
        <time>2021-07-03T10:16:19Z</time>
      </trkpt>
      <trkpt lat="50.803009662777185" lon="4.714875435456634">
        <ele>64.079999999999998</ele>
        <time>2021-07-03T10:16:30Z</time>
      </trkpt>
      <trkpt lat="50.803126590326428" lon="4.714870573952794">
        <ele>64.950000000000003</ele>
        <time>2021-07-03T10:16:41Z</time>
      </trkpt>
      <trkpt lat="50.803220383822918" lon="4.714849451556802">
        <ele>64.959999999999994</ele>
        <time>2021-07-03T10:16:52Z</time>
      </trkpt>
      <trkpt lat="50.803314344957471" lon="4.714827574789524">
        <ele>65.829999999999998</ele>
        <time>2021-07-03T10:17:00Z</time>
      </trkpt>
      <trkpt lat="50.803711647167802" lon="4.714712658897042">
        <ele>66.620000000000005</ele>
        <time>2021-07-03T10:17:18Z</time>
      </trkpt>
      <trkpt lat="50.803811894729733" lon="4.714684411883354">
        <ele>66.659999999999997</ele>
        <time>2021-07-03T10:17:26Z</time>
      </trkpt>
      <trkpt lat="50.803902754560113" lon="4.714644430205226">
        <ele>67.420000000000002</ele>
        <time>2021-07-03T10:17:31Z</time>
      </trkpt>
      <trkpt lat="50.804082211107016" lon="4.714610651135445">
        <ele>67.450000000000003</ele>
        <time>2021-07-03T10:17:46Z</time>
      </trkpt>
      <trkpt lat="50.804326711222529" lon="4.714524568989873">
        <ele>68.290000000000006</ele>
        <time>2021-07-03T10:18:01Z</time>
      </trkpt>
      <trkpt lat="50.804434586316347" lon="4.714504703879356">
        <ele>68.310000000000002</ele>
        <time>2021-07-03T10:18:13Z</time>
      </trkpt>
      <trkpt lat="50.804716972634196" lon="4.714404791593552">
        <ele>68.349999999999994</ele>
        <time>2021-07-03T10:18:33Z</time>
      </trkpt>
      <trkpt lat="50.804816968739033" lon="4.714333796873689">
        <ele>68.359999999999999</ele>
        <time>2021-07-03T10:18:45Z</time>
      </trkpt>
      <trkpt lat="50.805044285953045" lon="4.714228184893727">
        <ele>68.379999999999995</ele>
        <time>2021-07-03T10:18:59Z</time>
      </trkpt>
      <trkpt lat="50.805080914869905" lon="4.714220138266683">
        <ele>68.390000000000001</ele>
        <time>2021-07-03T10:19:03Z</time>
      </trkpt>
      <trkpt lat="50.805209241807461" lon="4.714183257892728">
        <ele>66.099999999999994</ele>
        <time>2021-07-03T10:19:11Z</time>
      </trkpt>
      <trkpt lat="50.80543496645987" lon="4.714112263172865">
        <ele>66.120000000000005</ele>
        <time>2021-07-03T10:19:25Z</time>
      </trkpt>
      <trkpt lat="50.805466985329986" lon="4.714101618155837">
        <ele>66.109999999999999</ele>
        <time>2021-07-03T10:19:27Z</time>
      </trkpt>
      <trkpt lat="50.805477714166045" lon="4.714100193232298">
        <ele>66.120000000000005</ele>
        <time>2021-07-03T10:19:28Z</time>
      </trkpt>
      <trkpt lat="50.805688351392746" lon="4.714063815772533">
        <ele>65.359999999999999</ele>
        <time>2021-07-03T10:19:47Z</time>
      </trkpt>
      <trkpt lat="50.805936958640814" lon="4.713962143287063">
        <ele>65.379999999999995</ele>
        <time>2021-07-03T10:20:02Z</time>
      </trkpt>
      <trkpt lat="50.806052880361676" lon="4.713918473571539">
        <ele>65.379999999999995</ele>
        <time>2021-07-03T10:20:15Z</time>
      </trkpt>
      <trkpt lat="50.806246334686875" lon="4.713850831612945">
        <ele>65.370000000000005</ele>
        <time>2021-07-03T10:20:28Z</time>
      </trkpt>
      <trkpt lat="50.80630668438971" lon="4.713815459981561">
        <ele>65.359999999999999</ele>
        <time>2021-07-03T10:20:35Z</time>
      </trkpt>
      <trkpt lat="50.806471388787031" lon="4.713768856599927">
        <ele>65.329999999999998</ele>
        <time>2021-07-03T10:20:46Z</time>
      </trkpt>
      <trkpt lat="50.806671464815736" lon="4.713669866323471">
        <ele>65.290000000000006</ele>
        <time>2021-07-03T10:20:56Z</time>
      </trkpt>
      <trkpt lat="50.806681271642447" lon="4.713664585724473">
        <ele>61.840000000000003</ele>
        <time>2021-07-03T10:20:57Z</time>
      </trkpt>
      <trkpt lat="50.806724019348621" lon="4.71365662291646">
        <ele>66.760000000000005</ele>
        <time>2021-07-03T10:20:58Z</time>
      </trkpt>
      <trkpt lat="50.806752601638436" lon="4.713642876595259">
        <ele>66.75</ele>
        <time>2021-07-03T10:20:59Z</time>
      </trkpt>
      <trkpt lat="50.806837342679501" lon="4.713607840240002">
        <ele>64.109999999999999</ele>
        <time>2021-07-03T10:21:04Z</time>
      </trkpt>
      <trkpt lat="50.806940775364637" lon="4.713561739772558">
        <ele>66.340000000000003</ele>
        <time>2021-07-03T10:21:09Z</time>
      </trkpt>
      <trkpt lat="50.807121908292174" lon="4.713492505252361">
        <ele>66.319999999999993</ele>
        <time>2021-07-03T10:21:21Z</time>
      </trkpt>
      <trkpt lat="50.807231208309531" lon="4.713452439755201">
        <ele>66.310000000000002</ele>
        <time>2021-07-03T10:21:27Z</time>
      </trkpt>
      <trkpt lat="50.80750429071486" lon="4.713383875787258">
        <ele>66.280000000000001</ele>
        <time>2021-07-03T10:21:39Z</time>
      </trkpt>
      <trkpt lat="50.807558270171285" lon="4.713372644037008">
        <ele>66.269999999999996</ele>
        <time>2021-07-03T10:21:43Z</time>
      </trkpt>
      <trkpt lat="50.807570088654757" lon="4.71336686052382">
        <ele>66.269999999999996</ele>
        <time>2021-07-03T10:21:44Z</time>
      </trkpt>
      <trkpt lat="50.807771841064095" lon="4.713284717872739">
        <ele>66.989999999999995</ele>
        <time>2021-07-03T10:21:59Z</time>
      </trkpt>
      <trkpt lat="50.807815259322524" lon="4.713270384818316">
        <ele>66.980000000000004</ele>
        <time>2021-07-03T10:22:02Z</time>
      </trkpt>
      <trkpt lat="50.8079494535923" lon="4.713196959346533">
        <ele>67.739999999999995</ele>
        <time>2021-07-03T10:22:11Z</time>
      </trkpt>
      <trkpt lat="50.808056825771928" lon="4.713160581886768">
        <ele>68.599999999999994</ele>
        <time>2021-07-03T10:22:25Z</time>
      </trkpt>
      <trkpt lat="50.808185152709484" lon="4.713131496682763">
        <ele>69.400000000000006</ele>
        <time>2021-07-03T10:22:36Z</time>
      </trkpt>
      <trkpt lat="50.808305768296123" lon="4.71305119805038">
        <ele>71.680000000000007</ele>
        <time>2021-07-03T10:22:50Z</time>
      </trkpt>
      <trkpt lat="50.808309121057391" lon="4.713041726499796">
        <ele>71.670000000000002</ele>
        <time>2021-07-03T10:22:51Z</time>
      </trkpt>
      <trkpt lat="50.808506011962891" lon="4.712972827255726">
        <ele>71.620000000000005</ele>
        <time>2021-07-03T10:22:59Z</time>
      </trkpt>
      <trkpt lat="50.808606510981917" lon="4.71293686889112">
        <ele>71.590000000000003</ele>
        <time>2021-07-03T10:23:03Z</time>
      </trkpt>
      <trkpt lat="50.808714050799608" lon="4.712903257459402">
        <ele>71.569999999999993</ele>
        <time>2021-07-03T10:23:07Z</time>
      </trkpt>
      <trkpt lat="50.808764006942511" lon="4.712891271337867">
        <ele>71.560000000000002</ele>
        <time>2021-07-03T10:23:09Z</time>
      </trkpt>
      <trkpt lat="50.808785129338503" lon="4.712881045415998">
        <ele>71.549999999999997</ele>
        <time>2021-07-03T10:23:10Z</time>
      </trkpt>
      <trkpt lat="50.808864841237664" lon="4.712877776473761">
        <ele>72.469999999999999</ele>
        <time>2021-07-03T10:23:18Z</time>
      </trkpt>
      <trkpt lat="50.808883029967546" lon="4.712859001010656">
        <ele>72.459999999999994</ele>
        <time>2021-07-03T10:23:20Z</time>
      </trkpt>
      <trkpt lat="50.809078328311443" lon="4.712807452306151">
        <ele>74.030000000000001</ele>
        <time>2021-07-03T10:23:35Z</time>
      </trkpt>
      <trkpt lat="50.80932199023664" lon="4.712667725980282">
        <ele>74.700000000000003</ele>
        <time>2021-07-03T10:23:47Z</time>
      </trkpt>
      <trkpt lat="50.809675455093384" lon="4.712547948583961">
        <ele>74.609999999999999</ele>
        <time>2021-07-03T10:23:55Z</time>
      </trkpt>
      <trkpt lat="50.80974418669939" lon="4.712516516447067">
        <ele>74.579999999999998</ele>
        <time>2021-07-03T10:23:57Z</time>
      </trkpt>
      <trkpt lat="50.809781737625599" lon="4.712498998269439">
        <ele>74.569999999999993</ele>
        <time>2021-07-03T10:23:58Z</time>
      </trkpt>
      <trkpt lat="50.810202844440937" lon="4.712217533960939">
        <ele>72.079999999999998</ele>
        <time>2021-07-03T10:24:09Z</time>
      </trkpt>
      <trkpt lat="50.8106485940516" lon="4.711954342201352">
        <ele>71.019999999999996</ele>
        <time>2021-07-03T10:24:21Z</time>
      </trkpt>
      <trkpt lat="50.811079842969775" lon="4.711665250360966">
        <ele>69.930000000000007</ele>
        <time>2021-07-03T10:24:34Z</time>
      </trkpt>
      <trkpt lat="50.811559371650219" lon="4.711400885134935">
        <ele>69.019999999999996</ele>
        <time>2021-07-03T10:24:46Z</time>
      </trkpt>
      <trkpt lat="50.811904957517982" lon="4.711266690865159">
        <ele>68.890000000000001</ele>
        <time>2021-07-03T10:24:58Z</time>
      </trkpt>
      <trkpt lat="50.812300750985742" lon="4.711140878498554">
        <ele>67.959999999999994</ele>
        <time>2021-07-03T10:25:10Z</time>
      </trkpt>
      <trkpt lat="50.812647510319948" lon="4.710965780541301">
        <ele>67.829999999999998</ele>
        <time>2021-07-03T10:25:22Z</time>
      </trkpt>
      <trkpt lat="50.812730910256505" lon="4.71091833896935">
        <ele>67.769999999999996</ele>
        <time>2021-07-03T10:25:28Z</time>
      </trkpt>
      <trkpt lat="50.812812214717269" lon="4.710827646777034">
        <ele>67.700000000000003</ele>
        <time>2021-07-03T10:25:34Z</time>
      </trkpt>
      <trkpt lat="50.812843311578035" lon="4.710799064487219">
        <ele>67.680000000000007</ele>
        <time>2021-07-03T10:25:36Z</time>
      </trkpt>
      <trkpt lat="50.812938781455159" lon="4.710710383951664">
        <ele>67.599999999999994</ele>
        <time>2021-07-03T10:25:46Z</time>
      </trkpt>
      <trkpt lat="50.813014972954988" lon="4.710610471665859">
        <ele>67.510000000000005</ele>
        <time>2021-07-03T10:25:56Z</time>
      </trkpt>
      <trkpt lat="50.813220329582691" lon="4.710473930463195">
        <ele>67.390000000000001</ele>
        <time>2021-07-03T10:26:09Z</time>
      </trkpt>
      <trkpt lat="50.813441863283515" lon="4.710222724825144">
        <ele>67.280000000000001</ele>
        <time>2021-07-03T10:26:23Z</time>
      </trkpt>
      <trkpt lat="50.813506990671158" lon="4.710173942148686">
        <ele>67.269999999999996</ele>
        <time>2021-07-03T10:26:26Z</time>
      </trkpt>
      <trkpt lat="50.813570776954293" lon="4.710072437301278">
        <ele>69.819999999999993</ele>
        <time>2021-07-03T10:26:35Z</time>
      </trkpt>
      <trkpt lat="50.813689213246107" lon="4.709956264123321">
        <ele>69.769999999999996</ele>
        <time>2021-07-03T10:26:47Z</time>
      </trkpt>
      <trkpt lat="50.814059022814035" lon="4.709770269691944">
        <ele>69.719999999999999</ele>
        <time>2021-07-03T10:27:05Z</time>
      </trkpt>
      <trkpt lat="50.814131442457438" lon="4.709648648276925">
        <ele>69.709999999999994</ele>
        <time>2021-07-03T10:27:14Z</time>
      </trkpt>
      <trkpt lat="50.814262451604009" lon="4.709442956373096">
        <ele>69.620000000000005</ele>
        <time>2021-07-03T10:27:31Z</time>
      </trkpt>
      <trkpt lat="50.814366638660431" lon="4.709247071295977">
        <ele>69.590000000000003</ele>
        <time>2021-07-03T10:27:44Z</time>
      </trkpt>
      <trkpt lat="50.814531510695815" lon="4.708990417420864">
        <ele>69.489999999999995</ele>
        <time>2021-07-03T10:28:03Z</time>
      </trkpt>
      <trkpt lat="50.814654976129532" lon="4.708885978907347">
        <ele>69.390000000000001</ele>
        <time>2021-07-03T10:28:14Z</time>
      </trkpt>
      <trkpt lat="50.814799061045051" lon="4.708614824339747">
        <ele>69.25</ele>
        <time>2021-07-03T10:28:27Z</time>
      </trkpt>
      <trkpt lat="50.81484348513186" lon="4.708487167954445">
        <ele>69.189999999999998</ele>
        <time>2021-07-03T10:28:33Z</time>
      </trkpt>
      <trkpt lat="50.814836528152227" lon="4.708469230681658">
        <ele>69.189999999999998</ele>
        <time>2021-07-03T10:28:34Z</time>
      </trkpt>
      <trkpt lat="50.814834097400308" lon="4.708432015031576">
        <ele>69.140000000000001</ele>
        <time>2021-07-03T10:28:36Z</time>
      </trkpt>
      <trkpt lat="50.814845161512494" lon="4.708145186305046">
        <ele>69.040000000000006</ele>
        <time>2021-07-03T10:28:47Z</time>
      </trkpt>
      <trkpt lat="50.814848178997636" lon="4.708111239597201">
        <ele>68.989999999999995</ele>
        <time>2021-07-03T10:28:48Z</time>
      </trkpt>
      <trkpt lat="50.814879108220339" lon="4.707924323156476">
        <ele>68.870000000000005</ele>
        <time>2021-07-03T10:28:57Z</time>
      </trkpt>
      <trkpt lat="50.814939122647047" lon="4.707653755322099">
        <ele>69.670000000000002</ele>
        <time>2021-07-03T10:29:11Z</time>
      </trkpt>
      <trkpt lat="50.814934764057398" lon="4.707522746175528">
        <ele>69.560000000000002</ele>
        <time>2021-07-03T10:29:17Z</time>
      </trkpt>
      <trkpt lat="50.814920598641038" lon="4.707462564110756">
        <ele>69.5</ele>
        <time>2021-07-03T10:29:20Z</time>
      </trkpt>
      <trkpt lat="50.814826302230358" lon="4.707300625741482">
        <ele>69.400000000000006</ele>
        <time>2021-07-03T10:29:27Z</time>
      </trkpt>
      <trkpt lat="50.814753714948893" lon="4.707113960757852">
        <ele>69.299999999999997</ele>
        <time>2021-07-03T10:29:33Z</time>
      </trkpt>
      <trkpt lat="50.814711973071098" lon="4.706871556118131">
        <ele>69.090000000000003</ele>
        <time>2021-07-03T10:29:44Z</time>
      </trkpt>
      <trkpt lat="50.81470962613821" lon="4.706855462864041">
        <ele>69.060000000000002</ele>
        <time>2021-07-03T10:29:45Z</time>
      </trkpt>
      <trkpt lat="50.814690431579947" lon="4.706808691844344">
        <ele>69.769999999999996</ele>
        <time>2021-07-03T10:29:51Z</time>
      </trkpt>
      <trkpt lat="50.814543748274446" lon="4.706583051010966">
        <ele>69.480000000000004</ele>
        <time>2021-07-03T10:30:07Z</time>
      </trkpt>
      <trkpt lat="50.814466048032045" lon="4.706254731863737">
        <ele>69.140000000000001</ele>
        <time>2021-07-03T10:30:22Z</time>
      </trkpt>
      <trkpt lat="50.814366890117526" lon="4.705985253676772">
        <ele>69.670000000000002</ele>
        <time>2021-07-03T10:30:36Z</time>
      </trkpt>
      <trkpt lat="50.814292626455426" lon="4.705820297822356">
        <ele>69.540000000000006</ele>
        <time>2021-07-03T10:30:42Z</time>
      </trkpt>
      <trkpt lat="50.814144518226385" lon="4.705635644495487">
        <ele>69.25</ele>
        <time>2021-07-03T10:30:56Z</time>
      </trkpt>
      <trkpt lat="50.814130185171962" lon="4.70559767447412">
        <ele>70.010000000000005</ele>
        <time>2021-07-03T10:30:59Z</time>
      </trkpt>
      <trkpt lat="50.814093137159944" lon="4.705462725833058">
        <ele>69.890000000000001</ele>
        <time>2021-07-03T10:31:04Z</time>
      </trkpt>
      <trkpt lat="50.814028345048428" lon="4.705112110823393">
        <ele>69.680000000000007</ele>
        <time>2021-07-03T10:31:14Z</time>
      </trkpt>
      <trkpt lat="50.814006384462118" lon="4.705004319548607">
        <ele>69.620000000000005</ele>
        <time>2021-07-03T10:31:17Z</time>
      </trkpt>
      <trkpt lat="50.813979310914874" lon="4.704726208001375">
        <ele>69.340000000000003</ele>
        <time>2021-07-03T10:31:28Z</time>
      </trkpt>
      <trkpt lat="50.814033960923553" lon="4.704610286280513">
        <ele>66.829999999999998</ele>
        <time>2021-07-03T10:31:36Z</time>
      </trkpt>
      <trkpt lat="50.814132615923882" lon="4.70442152582109">
        <ele>64.939999999999998</ele>
        <time>2021-07-03T10:31:50Z</time>
      </trkpt>
      <trkpt lat="50.814207633957267" lon="4.70433896407485">
        <ele>62.770000000000003</ele>
        <time>2021-07-03T10:31:59Z</time>
      </trkpt>
      <trkpt lat="50.814398741349578" lon="4.704240644350648">
        <ele>62.729999999999997</ele>
        <time>2021-07-03T10:32:11Z</time>
      </trkpt>
      <trkpt lat="50.814679870381951" lon="4.704147605225444">
        <ele>61.590000000000003</ele>
        <time>2021-07-03T10:32:28Z</time>
      </trkpt>
      <trkpt lat="50.814711637794971" lon="4.704163698479533">
        <ele>61.509999999999998</ele>
        <time>2021-07-03T10:32:33Z</time>
      </trkpt>
      <trkpt lat="50.814748015254736" lon="4.704158920794725">
        <ele>61.469999999999999</ele>
        <time>2021-07-03T10:32:36Z</time>
      </trkpt>
      <trkpt lat="50.814781710505486" lon="4.704137882217765">
        <ele>61.43</ele>
        <time>2021-07-03T10:32:38Z</time>
      </trkpt>
      <trkpt lat="50.814862428233027" lon="4.70410929992795">
        <ele>61.399999999999999</ele>
        <time>2021-07-03T10:32:41Z</time>
      </trkpt>
      <trkpt lat="50.814913557842374" lon="4.704093458130956">
        <ele>60.43</ele>
        <time>2021-07-03T10:32:44Z</time>
      </trkpt>
      <trkpt lat="50.814976505935192" lon="4.704083064571023">
        <ele>60.369999999999997</ele>
        <time>2021-07-03T10:32:47Z</time>
      </trkpt>
      <trkpt lat="50.815211785957217" lon="4.704022714868188">
        <ele>59.299999999999997</ele>
        <time>2021-07-03T10:33:02Z</time>
      </trkpt>
      <trkpt lat="50.815330976620317" lon="4.7040203679353">
        <ele>59.140000000000001</ele>
        <time>2021-07-03T10:33:17Z</time>
      </trkpt>
      <trkpt lat="50.815346818417311" lon="4.704007208347321">
        <ele>59.090000000000003</ele>
        <time>2021-07-03T10:33:19Z</time>
      </trkpt>
      <trkpt lat="50.815389566123486" lon="4.703966975212097">
        <ele>58.149999999999999</ele>
        <time>2021-07-03T10:33:23Z</time>
      </trkpt>
      <trkpt lat="50.815544128417969" lon="4.703932190313935">
        <ele>58.079999999999998</ele>
        <time>2021-07-03T10:33:29Z</time>
      </trkpt>
      <trkpt lat="50.815669437870383" lon="4.7040238045156">
        <ele>58.020000000000003</ele>
        <time>2021-07-03T10:33:38Z</time>
      </trkpt>
      <trkpt lat="50.815778486430645" lon="4.704022966325283">
        <ele>57.780000000000001</ele>
        <time>2021-07-03T10:34:02Z</time>
      </trkpt>
      <trkpt lat="50.815779995173216" lon="4.704020535573363">
        <ele>57.759999999999998</ele>
        <time>2021-07-03T10:34:03Z</time>
      </trkpt>
      <trkpt lat="50.815815785899758" lon="4.704013243317604">
        <ele>57.719999999999999</ele>
        <time>2021-07-03T10:34:08Z</time>
      </trkpt>
      <trkpt lat="50.815962636843324" lon="4.704092955216765">
        <ele>57.590000000000003</ele>
        <time>2021-07-03T10:34:25Z</time>
      </trkpt>
      <trkpt lat="50.816044695675373" lon="4.704116256907582">
        <ele>57.5</ele>
        <time>2021-07-03T10:34:36Z</time>
      </trkpt>
      <trkpt lat="50.816057519987226" lon="4.704114915803075">
        <ele>59.740000000000002</ele>
        <time>2021-07-03T10:34:38Z</time>
      </trkpt>
      <trkpt lat="50.816137231886387" lon="4.7041205316782">
        <ele>59.640000000000001</ele>
        <time>2021-07-03T10:34:45Z</time>
      </trkpt>
      <trkpt lat="50.816247286275029" lon="4.704092452302575">
        <ele>59.43</ele>
        <time>2021-07-03T10:35:00Z</time>
      </trkpt>
      <trkpt lat="50.816274611279368" lon="4.70402330160141">
        <ele>59.359999999999999</ele>
        <time>2021-07-03T10:35:05Z</time>
      </trkpt>
      <trkpt lat="50.816310988739133" lon="4.703925903886557">
        <ele>56.969999999999999</ele>
        <time>2021-07-03T10:35:12Z</time>
      </trkpt>
      <trkpt lat="50.816438058391213" lon="4.703727588057518">
        <ele>56.899999999999999</ele>
        <time>2021-07-03T10:35:27Z</time>
      </trkpt>
      <trkpt lat="50.816523218527436" lon="4.703700682148337">
        <ele>56.880000000000003</ele>
        <time>2021-07-03T10:35:33Z</time>
      </trkpt>
      <trkpt lat="50.816730670630932" lon="4.703674865886569">
        <ele>56.740000000000002</ele>
        <time>2021-07-03T10:35:47Z</time>
      </trkpt>
      <trkpt lat="50.816825469955802" lon="4.70365634188056">
        <ele>56.68</ele>
        <time>2021-07-03T10:35:55Z</time>
      </trkpt>
      <trkpt lat="50.816855896264315" lon="4.703643769025803">
        <ele>56.659999999999997</ele>
        <time>2021-07-03T10:35:57Z</time>
      </trkpt>
      <trkpt lat="50.817035855725408" lon="4.703565565869212">
        <ele>56.560000000000002</ele>
        <time>2021-07-03T10:36:11Z</time>
      </trkpt>
      <trkpt lat="50.817174492403865" lon="4.703533798456192">
        <ele>58.759999999999998</ele>
        <time>2021-07-03T10:36:15Z</time>
      </trkpt>
      <trkpt lat="50.817423770204186" lon="4.703502617776394">
        <ele>58.689999999999998</ele>
        <time>2021-07-03T10:36:27Z</time>
      </trkpt>
      <trkpt lat="50.817666091024876" lon="4.703358197584748">
        <ele>58.530000000000001</ele>
        <time>2021-07-03T10:36:39Z</time>
      </trkpt>
      <trkpt lat="50.817934814840555" lon="4.703293321654201">
        <ele>58.409999999999997</ele>
        <time>2021-07-03T10:36:47Z</time>
      </trkpt>
      <trkpt lat="50.818142099305987" lon="4.703254764899612">
        <ele>58.350000000000001</ele>
        <time>2021-07-03T10:36:54Z</time>
      </trkpt>
      <trkpt lat="50.818314012140036" lon="4.703145381063223">
        <ele>58.240000000000002</ele>
        <time>2021-07-03T10:36:59Z</time>
      </trkpt>
      <trkpt lat="50.818644342944026" lon="4.703150494024158">
        <ele>58.079999999999998</ele>
        <time>2021-07-03T10:37:10Z</time>
      </trkpt>
      <trkpt lat="50.818672254681587" lon="4.703158792108297">
        <ele>58.060000000000002</ele>
        <time>2021-07-03T10:37:11Z</time>
      </trkpt>
      <trkpt lat="50.818743081763387" lon="4.70312568359077">
        <ele>55.600000000000001</ele>
        <time>2021-07-03T10:37:13Z</time>
      </trkpt>
      <trkpt lat="50.819024462252855" lon="4.703047145158052">
        <ele>55.439999999999998</ele>
        <time>2021-07-03T10:37:25Z</time>
      </trkpt>
      <trkpt lat="50.819251276552677" lon="4.702784456312656">
        <ele>55.340000000000003</ele>
        <time>2021-07-03T10:37:36Z</time>
      </trkpt>
      <trkpt lat="50.819357391446829" lon="4.702655961737037">
        <ele>55.25</ele>
        <time>2021-07-03T10:37:42Z</time>
      </trkpt>
      <trkpt lat="50.819679005071521" lon="4.702458903193474">
        <ele>54.259999999999998</ele>
        <time>2021-07-03T10:37:56Z</time>
      </trkpt>
      <trkpt lat="50.819774223491549" lon="4.702336778864265">
        <ele>54.159999999999997</ele>
        <time>2021-07-03T10:38:02Z</time>
      </trkpt>
      <trkpt lat="50.819787550717592" lon="4.702261677011848">
        <ele>54.090000000000003</ele>
        <time>2021-07-03T10:38:05Z</time>
      </trkpt>
      <trkpt lat="50.819784952327609" lon="4.702189341187477">
        <ele>54.009999999999998</ele>
        <time>2021-07-03T10:38:11Z</time>
      </trkpt>
      <trkpt lat="50.819762488827109" lon="4.702141229063273">
        <ele>53.960000000000001</ele>
        <time>2021-07-03T10:38:14Z</time>
      </trkpt>
      <trkpt lat="50.819703564047813" lon="4.702063612639904">
        <ele>53.799999999999997</ele>
        <time>2021-07-03T10:38:23Z</time>
      </trkpt>
      <trkpt lat="50.819693841040134" lon="4.702053805813193">
        <ele>53.789999999999999</ele>
        <time>2021-07-03T10:38:25Z</time>
      </trkpt>
      <trkpt lat="50.819606333971024" lon="4.701882982626557">
        <ele>53.530000000000001</ele>
        <time>2021-07-03T10:38:41Z</time>
      </trkpt>
      <trkpt lat="50.819606333971024" lon="4.701882982626557">
        <ele>53.509999999999998</ele>
        <time>2021-07-03T10:38:42Z</time>
      </trkpt>
      <trkpt lat="50.819416400045156" lon="4.701294070109725">
        <ele>55.439999999999998</ele>
        <time>2021-07-03T10:39:06Z</time>
      </trkpt>
      <trkpt lat="50.819375496357679" lon="4.701024759560823">
        <ele>55.240000000000002</ele>
        <time>2021-07-03T10:39:16Z</time>
      </trkpt>
      <trkpt lat="50.819353787228465" lon="4.700870113447309">
        <ele>56.640000000000001</ele>
        <time>2021-07-03T10:39:21Z</time>
      </trkpt>
      <trkpt lat="50.819331910461187" lon="4.700751090422273">
        <ele>56.539999999999999</ele>
        <time>2021-07-03T10:39:27Z</time>
      </trkpt>
      <trkpt lat="50.819284049794078" lon="4.700651429593563">
        <ele>56.420000000000002</ele>
        <time>2021-07-03T10:39:32Z</time>
      </trkpt>
      <trkpt lat="50.819049021229148" lon="4.700246835127473">
        <ele>56.030000000000001</ele>
        <time>2021-07-03T10:39:52Z</time>
      </trkpt>
      <trkpt lat="50.818903595209122" lon="4.699788428843021">
        <ele>56.380000000000003</ele>
        <time>2021-07-03T10:40:11Z</time>
      </trkpt>
      <trkpt lat="50.818726066499949" lon="4.699500007554889">
        <ele>56.549999999999997</ele>
        <time>2021-07-03T10:40:32Z</time>
      </trkpt>
      <trkpt lat="50.818655826151371" lon="4.699195744469762">
        <ele>56.25</ele>
        <time>2021-07-03T10:40:42Z</time>
      </trkpt>
      <trkpt lat="50.818601176142693" lon="4.699114440008998">
        <ele>56.130000000000003</ele>
        <time>2021-07-03T10:40:46Z</time>
      </trkpt>
      <trkpt lat="50.818494725972414" lon="4.698945879936218">
        <ele>55.68</ele>
        <time>2021-07-03T10:41:00Z</time>
      </trkpt>
      <trkpt lat="50.818344689905643" lon="4.698642706498504">
        <ele>55.079999999999998</ele>
        <time>2021-07-03T10:41:19Z</time>
      </trkpt>
      <trkpt lat="50.818314263597131" lon="4.69857607036829">
        <ele>54.920000000000002</ele>
        <time>2021-07-03T10:41:24Z</time>
      </trkpt>
      <trkpt lat="50.818307809531689" lon="4.698533490300179">
        <ele>54.859999999999999</ele>
        <time>2021-07-03T10:41:26Z</time>
      </trkpt>
      <trkpt lat="50.818274868652225" lon="4.698418574407697">
        <ele>52.450000000000003</ele>
        <time>2021-07-03T10:41:32Z</time>
      </trkpt>
      <trkpt lat="50.818216362968087" lon="4.698146916925907">
        <ele>52.039999999999999</ele>
        <time>2021-07-03T10:41:43Z</time>
      </trkpt>
      <trkpt lat="50.81821309402585" lon="4.69813090749085">
        <ele>51.960000000000001</ele>
        <time>2021-07-03T10:41:45Z</time>
      </trkpt>
      <trkpt lat="50.818178812041879" lon="4.698083298280835">
        <ele>51</ele>
        <time>2021-07-03T10:41:48Z</time>
      </trkpt>
      <trkpt lat="50.818079905584455" lon="4.697813484817743">
        <ele>49.509999999999998</ele>
        <time>2021-07-03T10:42:05Z</time>
      </trkpt>
      <trkpt lat="50.818079905584455" lon="4.697813484817743">
        <ele>49.479999999999997</ele>
        <time>2021-07-03T10:42:06Z</time>
      </trkpt>
      <trkpt lat="50.817963313311338" lon="4.697466725483537">
        <ele>48.899999999999999</ele>
        <time>2021-07-03T10:42:22Z</time>
      </trkpt>
      <trkpt lat="50.817898353561759" lon="4.697147039696574">
        <ele>47.530000000000001</ele>
        <time>2021-07-03T10:42:35Z</time>
      </trkpt>
      <trkpt lat="50.817866753786802" lon="4.696956183761358">
        <ele>47.079999999999998</ele>
        <time>2021-07-03T10:42:45Z</time>
      </trkpt>
      <trkpt lat="50.81779676489532" lon="4.696762394160032">
        <ele>46.710000000000001</ele>
        <time>2021-07-03T10:42:54Z</time>
      </trkpt>
      <trkpt lat="50.817699618637562" lon="4.696200974285603">
        <ele>45.630000000000003</ele>
        <time>2021-07-03T10:43:18Z</time>
      </trkpt>
      <trkpt lat="50.817662151530385" lon="4.696104163303971">
        <ele>45.390000000000001</ele>
        <time>2021-07-03T10:43:23Z</time>
      </trkpt>
      <trkpt lat="50.817747563123703" lon="4.695838624611497">
        <ele>43.82</ele>
        <time>2021-07-03T10:43:39Z</time>
      </trkpt>
      <trkpt lat="50.817873124033213" lon="4.695755559951067">
        <ele>43.159999999999997</ele>
        <time>2021-07-03T10:43:53Z</time>
      </trkpt>
      <trkpt lat="50.817947052419186" lon="4.695472083985806">
        <ele>42.57</ele>
        <time>2021-07-03T10:44:05Z</time>
      </trkpt>
      <trkpt lat="50.817948812618852" lon="4.695461774244905">
        <ele>42.509999999999998</ele>
        <time>2021-07-03T10:44:06Z</time>
      </trkpt>
      <trkpt lat="50.817953087389469" lon="4.695273349061608">
        <ele>41.979999999999997</ele>
        <time>2021-07-03T10:44:17Z</time>
      </trkpt>
      <trkpt lat="50.817917883396149" lon="4.695099843665958">
        <ele>41.609999999999999</ele>
        <time>2021-07-03T10:44:25Z</time>
      </trkpt>
      <trkpt lat="50.817860551178455" lon="4.694727603346109">
        <ele>41.030000000000001</ele>
        <time>2021-07-03T10:44:39Z</time>
      </trkpt>
      <trkpt lat="50.81782559864223" lon="4.694506321102381">
        <ele>40.560000000000002</ele>
        <time>2021-07-03T10:44:50Z</time>
      </trkpt>
      <trkpt lat="50.817770529538393" lon="4.694316806271672">
        <ele>40.32</ele>
        <time>2021-07-03T10:44:56Z</time>
      </trkpt>
      <trkpt lat="50.817757789045572" lon="4.694259390234947">
        <ele>40.240000000000002</ele>
        <time>2021-07-03T10:44:58Z</time>
      </trkpt>
      <trkpt lat="50.817710179835558" lon="4.694135254248977">
        <ele>39.960000000000001</ele>
        <time>2021-07-03T10:45:05Z</time>
      </trkpt>
      <trkpt lat="50.817720321938396" lon="4.694091668352485">
        <ele>39.840000000000003</ele>
        <time>2021-07-03T10:45:08Z</time>
      </trkpt>
      <trkpt lat="50.817714622244239" lon="4.694050932303071">
        <ele>39.710000000000001</ele>
        <time>2021-07-03T10:45:11Z</time>
      </trkpt>
      <trkpt lat="50.817689811810851" lon="4.693760583177209">
        <ele>39.009999999999998</ele>
        <time>2021-07-03T10:45:28Z</time>
      </trkpt>
      <trkpt lat="50.817612698301673" lon="4.693442741408944">
        <ele>38.560000000000002</ele>
        <time>2021-07-03T10:45:39Z</time>
      </trkpt>
      <trkpt lat="50.817576656118035" lon="4.693311480805278">
        <ele>40.619999999999997</ele>
        <time>2021-07-03T10:45:44Z</time>
      </trkpt>
      <trkpt lat="50.817512702196836" lon="4.692972097545862">
        <ele>40.119999999999997</ele>
        <time>2021-07-03T10:45:57Z</time>
      </trkpt>
      <trkpt lat="50.817478420212865" lon="4.692776883020997">
        <ele>39.689999999999998</ele>
        <time>2021-07-03T10:46:08Z</time>
      </trkpt>
      <trkpt lat="50.817384459078312" lon="4.692387375980616">
        <ele>39.729999999999997</ele>
        <time>2021-07-03T10:46:26Z</time>
      </trkpt>
      <trkpt lat="50.817383704707026" lon="4.692370193079114">
        <ele>39.700000000000003</ele>
        <time>2021-07-03T10:46:27Z</time>
      </trkpt>
      <trkpt lat="50.817382531240582" lon="4.692324427887797">
        <ele>39.579999999999998</ele>
        <time>2021-07-03T10:46:30Z</time>
      </trkpt>
      <trkpt lat="50.817383537068963" lon="4.692294169217348">
        <ele>39.5</ele>
        <time>2021-07-03T10:46:32Z</time>
      </trkpt>
      <trkpt lat="50.817382195964456" lon="4.692274052649736">
        <ele>39.460000000000001</ele>
        <time>2021-07-03T10:46:33Z</time>
      </trkpt>
      <trkpt lat="50.817378843203187" lon="4.692253097891808">
        <ele>39.420000000000002</ele>
        <time>2021-07-03T10:46:34Z</time>
      </trkpt>
      <trkpt lat="50.817371299490333" lon="4.692232310771942">
        <ele>39.380000000000003</ele>
        <time>2021-07-03T10:46:35Z</time>
      </trkpt>
      <trkpt lat="50.817363169044256" lon="4.692196603864431">
        <ele>39.340000000000003</ele>
        <time>2021-07-03T10:46:36Z</time>
      </trkpt>
      <trkpt lat="50.81728957593441" lon="4.691915055736899">
        <ele>39</ele>
        <time>2021-07-03T10:46:45Z</time>
      </trkpt>
      <trkpt lat="50.817288653925061" lon="4.691892927512527">
        <ele>38.960000000000001</ele>
        <time>2021-07-03T10:46:46Z</time>
      </trkpt>
      <trkpt lat="50.817281864583492" lon="4.691867446526885">
        <ele>38.920000000000002</ele>
        <time>2021-07-03T10:46:47Z</time>
      </trkpt>
      <trkpt lat="50.817260658368468" lon="4.691729983314872">
        <ele>38.659999999999997</ele>
        <time>2021-07-03T10:46:54Z</time>
      </trkpt>
      <trkpt lat="50.817259820178151" lon="4.691582880914211">
        <ele>38.350000000000001</ele>
        <time>2021-07-03T10:47:02Z</time>
      </trkpt>
      <trkpt lat="50.817256551235914" lon="4.691557735204697">
        <ele>38.299999999999997</ele>
        <time>2021-07-03T10:47:03Z</time>
      </trkpt>
      <trkpt lat="50.817217323929071" lon="4.69136830419302">
        <ele>37.740000000000002</ele>
        <time>2021-07-03T10:47:17Z</time>
      </trkpt>
      <trkpt lat="50.817204331979156" lon="4.691314911469817">
        <ele>37.619999999999997</ele>
        <time>2021-07-03T10:47:20Z</time>
      </trkpt>
      <trkpt lat="50.817111795768142" lon="4.691028166562319">
        <ele>37.240000000000002</ele>
        <time>2021-07-03T10:47:29Z</time>
      </trkpt>
      <trkpt lat="50.81710341386497" lon="4.691005954518914">
        <ele>37.189999999999998</ele>
        <time>2021-07-03T10:47:30Z</time>
      </trkpt>
      <trkpt lat="50.817086063325405" lon="4.690913334488869">
        <ele>37.060000000000002</ele>
        <time>2021-07-03T10:47:33Z</time>
      </trkpt>
      <trkpt lat="50.817079273983836" lon="4.690882489085197">
        <ele>37.020000000000003</ele>
        <time>2021-07-03T10:47:34Z</time>
      </trkpt>
      <trkpt lat="50.817049015313387" lon="4.690585769712925">
        <ele>36.409999999999997</ele>
        <time>2021-07-03T10:47:48Z</time>
      </trkpt>
      <trkpt lat="50.816993275657296" lon="4.690390387549996">
        <ele>36.020000000000003</ele>
        <time>2021-07-03T10:47:57Z</time>
      </trkpt>
      <trkpt lat="50.816990425810218" lon="4.690363565459848">
        <ele>35.93</ele>
        <time>2021-07-03T10:47:59Z</time>
      </trkpt>
      <trkpt lat="50.816985815763474" lon="4.690341353416443">
        <ele>35.890000000000001</ele>
        <time>2021-07-03T10:48:00Z</time>
      </trkpt>
      <trkpt lat="50.816978104412556" lon="4.690325930714607">
        <ele>35.840000000000003</ele>
        <time>2021-07-03T10:48:01Z</time>
      </trkpt>
      <trkpt lat="50.816972404718399" lon="4.690308747813106">
        <ele>35.789999999999999</ele>
        <time>2021-07-03T10:48:02Z</time>
      </trkpt>
      <trkpt lat="50.816971901804209" lon="4.690285613760352">
        <ele>35.75</ele>
        <time>2021-07-03T10:48:03Z</time>
      </trkpt>
      <trkpt lat="50.81691968254745" lon="4.690043879672885">
        <ele>35.200000000000003</ele>
        <time>2021-07-03T10:48:15Z</time>
      </trkpt>
      <trkpt lat="50.816918676719069" lon="4.690025942400098">
        <ele>35.149999999999999</ele>
        <time>2021-07-03T10:48:16Z</time>
      </trkpt>
      <trkpt lat="50.816915240138769" lon="4.690003730356693">
        <ele>35.100000000000001</ele>
        <time>2021-07-03T10:48:17Z</time>
      </trkpt>
      <trkpt lat="50.816907277330756" lon="4.689976992085576">
        <ele>35.049999999999997</ele>
        <time>2021-07-03T10:48:18Z</time>
      </trkpt>
      <trkpt lat="50.816881209611893" lon="4.689877666532993">
        <ele>34.960000000000001</ele>
        <time>2021-07-03T10:48:20Z</time>
      </trkpt>
      <trkpt lat="50.816785236820579" lon="4.689603243023157">
        <ele>34.359999999999999</ele>
        <time>2021-07-03T10:48:33Z</time>
      </trkpt>
      <trkpt lat="50.816787080839276" lon="4.689587652683258">
        <ele>33.960000000000001</ele>
        <time>2021-07-03T10:48:42Z</time>
      </trkpt>
      <trkpt lat="50.816799150779843" lon="4.68959016725421">
        <ele>33.920000000000002</ele>
        <time>2021-07-03T10:48:43Z</time>
      </trkpt>
      <trkpt lat="50.816839635372162" lon="4.689603075385094">
        <ele>28.460000000000001</ele>
        <time>2021-07-03T10:48:53Z</time>
      </trkpt>
      <trkpt lat="50.816843574866652" lon="4.689606847241521">
        <ele>33.020000000000003</ele>
        <time>2021-07-03T10:48:54Z</time>
      </trkpt>
      <trkpt lat="50.816919011995196" lon="4.68957994133234">
        <ele>32.200000000000003</ele>
        <time>2021-07-03T10:49:19Z</time>
      </trkpt>
      <trkpt lat="50.816908199340105" lon="4.689492518082261">
        <ele>31.719999999999999</ele>
        <time>2021-07-03T10:49:38Z</time>
      </trkpt>
      <trkpt lat="50.81685128621757" lon="4.689159253612161">
        <ele>31.390000000000001</ele>
        <time>2021-07-03T10:49:54Z</time>
      </trkpt>
      <trkpt lat="50.816830499097705" lon="4.689016845077276">
        <ele>28.719999999999999</ele>
        <time>2021-07-03T10:50:03Z</time>
      </trkpt>
      <trkpt lat="50.816817423328757" lon="4.688959512859583">
        <ele>28.66</ele>
        <time>2021-07-03T10:50:07Z</time>
      </trkpt>
      <trkpt lat="50.816804682835937" lon="4.688908299431205">
        <ele>28.600000000000001</ele>
        <time>2021-07-03T10:50:11Z</time>
      </trkpt>
      <trkpt lat="50.816802335903049" lon="4.688891116529703">
        <ele>28.579999999999998</ele>
        <time>2021-07-03T10:50:12Z</time>
      </trkpt>
      <trkpt lat="50.816748356446624" lon="4.688710737973452">
        <ele>28.41</ele>
        <time>2021-07-03T10:50:24Z</time>
      </trkpt>
      <trkpt lat="50.816693203523755" lon="4.688436398282647">
        <ele>28.18</ele>
        <time>2021-07-03T10:50:41Z</time>
      </trkpt>
      <trkpt lat="50.816613240167499" lon="4.688132638111711">
        <ele>27.879999999999999</ele>
        <time>2021-07-03T10:51:02Z</time>
      </trkpt>
      <trkpt lat="50.816539898514748" lon="4.687775233760476">
        <ele>27.559999999999999</ele>
        <time>2021-07-03T10:51:22Z</time>
      </trkpt>
      <trkpt lat="50.816476866602898" lon="4.68742067925632">
        <ele>27.170000000000002</ele>
        <time>2021-07-03T10:51:42Z</time>
      </trkpt>
      <trkpt lat="50.816393885761499" lon="4.68712898902595">
        <ele>26.73</ele>
        <time>2021-07-03T10:52:02Z</time>
      </trkpt>
      <trkpt lat="50.816320963203907" lon="4.686780972406268">
        <ele>26.32</ele>
        <time>2021-07-03T10:52:19Z</time>
      </trkpt>
      <trkpt lat="50.8162194583565" lon="4.686170853674412">
        <ele>25.809999999999999</ele>
        <time>2021-07-03T10:52:39Z</time>
      </trkpt>
      <trkpt lat="50.816140919923782" lon="4.685946302488446">
        <ele>24.469999999999999</ele>
        <time>2021-07-03T10:52:59Z</time>
      </trkpt>
      <trkpt lat="50.816066907718778" lon="4.685605829581618">
        <ele>24.07</ele>
        <time>2021-07-03T10:53:13Z</time>
      </trkpt>
      <trkpt lat="50.816012090072036" lon="4.685377757996321">
        <ele>23.510000000000002</ele>
        <time>2021-07-03T10:53:32Z</time>
      </trkpt>
      <trkpt lat="50.816008150577545" lon="4.685217160731554">
        <ele>21.949999999999999</ele>
        <time>2021-07-03T10:53:48Z</time>
      </trkpt>
      <trkpt lat="50.815963475033641" lon="4.685058323666453">
        <ele>24.050000000000001</ele>
        <time>2021-07-03T10:53:56Z</time>
      </trkpt>
      <trkpt lat="50.815882254391909" lon="4.684829246252775">
        <ele>23.489999999999998</ele>
        <time>2021-07-03T10:54:14Z</time>
      </trkpt>
      <trkpt lat="50.815645465627313" lon="4.683718392625451">
        <ele>23.050000000000001</ele>
        <time>2021-07-03T10:54:31Z</time>
      </trkpt>
      <trkpt lat="50.815534153953195" lon="4.683174826204777">
        <ele>22.91</ele>
        <time>2021-07-03T10:54:43Z</time>
      </trkpt>
      <trkpt lat="50.815452765673399" lon="4.682998638600111">
        <ele>22.82</ele>
        <time>2021-07-03T10:54:58Z</time>
      </trkpt>
      <trkpt lat="50.815432481467724" lon="4.682962344959378">
        <ele>22.809999999999999</ele>
        <time>2021-07-03T10:55:00Z</time>
      </trkpt>
      <trkpt lat="50.815413957461715" lon="4.682949688285589">
        <ele>22.800000000000001</ele>
        <time>2021-07-03T10:55:01Z</time>
      </trkpt>
      <trkpt lat="50.815406665205956" lon="4.682932170107961">
        <ele>22.800000000000001</ele>
        <time>2021-07-03T10:55:02Z</time>
      </trkpt>
      <trkpt lat="50.815400881692767" lon="4.682891350239515">
        <ele>22.800000000000001</ele>
        <time>2021-07-03T10:55:03Z</time>
      </trkpt>
      <trkpt lat="50.815386967733502" lon="4.682847345247865">
        <ele>22.789999999999999</ele>
        <time>2021-07-03T10:55:04Z</time>
      </trkpt>
      <trkpt lat="50.81536777317524" lon="4.682809794321656">
        <ele>22.789999999999999</ele>
        <time>2021-07-03T10:55:05Z</time>
      </trkpt>
      <trkpt lat="50.815362157300115" lon="4.682751120999456">
        <ele>22.800000000000001</ele>
        <time>2021-07-03T10:55:06Z</time>
      </trkpt>
      <trkpt lat="50.81535218283534" lon="4.682698817923665">
        <ele>22.800000000000001</ele>
        <time>2021-07-03T10:55:07Z</time>
      </trkpt>
      <trkpt lat="50.815345561131835" lon="4.682637546211481">
        <ele>22.789999999999999</ele>
        <time>2021-07-03T10:55:08Z</time>
      </trkpt>
      <trkpt lat="50.815332653000951" lon="4.682596307247877">
        <ele>22.780000000000001</ele>
        <time>2021-07-03T10:55:09Z</time>
      </trkpt>
      <trkpt lat="50.815314715728164" lon="4.682552553713322">
        <ele>22.789999999999999</ele>
        <time>2021-07-03T10:55:10Z</time>
      </trkpt>
      <trkpt lat="50.815292922779918" lon="4.682483151555061">
        <ele>22.789999999999999</ele>
        <time>2021-07-03T10:55:11Z</time>
      </trkpt>
      <trkpt lat="50.815274985507131" lon="4.682411821559072">
        <ele>22.780000000000001</ele>
        <time>2021-07-03T10:55:12Z</time>
      </trkpt>
      <trkpt lat="50.815264089033008" lon="4.682334791868925">
        <ele>22.780000000000001</ele>
        <time>2021-07-03T10:55:13Z</time>
      </trkpt>
      <trkpt lat="50.815253108739853" lon="4.682253487408161">
        <ele>22.77</ele>
        <time>2021-07-03T10:55:14Z</time>
      </trkpt>
      <trkpt lat="50.815144227817655" lon="4.681536247953773">
        <ele>22.809999999999999</ele>
        <time>2021-07-03T10:55:24Z</time>
      </trkpt>
      <trkpt lat="50.815129475668073" lon="4.681478496640921">
        <ele>22.809999999999999</ele>
        <time>2021-07-03T10:55:25Z</time>
      </trkpt>
      <trkpt lat="50.815123608335853" lon="4.681435162201524">
        <ele>22.809999999999999</ele>
        <time>2021-07-03T10:55:26Z</time>
      </trkpt>
      <trkpt lat="50.815113130956888" lon="4.681375985965133">
        <ele>22.82</ele>
        <time>2021-07-03T10:55:27Z</time>
      </trkpt>
      <trkpt lat="50.81510148011148" lon="4.681313205510378">
        <ele>22.84</ele>
        <time>2021-07-03T10:55:28Z</time>
      </trkpt>
      <trkpt lat="50.815082620829344" lon="4.681245563551784">
        <ele>22.84</ele>
        <time>2021-07-03T10:55:29Z</time>
      </trkpt>
      <trkpt lat="50.815023612231016" lon="4.681022269651294">
        <ele>22.859999999999999</ele>
        <time>2021-07-03T10:55:32Z</time>
      </trkpt>
      <trkpt lat="50.815002908930182" lon="4.680907772853971">
        <ele>22.879999999999999</ele>
        <time>2021-07-03T10:55:33Z</time>
      </trkpt>
      <trkpt lat="50.81499008461833" lon="4.680825043469667">
        <ele>22.879999999999999</ele>
        <time>2021-07-03T10:55:34Z</time>
      </trkpt>
      <trkpt lat="50.814890004694462" lon="4.680204195901752">
        <ele>22.890000000000001</ele>
        <time>2021-07-03T10:55:43Z</time>
      </trkpt>
      <trkpt lat="50.814783805981278" lon="4.679632717743516">
        <ele>22.899999999999999</ele>
        <time>2021-07-03T10:55:49Z</time>
      </trkpt>
      <trkpt lat="50.814771903678775" lon="4.679526099935174">
        <ele>22.91</ele>
        <time>2021-07-03T10:55:50Z</time>
      </trkpt>
      <trkpt lat="50.814754636958241" lon="4.679420990869403">
        <ele>22.91</ele>
        <time>2021-07-03T10:55:51Z</time>
      </trkpt>
      <trkpt lat="50.81473845988512" lon="4.679320408031344">
        <ele>22.920000000000002</ele>
        <time>2021-07-03T10:55:52Z</time>
      </trkpt>
      <trkpt lat="50.814721612259746" lon="4.679226949810982">
        <ele>22.93</ele>
        <time>2021-07-03T10:55:53Z</time>
      </trkpt>
      <trkpt lat="50.814708033576608" lon="4.679149501025677">
        <ele>22.93</ele>
        <time>2021-07-03T10:55:54Z</time>
      </trkpt>
      <trkpt lat="50.814546598121524" lon="4.678414911031723">
        <ele>22.989999999999998</ele>
        <time>2021-07-03T10:56:04Z</time>
      </trkpt>
      <trkpt lat="50.814371583983302" lon="4.677645033225417">
        <ele>23.09</ele>
        <time>2021-07-03T10:56:12Z</time>
      </trkpt>
      <trkpt lat="50.814351802691817" lon="4.677573116496205">
        <ele>23.079999999999998</ele>
        <time>2021-07-03T10:56:13Z</time>
      </trkpt>
      <trkpt lat="50.814334200695157" lon="4.677471276372671">
        <ele>23.079999999999998</ele>
        <time>2021-07-03T10:56:14Z</time>
      </trkpt>
      <trkpt lat="50.814319029450417" lon="4.677376812323928">
        <ele>23.100000000000001</ele>
        <time>2021-07-03T10:56:15Z</time>
      </trkpt>
      <trkpt lat="50.81430746242404" lon="4.677292071282864">
        <ele>23.100000000000001</ele>
        <time>2021-07-03T10:56:16Z</time>
      </trkpt>
      <trkpt lat="50.814288686960936" lon="4.677203223109245">
        <ele>23.120000000000001</ele>
        <time>2021-07-03T10:56:17Z</time>
      </trkpt>
      <trkpt lat="50.814259350299835" lon="4.677086966112256">
        <ele>23.129999999999999</ele>
        <time>2021-07-03T10:56:18Z</time>
      </trkpt>
      <trkpt lat="50.814172429963946" lon="4.676607772707939">
        <ele>20.780000000000001</ele>
        <time>2021-07-03T10:56:23Z</time>
      </trkpt>
      <trkpt lat="50.813981657847762" lon="4.675720296800137">
        <ele>20.920000000000002</ele>
        <time>2021-07-03T10:56:34Z</time>
      </trkpt>
      <trkpt lat="50.813911417499185" lon="4.67530757188797">
        <ele>21.079999999999998</ele>
        <time>2021-07-03T10:56:44Z</time>
      </trkpt>
      <trkpt lat="50.813938407227397" lon="4.675075896084309">
        <ele>21.300000000000001</ele>
        <time>2021-07-03T10:56:57Z</time>
      </trkpt>
      <trkpt lat="50.814027674496174" lon="4.674707679077983">
        <ele>21.649999999999999</ele>
        <time>2021-07-03T10:57:17Z</time>
      </trkpt>
      <trkpt lat="50.814085844904184" lon="4.674306688830257">
        <ele>21.960000000000001</ele>
        <time>2021-07-03T10:57:37Z</time>
      </trkpt>
      <trkpt lat="50.81412959843874" lon="4.674162939190865">
        <ele>22.09</ele>
        <time>2021-07-03T10:57:46Z</time>
      </trkpt>
      <trkpt lat="50.814239401370287" lon="4.673783658072352">
        <ele>21.460000000000001</ele>
        <time>2021-07-03T10:58:04Z</time>
      </trkpt>
      <trkpt lat="50.814311904832721" lon="4.67343564145267">
        <ele>21.739999999999998</ele>
        <time>2021-07-03T10:58:24Z</time>
      </trkpt>
      <trkpt lat="50.814408715814352" lon="4.673037584871054">
        <ele>22.010000000000002</ele>
        <time>2021-07-03T10:58:44Z</time>
      </trkpt>
      <trkpt lat="50.814449451863766" lon="4.672859134152532">
        <ele>22.100000000000001</ele>
        <time>2021-07-03T10:58:51Z</time>
      </trkpt>
      <trkpt lat="50.814470825716853" lon="4.672843711450696">
        <ele>22.109999999999999</ele>
        <time>2021-07-03T10:58:52Z</time>
      </trkpt>
      <trkpt lat="50.814645253121853" lon="4.672433752566576">
        <ele>21.5</ele>
        <time>2021-07-03T10:59:11Z</time>
      </trkpt>
      <trkpt lat="50.814813897013664" lon="4.672133009880781">
        <ele>21.690000000000001</ele>
        <time>2021-07-03T10:59:25Z</time>
      </trkpt>
      <trkpt lat="50.81486058421433" lon="4.672042485326529">
        <ele>21.75</ele>
        <time>2021-07-03T10:59:30Z</time>
      </trkpt>
      <trkpt lat="50.814868127927184" lon="4.672024128958583">
        <ele>21.760000000000002</ele>
        <time>2021-07-03T10:59:31Z</time>
      </trkpt>
      <trkpt lat="50.814901906996965" lon="4.671960594132543">
        <ele>21.82</ele>
        <time>2021-07-03T10:59:35Z</time>
      </trkpt>
      <trkpt lat="50.814917078241706" lon="4.671949781477451">
        <ele>21.829999999999998</ele>
        <time>2021-07-03T10:59:36Z</time>
      </trkpt>
      <trkpt lat="50.815015565603971" lon="4.671894209459424">
        <ele>21.93</ele>
        <time>2021-07-03T10:59:44Z</time>
      </trkpt>
      <trkpt lat="50.815238021314144" lon="4.671767894178629">
        <ele>22.210000000000001</ele>
        <time>2021-07-03T11:00:04Z</time>
      </trkpt>
      <trkpt lat="50.815367437899113" lon="4.67174107208848">
        <ele>22.34</ele>
        <time>2021-07-03T11:00:14Z</time>
      </trkpt>
      <trkpt lat="50.815637083724141" lon="4.671610649675131">
        <ele>21.25</ele>
        <time>2021-07-03T11:00:33Z</time>
      </trkpt>
      <trkpt lat="50.815848978236318" lon="4.671520795673132">
        <ele>21.41</ele>
        <time>2021-07-03T11:00:47Z</time>
      </trkpt>
      <trkpt lat="50.815882841125131" lon="4.671503193676472">
        <ele>23.859999999999999</ele>
        <time>2021-07-03T11:00:52Z</time>
      </trkpt>
      <trkpt lat="50.81603036262095" lon="4.671427085995674">
        <ele>24.010000000000002</ele>
        <time>2021-07-03T11:01:05Z</time>
      </trkpt>
      <trkpt lat="50.816231947392225" lon="4.671280486509204">
        <ele>24.16</ele>
        <time>2021-07-03T11:01:21Z</time>
      </trkpt>
      <trkpt lat="50.816407380625606" lon="4.671221310272813">
        <ele>25.050000000000001</ele>
        <time>2021-07-03T11:01:30Z</time>
      </trkpt>
      <trkpt lat="50.816473932936788" lon="4.671155260875821">
        <ele>25.079999999999998</ele>
        <time>2021-07-03T11:01:34Z</time>
      </trkpt>
      <trkpt lat="50.816493043676019" lon="4.671146376058459">
        <ele>25.09</ele>
        <time>2021-07-03T11:01:35Z</time>
      </trkpt>
      <trkpt lat="50.816519279032946" lon="4.671141598373652">
        <ele>25.100000000000001</ele>
        <time>2021-07-03T11:01:36Z</time>
      </trkpt>
      <trkpt lat="50.816805269569159" lon="4.671018635854125">
        <ele>25.260000000000002</ele>
        <time>2021-07-03T11:01:54Z</time>
      </trkpt>
      <trkpt lat="50.817086230963469" lon="4.670829707756639">
        <ele>25.420000000000002</ele>
        <time>2021-07-03T11:02:11Z</time>
      </trkpt>
      <trkpt lat="50.817298544570804" lon="4.670598451048136">
        <ele>26.440000000000001</ele>
        <time>2021-07-03T11:02:27Z</time>
      </trkpt>
      <trkpt lat="50.817494345828891" lon="4.670317992568016">
        <ele>27.52</ele>
        <time>2021-07-03T11:02:44Z</time>
      </trkpt>
      <trkpt lat="50.817678328603506" lon="4.670138955116272">
        <ele>28.530000000000001</ele>
        <time>2021-07-03T11:02:57Z</time>
      </trkpt>
      <trkpt lat="50.81769123673439" lon="4.67012177221477">
        <ele>28.539999999999999</ele>
        <time>2021-07-03T11:02:58Z</time>
      </trkpt>
      <trkpt lat="50.817703139036894" lon="4.670107522979379">
        <ele>28.550000000000001</ele>
        <time>2021-07-03T11:02:59Z</time>
      </trkpt>
      <trkpt lat="50.817712191492319" lon="4.670093022286892">
        <ele>28.57</ele>
        <time>2021-07-03T11:03:00Z</time>
      </trkpt>
      <trkpt lat="50.817735493183136" lon="4.670071983709931">
        <ele>29.359999999999999</ele>
        <time>2021-07-03T11:03:02Z</time>
      </trkpt>
      <trkpt lat="50.81774890422821" lon="4.670057399198413">
        <ele>29.370000000000001</ele>
        <time>2021-07-03T11:03:03Z</time>
      </trkpt>
      <trkpt lat="50.817940346896648" lon="4.669840727001429">
        <ele>30.32</ele>
        <time>2021-07-03T11:03:14Z</time>
      </trkpt>
      <trkpt lat="50.818266738206148" lon="4.669501427561045">
        <ele>32.380000000000003</ele>
        <time>2021-07-03T11:03:30Z</time>
      </trkpt>
      <trkpt lat="50.818520542234182" lon="4.669424565508962">
        <ele>32.600000000000001</ele>
        <time>2021-07-03T11:03:46Z</time>
      </trkpt>
      <trkpt lat="50.81866898573935" lon="4.669392379000783">
        <ele>30.420000000000002</ele>
        <time>2021-07-03T11:03:54Z</time>
      </trkpt>
      <trkpt lat="50.818901164457202" lon="4.669319540262222">
        <ele>29.879999999999999</ele>
        <time>2021-07-03T11:04:09Z</time>
      </trkpt>
      <trkpt lat="50.819099480286241" lon="4.669253993779421">
        <ele>28.420000000000002</ele>
        <time>2021-07-03T11:04:22Z</time>
      </trkpt>
      <trkpt lat="50.819340040907264" lon="4.66915424913168">
        <ele>27.870000000000001</ele>
        <time>2021-07-03T11:04:38Z</time>
      </trkpt>
      <trkpt lat="50.819604154676199" lon="4.669058192521334">
        <ele>26.359999999999999</ele>
        <time>2021-07-03T11:04:57Z</time>
      </trkpt>
      <trkpt lat="50.819848068058491" lon="4.668959034606814">
        <ele>25.030000000000001</ele>
        <time>2021-07-03T11:05:15Z</time>
      </trkpt>
      <trkpt lat="50.819968767464161" lon="4.668727358803153">
        <ele>25.260000000000002</ele>
        <time>2021-07-03T11:05:30Z</time>
      </trkpt>
      <trkpt lat="50.820060214027762" lon="4.668556451797485">
        <ele>24.640000000000001</ele>
        <time>2021-07-03T11:05:43Z</time>
      </trkpt>
      <trkpt lat="50.820142524316907" lon="4.668582435697317">
        <ele>23.969999999999999</ele>
        <time>2021-07-03T11:06:00Z</time>
      </trkpt>
      <trkpt lat="50.820164568722248" lon="4.668651921674609">
        <ele>24.27</ele>
        <time>2021-07-03T11:06:17Z</time>
      </trkpt>
      <trkpt lat="50.820144452154636" lon="4.668682934716344">
        <ele>24.640000000000001</ele>
        <time>2021-07-03T11:06:43Z</time>
      </trkpt>
      <trkpt lat="50.820136656984687" lon="4.668671870604157">
        <ele>24.890000000000001</ele>
        <time>2021-07-03T11:07:00Z</time>
      </trkpt>
      <trkpt lat="50.82012458704412" lon="4.668639348819852">
        <ele>-14.65</ele>
        <time>2021-07-03T11:07:17Z</time>
      </trkpt>
    </trkseg>
  </trk>

</gpx>